Provisional Data: Marsh Creek near Blanchard, PA


Please select a monitoring station.
Please select start date.
Please select start date.

Toggle Unit: C/F Toggle Unit: C/F
Sample Time Temperature (C) Temperature (F) Specific Conductivity (mS/cm) pH   Turbidity (NTU+) DO (mg/L)
12/4/2020 12:00:00 AM 3.72 38.696 0.122 6.33 1.76 12.59
12/4/2020 12:15:00 AM 3.69 38.642 0.122 6.33 1.86 12.59
12/4/2020 12:30:00 AM 3.65 38.57 0.122 6.35 1.78 12.59
12/4/2020 12:45:00 AM 3.61 38.498 0.122 6.32 1.83 12.6
12/4/2020 1:00:00 AM 3.57 38.426 0.122 6.32 1.83 12.61
12/4/2020 1:15:00 AM 3.53 38.354 0.122 6.31 1.97 12.62
12/4/2020 1:30:00 AM 3.5 38.3 0.122 6.32 1.95 12.63
12/4/2020 1:45:00 AM 3.48 38.264 0.123 6.32 2.3 12.64
12/4/2020 2:00:00 AM 3.43 38.174 0.123 6.28 1.82 12.65
12/4/2020 2:15:00 AM 3.38 38.084 0.122 6.23 1.83 12.66
12/4/2020 2:30:00 AM 3.33 37.994 0.122 6.29 1.88 12.68
12/4/2020 2:45:00 AM 3.29 37.922 0.122 6.26 1.94 12.69
12/4/2020 3:00:00 AM 3.26 37.868 0.122 6.3 1.95 12.7
12/4/2020 3:15:00 AM 3.24 37.832 0.123 6.29 1.89 12.72
12/4/2020 3:30:00 AM 3.21 37.778 0.122 6.29 1.9 12.73
12/4/2020 3:45:00 AM 3.2 37.76 0.122 6.31 1.91 12.73
12/4/2020 4:00:00 AM 3.18 37.724 0.122 6.31 1.86 12.74
12/4/2020 4:15:00 AM 3.18 37.724 0.122 6.3 1.8 12.75
12/4/2020 4:30:00 AM 3.17 37.706 0.122 6.32 1.78 12.75
12/4/2020 4:45:00 AM 3.16 37.688 0.122 6.3 1.9 12.76
12/4/2020 5:00:00 AM 3.16 37.688 0.122 6.31 1.75 12.76
12/4/2020 5:15:00 AM 3.15 37.67 0.122 6.33 1.78 12.77
12/4/2020 5:30:00 AM 3.16 37.688 0.123 6.35 1.82 12.76
12/4/2020 5:45:00 AM 3.15 37.67 0.122 6.32 1.87 12.77
12/4/2020 6:00:00 AM 3.17 37.706 0.123 6.33 2.03 12.76
12/4/2020 6:15:00 AM 3.14 37.652 0.123 6.29 2.05 12.76
12/4/2020 6:30:00 AM 3.12 37.616 0.122 6.32 1.98 12.77
12/4/2020 6:45:00 AM 3.12 37.616 0.122 6.31 2.54 12.77
12/4/2020 7:00:00 AM 3.09 37.562 0.122 6.3 2.12 12.78
12/4/2020 7:15:00 AM 3.06 37.508 0.122 6.28 2 12.79
12/4/2020 7:30:00 AM 3.04 37.472 0.122 6.32 1.96 12.81
12/4/2020 7:45:00 AM 3.03 37.454 0.122 6.31 2.23 12.85
12/4/2020 8:00:00 AM 3.02 37.436 0.122 6.32 2.07 12.92
12/4/2020 8:15:00 AM 3.01 37.418 0.122 6.33 1.79 13
12/4/2020 8:30:00 AM 3.01 37.418 0.122 6.35 1.81 13.1
12/4/2020 8:45:00 AM 3.02 37.436 0.122 6.39 1.76 13.18
12/4/2020 9:00:00 AM 3.07 37.526 0.122 6.4 2.02 13.28
12/4/2020 9:15:00 AM 3.12 37.616 0.122 6.46 1.91 13.38
12/4/2020 9:30:00 AM 3.17 37.706 0.121 6.46 1.78 13.47
12/4/2020 9:45:00 AM 3.24 37.832 0.121 6.48 1.85 13.54
12/4/2020 10:00:00 AM 3.29 37.922 0.122 6.55 2.2 13.6
12/4/2020 10:15:00 AM 3.34 38.012 0.121 6.57 2.16 13.67
12/4/2020 10:30:00 AM 3.45 38.21 0.121 6.58 1.92 13.74
12/4/2020 10:45:00 AM 3.57 38.426 0.121 6.64 1.78 13.78
12/4/2020 11:00:00 AM 3.69 38.642 0.121 6.67 2.14 13.81
12/4/2020 11:15:00 AM 3.82 38.876 0.121 6.71 1.79 13.84
12/4/2020 11:30:00 AM 3.97 39.146 0.121 6.74 1.94 13.87
12/4/2020 11:45:00 AM 4.06 39.308 0.12 6.75 2.12 13.87
12/4/2020 12:00:00 PM 4.17 39.506 0.121 6.75 2.3 13.87
12/4/2020 12:15:00 PM 4.35 39.83 0.12 6.8 1.85 13.86
12/4/2020 12:30:00 PM 4.49 40.082 0.12 6.83 1.78 13.84
12/4/2020 12:45:00 PM 4.63 40.334 0.12 6.87 1.87 13.83
12/4/2020 1:00:00 PM 4.68 40.424 0.12 6.85 1.79 13.8
12/4/2020 1:15:00 PM 4.71 40.478 0.12 6.88 1.67 13.78
12/4/2020 1:30:00 PM 4.79 40.622 0.12 6.89 1.75 13.74
12/4/2020 1:45:00 PM 4.86 40.748 0.119 6.91 1.65 13.73
12/4/2020 2:00:00 PM 4.92 40.856 0.119 6.9 1.78 13.69
12/4/2020 2:15:00 PM 4.97 40.946 0.119 6.9 1.63 13.64
12/4/2020 2:30:00 PM 5 41 0.12 6.88 1.65 13.58
12/4/2020 2:45:00 PM 5.02 41.036 0.12 6.88 1.68 13.54
12/4/2020 3:00:00 PM 5.03 41.054 0.12 6.86 1.74 13.5
12/4/2020 3:15:00 PM 5.02 41.036 0.12 6.84 1.72 13.43
12/4/2020 3:30:00 PM 5 41 0.12 6.81 1.71 13.36
12/4/2020 3:45:00 PM 4.96 40.928 0.12 6.78 1.68 13.28
12/4/2020 4:00:00 PM 4.92 40.856 0.12 6.74 1.72 13.2
12/4/2020 4:15:00 PM 4.88 40.784 0.119 6.72 1.67 13.12
12/4/2020 4:30:00 PM 4.86 40.748 0.12 6.67 1.64 13.03
12/4/2020 4:45:00 PM 4.84 40.712 0.12 6.62 1.7 12.94
12/4/2020 5:00:00 PM 4.82 40.676 0.12 6.59 1.78 12.85
12/4/2020 5:15:00 PM 4.81 40.658 0.12 6.56 1.94 12.76
12/4/2020 5:30:00 PM 4.81 40.658 0.12 6.52 2.17 12.69
12/4/2020 5:45:00 PM 4.81 40.658 0.12 6.52 2.12 12.61
12/4/2020 6:00:00 PM 4.82 40.676 0.12 6.5 8.41 12.54
12/4/2020 6:15:00 PM 4.82 40.676 0.12 6.47 1.81 12.48
12/4/2020 6:30:00 PM 4.83 40.694 0.12 6.45 1.75 12.42
12/4/2020 6:45:00 PM 4.86 40.748 0.121 6.46 1.82 12.37
12/4/2020 7:00:00 PM 4.86 40.748 0.12 6.44 1.67 12.33
12/4/2020 7:15:00 PM 4.88 40.784 0.121 6.43 1.89 12.29
12/4/2020 7:30:00 PM 4.88 40.784 0.121 6.42 1.71 12.26
12/4/2020 7:45:00 PM 4.88 40.784 0.121 6.4 1.72 12.24
12/4/2020 8:00:00 PM 4.87 40.766 0.121 6.39 1.69 12.22
12/4/2020 8:15:00 PM 4.87 40.766 0.121 6.39 1.64 12.2
12/4/2020 8:30:00 PM 4.86 40.748 0.121 6.38 1.67 12.2
12/4/2020 8:45:00 PM 4.86 40.748 0.121 6.36 1.71 12.19
12/4/2020 9:00:00 PM 4.85 40.73 0.121 6.35 1.69 12.18
12/4/2020 9:15:00 PM 4.86 40.748 0.121 6.34 1.73 12.17
12/4/2020 9:30:00 PM 4.86 40.748 0.121 6.34 1.74 12.17
12/4/2020 9:45:00 PM 4.86 40.748 0.121 6.33 1.74 12.15
12/4/2020 10:00:00 PM 4.86 40.748 0.121 6.34 1.68 12.15
12/4/2020 10:15:00 PM 4.87 40.766 0.121 6.34 1.68 12.15
12/4/2020 10:30:00 PM 4.88 40.784 0.121 6.33 2.27 12.13
12/4/2020 10:45:00 PM 4.89 40.802 0.121 6.33 1.8 12.13
12/4/2020 11:00:00 PM 4.91 40.838 0.121 6.32 2.04 12.12
12/4/2020 11:15:00 PM 4.92 40.856 0.121 6.31 1.7 12.11
12/4/2020 11:30:00 PM 4.93 40.874 0.122 6.31 1.71 12.1
12/4/2020 11:45:00 PM 4.94 40.892 0.122 6.3 1.67 12.09
12/5/2020 12:00:00 AM 4.95 40.91 0.122 6.31 1.66 12.09
12/5/2020 12:15:00 AM 4.96 40.928 0.122 6.3 1.68 12.07
12/5/2020 12:30:00 AM 4.97 40.946 0.122 6.3 1.6 12.08
12/5/2020 12:45:00 AM 4.98 40.964 0.122 6.3 1.65 12.07
12/5/2020 1:00:00 AM 4.98 40.964 0.122 6.3 1.67 12.06
12/5/2020 1:15:00 AM 4.98 40.964 0.122 6.3 1.73 12.06
12/5/2020 1:30:00 AM 4.97 40.946 0.122 6.29 1.63 12.06
12/5/2020 1:45:00 AM 4.96 40.928 0.122 6.29 1.63 12.06
12/5/2020 2:00:00 AM 4.94 40.892 0.122 6.3 1.73 12.05
12/5/2020 2:15:00 AM 4.93 40.874 0.122 6.29 1.86 12.05
12/5/2020 2:30:00 AM 4.9 40.82 0.122 6.28 1.82 12.05
12/5/2020 2:45:00 AM 4.87 40.766 0.122 6.25 1.75 12.05
12/5/2020 3:00:00 AM 4.84 40.712 0.122 6.26 1.75 12.06
12/5/2020 3:15:00 AM 4.82 40.676 0.122 6.25 1.92 12.06
12/5/2020 3:30:00 AM 4.8 40.64 0.122 6.28 1.64 12.06
12/5/2020 3:45:00 AM 4.79 40.622 0.122 6.26 1.96 12.07
12/5/2020 4:00:00 AM 4.77 40.586 0.122 6.24 1.81 12.07
12/5/2020 4:15:00 AM 4.76 40.568 0.122 6.27 1.83 12.08
12/5/2020 4:30:00 AM 4.75 40.55 0.122 6.26 1.78 12.08
12/5/2020 4:45:00 AM 4.74 40.532 0.122 6.27 1.72 12.09
12/5/2020 5:00:00 AM 4.73 40.514 0.122 6.26 1.7 12.09
12/5/2020 5:15:00 AM 4.73 40.514 0.122 6.27 1.72 12.09
12/5/2020 5:30:00 AM 4.73 40.514 0.122 6.27 1.74 12.1
12/5/2020 5:45:00 AM 4.73 40.514 0.122 6.26 1.76 12.1
12/5/2020 6:00:00 AM 4.73 40.514 0.122 6.26 1.8 12.1
12/5/2020 6:15:00 AM 4.74 40.532 0.122 6.26 1.76 12.1
12/5/2020 6:30:00 AM 4.74 40.532 0.122 6.33 1.85 12.1
12/5/2020 6:45:00 AM 4.75 40.55 0.122 6.34 2 12.1
12/5/2020 7:00:00 AM 4.75 40.55 0.122 6.35 2.04 12.11
12/5/2020 7:15:00 AM 4.76 40.568 0.122 6.35 2 12.1
12/5/2020 7:30:00 AM 4.76 40.568 0.122 6.36 2.12 12.1
12/5/2020 7:45:00 AM 4.76 40.568 0.122 6.35 1.79 12.11
12/5/2020 8:00:00 AM 4.77 40.586 0.122 6.35 1.7 12.13
12/5/2020 8:15:00 AM 4.77 40.586 0.122 6.36 2.71 12.17
12/5/2020 8:30:00 AM 4.78 40.604 0.122 6.36 1.74 12.21
12/5/2020 8:45:00 AM 4.79 40.622 0.122 6.38 1.78 12.27
12/5/2020 9:00:00 AM 4.8 40.64 0.122 6.4 1.64 12.36
12/5/2020 9:15:00 AM 4.83 40.694 0.122 6.43 1.63 12.47
12/5/2020 9:30:00 AM 4.85 40.73 0.122 6.46 1.81 12.61
12/5/2020 9:45:00 AM 4.86 40.748 0.122 6.5 1.81 12.73
12/5/2020 10:00:00 AM 4.91 40.838 0.122 6.54 1.68 12.85
12/5/2020 10:15:00 AM 4.95 40.91 0.121 6.57 1.63 12.95
12/5/2020 10:30:00 AM 4.96 40.928 0.121 6.6 1.7 13.02
12/5/2020 10:45:00 AM 4.97 40.946 0.121 6.62 1.69 13.1
12/5/2020 11:00:00 AM 4.99 40.982 0.121 6.66 1.71 13.17
12/5/2020 11:15:00 AM 4.98 40.964 0.121 6.7 1.97 13.2
12/5/2020 11:30:00 AM 4.99 40.982 0.121 6.7 1.8 13.2
12/5/2020 11:45:00 AM 4.99 40.982 0.121 6.7 4.17 13.22
12/5/2020 12:00:00 PM 5.02 41.036 0.12 6.75 1.92 13.28
12/5/2020 12:15:00 PM 5.04 41.072 0.12 6.82 1.78 13.31
12/5/2020 12:30:00 PM 5.05 41.09 0.12 6.8 1.81 13.31
12/5/2020 12:45:00 PM 5.05 41.09 0.12 6.8 1.6 13.29
12/5/2020 1:00:00 PM 5.07 41.126 0.12 6.81 1.59 13.28
12/5/2020 1:15:00 PM 5.1 41.18 0.12 6.84 1.58 13.31
12/5/2020 1:30:00 PM 5.11 41.198 0.12 6.83 1.57 13.29
12/5/2020 1:45:00 PM 5.11 41.198 0.12 6.84 1.6 13.23
12/5/2020 2:00:00 PM 5.1 41.18 0.12 6.8 1.54 13.14
12/5/2020 2:15:00 PM 5.09 41.162 0.12 6.78 1.58 13.12
12/5/2020 2:30:00 PM 5.08 41.144 0.12 6.79 1.55 13.07
12/5/2020 2:45:00 PM 5.08 41.144 0.12 6.77 1.56 13.06
12/5/2020 3:00:00 PM 5.08 41.144 0.12 6.78 1.54 13.08
12/5/2020 3:15:00 PM 5.06 41.108 0.12 6.78 1.64 13.03
12/5/2020 3:30:00 PM 5.05 41.09 0.12 6.74 1.63 12.96
12/5/2020 3:45:00 PM 5.03 41.054 0.12 6.72 1.64 12.89
12/5/2020 4:00:00 PM 5 41 0.12 6.69 1.62 12.85
12/5/2020 4:15:00 PM 4.99 40.982 0.12 6.67 2.35 12.79
12/5/2020 4:30:00 PM 4.97 40.946 0.12 6.66 1.53 12.73
12/5/2020 4:45:00 PM 4.94 40.892 0.12 6.64 7.56 12.66
12/5/2020 5:00:00 PM 4.92 40.856 0.12 6.61 1.8 12.6
12/5/2020 5:15:00 PM 4.91 40.838 0.12 6.57 2.41 12.54
12/5/2020 5:30:00 PM 4.89 40.802 0.12 6.55 1.99 12.49
12/5/2020 5:45:00 PM 4.86 40.748 0.12 6.52 1.84 12.45
12/5/2020 6:00:00 PM 4.84 40.712 0.12 6.51 1.88 12.41
12/5/2020 6:15:00 PM 4.82 40.676 0.12 6.51 1.69 12.37
12/5/2020 6:30:00 PM 4.8 40.64 0.12 6.48 1.62 12.34
12/5/2020 6:45:00 PM 4.78 40.604 0.12 6.47 1.65 12.32
12/5/2020 7:00:00 PM 4.76 40.568 0.12 6.46 1.58 12.29
12/5/2020 7:15:00 PM 4.74 40.532 0.121 6.44 1.62 12.27
12/5/2020 7:30:00 PM 4.71 40.478 0.121 6.45 1.66 12.25
12/5/2020 7:45:00 PM 4.69 40.442 0.121 6.43 1.53 12.25
12/5/2020 8:00:00 PM 4.66 40.388 0.121 6.43 1.6 12.24
12/5/2020 8:15:00 PM 4.64 40.352 0.121 6.42 1.63 12.24
12/5/2020 8:30:00 PM 4.61 40.298 0.121 6.42 1.68 12.23
12/5/2020 8:45:00 PM 4.59 40.262 0.121 6.36 1.74 12.23
12/5/2020 9:00:00 PM 4.58 40.244 0.121 6.42 1.62 12.23
12/5/2020 9:15:00 PM 4.55 40.19 0.122 6.4 1.61 12.24
12/5/2020 9:30:00 PM 4.53 40.154 0.122 6.41 1.57 12.24
12/5/2020 9:45:00 PM 4.48 40.064 0.122 6.4 1.59 12.24
12/5/2020 10:00:00 PM 4.44 39.992 0.122 6.39 1.64 12.26
12/5/2020 10:15:00 PM 4.42 39.956 0.122 6.38 1.6 12.26
12/5/2020 10:30:00 PM 4.4 39.92 0.122 6.38 1.62 12.26
12/5/2020 10:45:00 PM 4.38 39.884 0.122 6.4 1.58 12.27
12/5/2020 11:00:00 PM 4.36 39.848 0.122 6.36 1.75 12.28
12/5/2020 11:15:00 PM 4.33 39.794 0.122 6.37 1.58 12.28
12/5/2020 11:30:00 PM 4.3 39.74 0.122 6.37 1.62 12.28
12/5/2020 11:45:00 PM 4.26 39.668 0.122 6.37 1.64 12.29
12/6/2020 12:00:00 AM 4.22 39.596 0.122 6.36 1.57 12.31
12/6/2020 12:15:00 AM 4.2 39.56 0.122 6.38 1.56 12.32
12/6/2020 12:30:00 AM 4.18 39.524 0.122 6.38 1.57 12.33
12/6/2020 12:45:00 AM 4.16 39.488 0.122 6.4 1.78 12.33
12/6/2020 1:00:00 AM 4.13 39.434 0.122 6.37 1.77 12.34
12/6/2020 1:15:00 AM 4.11 39.398 0.122 6.37 1.86 12.35
12/6/2020 1:30:00 AM 4.08 39.344 0.122 6.37 1.81 12.37
12/6/2020 1:45:00 AM 4.07 39.326 0.122 6.39 1.72 12.36
12/6/2020 2:00:00 AM 4.04 39.272 0.122 6.38 3.02 12.37
12/6/2020 2:15:00 AM 4.03 39.254 0.122 6.36 2.47 12.38
12/6/2020 2:30:00 AM 4.01 39.218 0.122 6.35 2.46 12.4
12/6/2020 2:45:00 AM 3.99 39.182 0.122 6.34 2.45 12.39
12/6/2020 3:00:00 AM 3.96 39.128 0.122 6.36 2.73 12.4
12/6/2020 3:15:00 AM 3.94 39.092 0.122 6.36 2.49 12.42
12/6/2020 3:30:00 AM 3.91 39.038 0.122 6.32 2.7 12.41
12/6/2020 3:45:00 AM 3.87 38.966 0.122 6.35 2.78 12.43
12/6/2020 4:00:00 AM 3.84 38.912 0.122 6.35 2.54 12.45
12/6/2020 4:15:00 AM 3.84 38.912 0.122 6.36 2.51 12.44
12/6/2020 4:30:00 AM 3.83 38.894 0.122 6.37 2.68 12.45
12/6/2020 4:45:00 AM 3.83 38.894 0.122 6.33 2.82 12.45
12/6/2020 5:00:00 AM 3.81 38.858 0.122 6.34 2.55 12.45
12/6/2020 5:15:00 AM 3.79 38.822 0.122 6.37 3.4 12.47
12/6/2020 5:30:00 AM 3.77 38.786 0.122 6.34 2.87 12.48
12/6/2020 5:45:00 AM 3.74 38.732 0.122 6.36 3 12.48
12/6/2020 6:00:00 AM 3.71 38.678 0.122 6.36 2.61 12.49
12/6/2020 6:15:00 AM 3.68 38.624 0.122 6.35 2.53 12.49
12/6/2020 6:30:00 AM 3.66 38.588 0.122 6.33 2.79 12.5
12/6/2020 6:45:00 AM 3.63 38.534 0.122 6.35 2.66 12.51
12/6/2020 7:00:00 AM 3.59 38.462 0.122 6.34 2.91 12.53
12/6/2020 7:15:00 AM 3.54 38.372 0.122 6.35 2.16 12.53
12/6/2020 7:30:00 AM 3.49 38.282 0.122 6.38 1.84 12.56
12/6/2020 7:45:00 AM 3.45 38.21 0.122 6.37 1.85 12.62
12/6/2020 8:00:00 AM 3.42 38.156 0.122 6.38 1.7 12.69
12/6/2020 8:15:00 AM 3.4 38.12 0.122 6.39 1.66 12.78
12/6/2020 8:30:00 AM 3.38 38.084 0.122 6.43 1.78 12.89
12/6/2020 8:45:00 AM 3.39 38.102 0.122 6.45 1.77 13.01
12/6/2020 9:00:00 AM 3.42 38.156 0.122 6.47 1.65 13.14
12/6/2020 9:15:00 AM 3.46 38.228 0.122 6.52 1.61 13.26
12/6/2020 9:30:00 AM 3.5 38.3 0.121 6.56 1.63 13.37
12/6/2020 9:45:00 AM 3.54 38.372 0.121 6.57 1.66 13.47
12/6/2020 10:00:00 AM 3.56 38.408 0.121 6.63 1.62 13.55
12/6/2020 10:15:00 AM 3.58 38.444 0.121 6.66 1.58 13.61
12/6/2020 10:30:00 AM 3.6 38.48 0.121 6.68 1.61 13.69
12/6/2020 10:45:00 AM 3.61 38.498 0.121 6.7 1.6 13.74
12/6/2020 11:00:00 AM 3.76 38.768 0.121 6.76 1.58 13.82
12/6/2020 11:15:00 AM 3.8 38.84 0.121 6.79 1.61 13.85
12/6/2020 11:30:00 AM 3.89 39.002 0.12 6.82 2.32 13.9
12/6/2020 11:45:00 AM 4 39.2 0.12 6.87 1.88 13.94
12/6/2020 12:00:00 PM 4.07 39.326 0.12 6.91 1.73 13.97
12/6/2020 12:15:00 PM 4.24 39.632 0.12 6.95 1.72 13.97
12/6/2020 12:30:00 PM 4.4 39.92 0.119 7 1.57 13.99
12/6/2020 12:45:00 PM 4.39 39.902 0.119 6.99 1.51 13.96
12/6/2020 1:00:00 PM 4.44 39.992 0.119 7.02 1.47 13.95
12/6/2020 1:15:00 PM 4.47 40.046 0.119 7.06 1.49 13.94
12/6/2020 1:30:00 PM 4.53 40.154 0.119 7.09 1.51 13.92
12/6/2020 1:45:00 PM 4.65 40.37 0.119 7.14 1.44 13.9
12/6/2020 2:00:00 PM 4.69 40.442 0.119 7.15 1.54 13.87
12/6/2020 2:15:00 PM 4.77 40.586 0.119 7.15 1.47 13.82
12/6/2020 2:30:00 PM 4.79 40.622 0.119 7.19 1.48 13.82
12/6/2020 2:45:00 PM 4.8 40.64 0.119 7.22 1.45 13.8
12/6/2020 3:00:00 PM 4.79 40.622 0.119 7.21 1.46 13.79
12/6/2020 3:15:00 PM 4.74 40.532 0.119 7.2 1.44 13.75
12/6/2020 3:30:00 PM 4.65 40.37 0.119 7.18 1.51 13.69
12/6/2020 3:45:00 PM 4.57 40.226 0.119 7.13 1.52 13.63
12/6/2020 4:00:00 PM 4.5 40.1 0.119 7.11 1.48 13.59
12/6/2020 4:15:00 PM 4.43 39.974 0.119 7.06 1.49 13.54
12/6/2020 4:30:00 PM 4.34 39.812 0.119 7.01 1.52 13.46
12/6/2020 4:45:00 PM 4.24 39.632 0.119 6.95 1.47 13.37
12/6/2020 5:00:00 PM 4.14 39.452 0.119 6.87 1.59 13.27
12/6/2020 5:15:00 PM 4.04 39.272 0.119 6.81 2.02 13.19
12/6/2020 5:30:00 PM 3.96 39.128 0.119 6.76 1.74 13.13
12/6/2020 5:45:00 PM 3.88 38.984 0.119 6.71 1.85 13.07
12/6/2020 6:00:00 PM 3.8 38.84 0.119 6.68 1.71 13.03
12/6/2020 6:15:00 PM 3.71 38.678 0.119 6.66 1.71 12.99
12/6/2020 6:30:00 PM 3.62 38.516 0.12 6.63 1.66 12.96
12/6/2020 6:45:00 PM 3.54 38.372 0.12 6.59 1.69 12.91
12/6/2020 7:00:00 PM 3.45 38.21 0.12 6.56 1.61 12.89
12/6/2020 7:15:00 PM 3.37 38.066 0.12 6.53 1.62 12.86
12/6/2020 7:30:00 PM 3.3 37.94 0.12 6.52 1.55 12.84
12/6/2020 7:45:00 PM 3.25 37.85 0.121 6.47 1.56 12.81
12/6/2020 8:00:00 PM 3.18 37.724 0.121 6.47 1.55 12.79
12/6/2020 8:15:00 PM 3.13 37.634 0.121 6.46 1.66 12.78
12/6/2020 8:30:00 PM 3.07 37.526 0.121 6.44 1.6 12.77
12/6/2020 8:45:00 PM 3.02 37.436 0.121 6.43 1.61 12.76
12/6/2020 9:00:00 PM 2.97 37.346 0.121 6.41 2.2 12.75
12/6/2020 9:15:00 PM 2.91 37.238 0.121 6.39 1.65 12.77
12/6/2020 9:30:00 PM 2.85 37.13 0.121 6.36 1.68 12.78
12/6/2020 9:45:00 PM 2.8 37.04 0.122 6.41 1.7 12.79
12/6/2020 10:00:00 PM 2.73 36.914 0.122 6.4 1.56 12.81
12/6/2020 10:15:00 PM 2.69 36.842 0.122 6.39 1.58 12.82
12/6/2020 10:30:00 PM 2.63 36.734 0.122 6.39 1.62 12.85
12/6/2020 10:45:00 PM 2.56 36.608 0.122 6.38 1.69 12.87
12/6/2020 11:00:00 PM 2.51 36.518 0.122 6.39 1.56 12.87
12/6/2020 11:15:00 PM 2.45 36.41 0.123 6.37 1.54 12.89
12/6/2020 11:30:00 PM 2.38 36.284 0.122 6.35 1.62 12.92
12/6/2020 11:45:00 PM 2.32 36.176 0.123 6.38 1.62 12.94
12/7/2020 12:00:00 AM 2.24 36.032 0.122 6.38 1.59 12.97
12/7/2020 12:15:00 AM 2.18 35.924 0.123 6.37 1.76 12.98
12/7/2020 12:30:00 AM 2.12 35.816 0.123 6.35 1.56 13.01
12/7/2020 12:45:00 AM 2.06 35.708 0.123 6.37 1.64 13.04
12/7/2020 1:00:00 AM 2.01 35.618 0.123 6.38 1.6 13.06
12/7/2020 1:15:00 AM 1.97 35.546 0.123 6.37 1.61 13.07
12/7/2020 1:30:00 AM 1.92 35.456 0.122 6.31 1.62 13.09
12/7/2020 1:45:00 AM 1.89 35.402 0.123 6.38 1.65 13.11
12/7/2020 2:00:00 AM 1.84 35.312 0.123 6.35 1.58 13.13
12/7/2020 2:15:00 AM 1.79 35.222 0.123 6.37 1.57 13.14
12/7/2020 2:30:00 AM 1.73 35.114 0.123 6.37 1.55 13.15
12/7/2020 2:45:00 AM 1.67 35.006 0.123 6.35 1.55 13.17
12/7/2020 3:00:00 AM 1.61 34.898 0.123 6.37 1.56 13.2
12/7/2020 3:15:00 AM 1.59 34.862 0.123 6.38 1.64 13.22
12/7/2020 3:30:00 AM 1.58 34.844 0.123 6.38 1.71 13.22
12/7/2020 3:45:00 AM 1.57 34.826 0.123 6.39 1.58 13.23
12/7/2020 4:00:00 AM 1.55 34.79 0.123 6.34 1.68 13.25
12/7/2020 4:15:00 AM 1.53 34.754 0.123 6.38 1.65 13.25
12/7/2020 4:30:00 AM 1.51 34.718 0.123 6.4 1.63 13.27
12/7/2020 4:45:00 AM 1.48 34.664 0.123 6.38 1.66 13.29
12/7/2020 5:00:00 AM 1.45 34.61 0.123 6.38 1.67 13.29
12/7/2020 5:15:00 AM 1.44 34.592 0.123 6.38 1.66 13.3
12/7/2020 5:30:00 AM 1.42 34.556 0.123 6.39 1.68 13.32
12/7/2020 5:45:00 AM 1.39 34.502 0.123 6.39 1.59 13.34
12/7/2020 6:00:00 AM 1.37 34.466 0.123 6.37 1.75 13.34
12/7/2020 6:15:00 AM 1.36 34.448 0.123 6.39 1.67 13.33
12/7/2020 6:30:00 AM 1.35 34.43 0.123 6.38 1.7 13.35
12/7/2020 6:45:00 AM 1.33 34.394 0.123 6.37 1.69 13.36
12/7/2020 7:00:00 AM 1.32 34.376 0.123 6.39 1.72 13.37
12/7/2020 7:15:00 AM 1.31 34.358 0.123 6.39 1.87 13.37
12/7/2020 7:30:00 AM 1.3 34.34 0.123 6.39 1.94 13.38
12/7/2020 7:45:00 AM 1.3 34.34 0.123 6.39 1.69 13.43
12/7/2020 8:00:00 AM 1.29 34.322 0.122 6.41 1.52 13.5
12/7/2020 8:15:00 AM 1.3 34.34 0.122 6.42 1.54 13.59
12/7/2020 8:30:00 AM 1.31 34.358 0.122 6.44 1.53 13.69
12/7/2020 8:45:00 AM 1.32 34.376 0.122 6.46 1.55 13.78
12/7/2020 9:00:00 AM 1.33 34.394 0.122 6.49 1.56 13.85
12/7/2020 9:15:00 AM 1.36 34.448 0.122 6.51 1.5 13.94
12/7/2020 9:30:00 AM 1.37 34.466 0.122 6.55 1.58 14.04
12/7/2020 9:45:00 AM 1.42 34.556 0.122 6.57 1.58 14.13
12/7/2020 10:00:00 AM 1.45 34.61 0.122 6.61 1.54 14.22
12/7/2020 10:15:00 AM 1.49 34.682 0.122 6.63 1.57 14.3
12/7/2020 10:30:00 AM 1.53 34.754 0.121 6.66 1.52 14.38
12/7/2020 10:45:00 AM 1.6 34.88 0.121 6.71 1.53 14.44
12/7/2020 11:00:00 AM 1.69 35.042 0.121 6.73 1.56 14.51
12/7/2020 11:15:00 AM 1.76 35.168 0.121 6.76 1.55 14.55
12/7/2020 11:30:00 AM 1.79 35.222 0.121 6.79 1.63 14.6
12/7/2020 11:45:00 AM 1.84 35.312 0.12 6.83 1.56 14.64
12/7/2020 12:00:00 PM 1.9 35.42 0.121 6.86 1.53 14.66
12/7/2020 12:15:00 PM 1.96 35.528 0.12 6.89 1.5 14.68
12/7/2020 12:30:00 PM 2.09 35.762 0.12 6.91 1.59 14.69
12/7/2020 12:45:00 PM 2.42 36.356 0.12 7 1.54 14.7
12/7/2020 1:00:00 PM 2.56 36.608 0.12 7.01 1.53 14.68
12/7/2020 1:15:00 PM 2.61 36.698 0.119 7.03 1.53 14.68
12/7/2020 1:30:00 PM 2.67 36.806 0.119 7.05 1.5 14.64
12/7/2020 1:45:00 PM 2.73 36.914 0.119 7.05 1.5 14.62
12/7/2020 2:00:00 PM 2.83 37.094 0.119 7.09 1.51 14.59
12/7/2020 2:15:00 PM 2.77 36.986 0.119 7.08 1.52 14.55
12/7/2020 2:30:00 PM 2.7 36.86 0.119 7.05 1.52 14.48
12/7/2020 2:45:00 PM 2.64 36.752 0.119 7.06 1.49 14.45
12/7/2020 3:00:00 PM 2.7 36.86 0.119 7.08 1.44 14.41
12/7/2020 3:15:00 PM 2.75 36.95 0.119 7.09 1.46 14.37
12/7/2020 3:30:00 PM 2.76 36.968 0.119 7.09 1.53 14.33
12/7/2020 3:45:00 PM 2.73 36.914 0.119 7.07 1.49 14.26
12/7/2020 4:00:00 PM 2.68 36.824 0.118 7.05 1.48 14.17
12/7/2020 4:15:00 PM 2.66 36.788 0.119 7 1.49 14.08
12/7/2020 4:30:00 PM 2.66 36.788 0.119 6.96 1.5 13.97
12/7/2020 4:45:00 PM 2.66 36.788 0.119 6.9 1.52 13.85
12/7/2020 5:00:00 PM 2.65 36.77 0.119 6.85 1.45 13.74
12/7/2020 5:15:00 PM 2.62 36.716 0.119 6.8 1.55 13.65
12/7/2020 5:30:00 PM 2.57 36.626 0.119 6.76 1.51 13.58
12/7/2020 5:45:00 PM 2.51 36.518 0.119 6.72 1.56 13.53
12/7/2020 6:00:00 PM 2.47 36.446 0.119 6.67 1.53 13.47
12/7/2020 6:15:00 PM 2.4 36.32 0.119 6.63 1.56 13.46
12/7/2020 6:30:00 PM 2.32 36.176 0.12 6.6 1.6 13.42
12/7/2020 6:45:00 PM 2.25 36.05 0.12 6.52 1.73 13.4
12/7/2020 7:00:00 PM 2.19 35.942 0.12 6.57 1.59 13.36
12/7/2020 7:15:00 PM 2.14 35.852 0.12 6.55 1.63 13.34
12/7/2020 7:30:00 PM 2.09 35.762 0.12 6.53 1.53 13.31
12/7/2020 7:45:00 PM 2.04 35.672 0.12 6.49 1.5 13.27
12/7/2020 8:00:00 PM 1.99 35.582 0.12 6.49 1.48 13.26
12/7/2020 8:15:00 PM 1.96 35.528 0.12 6.49 1.49 13.24
12/7/2020 8:30:00 PM 1.94 35.492 0.121 6.47 1.54 13.22
12/7/2020 8:45:00 PM 1.9 35.42 0.121 6.45 1.55 13.21
12/7/2020 9:00:00 PM 1.88 35.384 0.121 6.43 1.55 13.19
12/7/2020 9:15:00 PM 1.85 35.33 0.121 6.44 1.59 13.19
12/7/2020 9:30:00 PM 1.84 35.312 0.121 6.44 1.6 13.18
12/7/2020 9:45:00 PM 1.82 35.276 0.121 6.43 1.53 13.17
12/7/2020 10:00:00 PM 1.8 35.24 0.121 6.42 1.56 13.17
12/7/2020 10:15:00 PM 1.78 35.204 0.121 6.43 1.49 13.17
12/7/2020 10:30:00 PM 1.75 35.15 0.121 6.41 1.5 13.18
12/7/2020 10:45:00 PM 1.72 35.096 0.121 6.41 1.51 13.18
12/7/2020 11:00:00 PM 1.7 35.06 0.121 6.41 1.53 13.18
12/7/2020 11:15:00 PM 1.69 35.042 0.121 6.41 1.5 13.19
12/7/2020 11:30:00 PM 1.67 35.006 0.121 6.4 1.6 13.19
12/7/2020 11:45:00 PM 1.67 35.006 0.122 6.41 1.87 13.2
12/8/2020 12:00:00 AM 1.66 34.988 0.122 6.41 2.25 13.22
12/8/2020 12:15:00 AM 1.64 34.952 0.122 6.4 1.8 13.22
12/8/2020 12:30:00 AM 1.62 34.916 0.122 6.4 2.07 13.23
12/8/2020 12:45:00 AM 1.6 34.88 0.122 6.4 1.66 13.23
12/8/2020 1:00:00 AM 1.57 34.826 0.122 6.41 1.5 13.24
12/8/2020 1:15:00 AM 1.56 34.808 0.122 6.4 1.55 13.27
12/8/2020 1:30:00 AM 1.54 34.772 0.122 6.4 1.51 13.27
12/8/2020 1:45:00 AM 1.53 34.754 0.122 6.37 1.53 13.28
12/8/2020 2:00:00 AM 1.51 34.718 0.122 6.4 1.55 13.27
12/8/2020 2:15:00 AM 1.49 34.682 0.122 6.39 1.5 13.3
12/8/2020 2:30:00 AM 1.46 34.628 0.122 6.38 1.52 13.29
12/8/2020 2:45:00 AM 1.42 34.556 0.122 6.39 1.52 13.32
12/8/2020 3:00:00 AM 1.41 34.538 0.122 6.4 1.54 13.33
12/8/2020 3:15:00 AM 1.4 34.52 0.122 6.39 1.55 13.33
12/8/2020 3:30:00 AM 1.39 34.502 0.122 6.4 1.48 13.33
12/8/2020 3:45:00 AM 1.35 34.43 0.122 6.38 1.48 13.34
12/8/2020 4:00:00 AM 1.32 34.376 0.122 6.38 1.53 13.33
12/8/2020 4:15:00 AM 1.28 34.304 0.123 6.37 1.48 13.35
12/8/2020 4:30:00 AM 1.24 34.232 0.123 6.37 1.56 13.36
12/8/2020 4:45:00 AM 1.21 34.178 0.123 6.37 1.62 13.36
12/8/2020 5:00:00 AM 1.17 34.106 0.122 6.38 1.53 13.37
12/8/2020 5:15:00 AM 1.13 34.034 0.122 6.36 1.48 13.39
12/8/2020 5:30:00 AM 1.1 33.98 0.123 6.37 1.75 13.4
12/8/2020 5:45:00 AM 1.05 33.89 0.123 6.37 1.58 13.41
12/8/2020 6:00:00 AM 1.01 33.818 0.123 6.36 1.55 13.42
12/8/2020 6:15:00 AM 0.97 33.746 0.123 6.35 1.6 13.44
12/8/2020 6:30:00 AM 0.92 33.656 0.123 6.35 1.69 13.45
12/8/2020 6:45:00 AM 0.88 33.584 0.123 6.36 1.61 13.47
12/8/2020 7:00:00 AM 0.84 33.512 0.123 6.35 1.69 13.48
12/8/2020 7:15:00 AM 0.79 33.422 0.123 6.35 2.05 13.51
12/8/2020 7:30:00 AM 0.75 33.35 0.123 6.36 1.91 13.54
12/8/2020 7:45:00 AM 0.71 33.278 0.123 6.37 1.66 13.61
12/8/2020 8:00:00 AM 0.68 33.224 0.123 6.38 1.79 13.68
12/8/2020 8:15:00 AM 0.65 33.17 0.122 6.38 1.51 13.77
12/8/2020 8:30:00 AM 0.63 33.134 0.122 6.41 1.45 13.87
12/8/2020 8:45:00 AM 0.65 33.17 0.122 6.43 1.54 13.97
12/8/2020 9:00:00 AM 0.69 33.242 0.122 6.46 1.49 14.08
12/8/2020 9:15:00 AM 0.74 33.332 0.122 6.45 1.51 14.19
12/8/2020 9:30:00 AM 0.8 33.44 0.122 6.53 1.55 14.29
12/8/2020 9:45:00 AM 0.89 33.602 0.122 6.56 1.5 14.36
12/8/2020 10:00:00 AM 0.96 33.728 0.122 6.58 1.54 14.44
12/8/2020 10:15:00 AM 1.05 33.89 0.122 6.61 1.53 14.51
12/8/2020 10:30:00 AM 1.16 34.088 0.122 6.65 1.54 14.56
12/8/2020 10:45:00 AM 1.26 34.268 0.121 6.68 1.52 14.64
12/8/2020 11:00:00 AM 1.36 34.448 0.121 6.72 1.49 14.67
12/8/2020 11:15:00 AM 1.47 34.646 0.121 6.73 1.48 14.69
12/8/2020 11:30:00 AM 1.61 34.898 0.121 6.77 1.51 14.74
12/8/2020 11:45:00 AM 1.69 35.042 0.12 6.79 1.45 14.75
12/8/2020 12:00:00 PM 1.83 35.294 0.12 6.81 1.52 14.76
12/8/2020 12:15:00 PM 1.92 35.456 0.12 6.83 1.47 14.78
12/8/2020 12:30:00 PM 2.05 35.69 0.12 6.86 1.45 14.78
12/8/2020 12:45:00 PM 2.14 35.852 0.12 6.87 1.49 14.77
12/8/2020 1:00:00 PM 2.26 36.068 0.12 6.9 1.45 14.75
12/8/2020 1:15:00 PM 2.36 36.248 0.12 6.92 1.47 14.75
12/8/2020 1:30:00 PM 2.45 36.41 0.119 6.93 1.45 14.71
12/8/2020 1:45:00 PM 2.56 36.608 0.119 6.95 1.5 14.68
12/8/2020 2:00:00 PM 2.64 36.752 0.119 6.97 1.5 14.65
12/8/2020 2:15:00 PM 2.71 36.878 0.119 6.99 1.45 14.61
12/8/2020 2:30:00 PM 2.77 36.986 0.119 6.99 1.51 14.57
12/8/2020 2:45:00 PM 2.79 37.022 0.119 7.01 1.43 14.55
12/8/2020 3:00:00 PM 2.85 37.13 0.119 7.01 1.46 14.48
12/8/2020 3:15:00 PM 2.82 37.076 0.119 7.01 1.49 14.47
12/8/2020 3:30:00 PM 2.8 37.04 0.119 7.01 1.47 14.43
12/8/2020 3:45:00 PM 2.77 36.986 0.119 7 1.47 14.38
12/8/2020 4:00:00 PM 2.72 36.896 0.119 6.98 1.47 14.32
12/8/2020 4:15:00 PM 2.66 36.788 0.119 6.95 1.44 14.25
12/8/2020 4:30:00 PM 2.59 36.662 0.12 6.92 1.48 14.16
12/8/2020 4:45:00 PM 2.51 36.518 0.12 6.87 1.49 14.06
12/8/2020 5:00:00 PM 2.44 36.392 0.12 6.79 1.52 13.94
12/8/2020 5:15:00 PM 2.36 36.248 0.12 6.77 1.5 13.87
12/8/2020 5:30:00 PM 2.28 36.104 0.12 6.74 1.56 13.8
12/8/2020 5:45:00 PM 2.2 35.96 0.12 6.68 1.56 13.73
12/8/2020 6:00:00 PM 2.11 35.798 0.12 6.65 1.57 13.7
12/8/2020 6:15:00 PM 2.02 35.636 0.12 6.62 1.58 13.67
12/8/2020 6:30:00 PM 1.95 35.51 0.121 6.6 1.66 13.63
12/8/2020 6:45:00 PM 1.86 35.348 0.12 6.58 1.58 13.62
12/8/2020 7:00:00 PM 1.81 35.258 0.121 6.55 1.66 13.59
12/8/2020 7:15:00 PM 1.73 35.114 0.121 6.53 1.62 13.56
12/8/2020 7:30:00 PM 1.66 34.988 0.121 6.51 1.53 13.55
12/8/2020 7:45:00 PM 1.6 34.88 0.121 6.5 1.51 13.53
12/8/2020 8:00:00 PM 1.55 34.79 0.121 6.48 1.57 13.5
12/8/2020 8:15:00 PM 1.51 34.718 0.121 6.48 1.49 13.5
12/8/2020 8:30:00 PM 1.47 34.646 0.122 6.47 1.53 13.48
12/8/2020 8:45:00 PM 1.43 34.574 0.121 6.45 1.49 13.47
12/8/2020 9:00:00 PM 1.4 34.52 0.121 6.44 1.51 13.45
12/8/2020 9:15:00 PM 1.39 34.502 0.122 6.44 1.55 13.42
12/8/2020 9:30:00 PM 1.38 34.484 0.122 6.45 1.49 13.42
12/8/2020 9:45:00 PM 1.38 34.484 0.122 6.44 1.55 13.42
12/8/2020 10:00:00 PM 1.38 34.484 0.122 6.44 1.5 13.4
12/8/2020 10:15:00 PM 1.37 34.466 0.122 6.43 1.52 13.41
12/8/2020 10:30:00 PM 1.35 34.43 0.122 6.43 1.52 13.41
12/8/2020 10:45:00 PM 1.36 34.448 0.122 6.42 1.54 13.39
12/8/2020 11:00:00 PM 1.37 34.466 0.122 6.43 1.56 13.39
12/8/2020 11:15:00 PM 1.37 34.466 0.122 6.42 1.77 13.39
12/8/2020 11:30:00 PM 1.37 34.466 0.122 6.41 1.84 13.38
12/8/2020 11:45:00 PM 1.37 34.466 0.122 6.41 1.47 13.4
12/9/2020 12:00:00 AM 1.35 34.43 0.122 6.41 1.48 13.38
12/9/2020 12:15:00 AM 1.35 34.43 0.123 6.41 1.51 13.4
12/9/2020 12:30:00 AM 1.35 34.43 0.123 6.41 1.55 13.4
12/9/2020 12:45:00 AM 1.34 34.412 0.123 6.41 1.55 13.39
12/9/2020 1:00:00 AM 1.32 34.376 0.122 6.41 1.53 13.41
12/9/2020 1:15:00 AM 1.31 34.358 0.122 6.39 1.56 13.41
12/9/2020 1:30:00 AM 1.31 34.358 0.123 6.41 1.47 13.41
12/9/2020 1:45:00 AM 1.31 34.358 0.123 6.38 1.52 13.42
12/9/2020 2:00:00 AM 1.31 34.358 0.123 6.37 1.54 13.41
12/9/2020 2:15:00 AM 1.29 34.322 0.123 6.41 1.55 13.42
12/9/2020 2:30:00 AM 1.28 34.304 0.123 6.4 1.52 13.43
12/9/2020 2:45:00 AM 1.27 34.286 0.123 6.39 1.54 13.42
12/9/2020 3:00:00 AM 1.27 34.286 0.123 6.39 1.6 13.41
12/9/2020 3:15:00 AM 1.25 34.25 0.123 6.39 1.47 13.41
12/9/2020 3:30:00 AM 1.26 34.268 0.123 6.38 1.49 13.41
12/9/2020 3:45:00 AM 1.25 34.25 0.123 6.39 1.5 13.41
12/9/2020 4:00:00 AM 1.24 34.232 0.122 6.4 1.46 13.41
12/9/2020 4:15:00 AM 1.24 34.232 0.123 6.39 1.49 13.41
12/9/2020 4:30:00 AM 1.25 34.25 0.123 6.39 1.51 13.41
12/9/2020 4:45:00 AM 1.25 34.25 0.123 6.39 1.48 13.4
12/9/2020 5:00:00 AM 1.24 34.232 0.123 6.39 1.46 13.42
12/9/2020 5:15:00 AM 1.25 34.25 0.123 6.38 1.5 13.4
12/9/2020 5:30:00 AM 1.25 34.25 0.123 6.38 1.48 13.39
12/9/2020 5:45:00 AM 1.26 34.268 0.123 6.39 1.47 13.4
12/9/2020 6:00:00 AM 1.27 34.286 0.123 6.39 1.51 13.38
12/9/2020 6:15:00 AM 1.28 34.304 0.123 6.4 1.56 13.38
12/9/2020 6:30:00 AM 1.28 34.304 0.123 6.39 1.58 13.39
12/9/2020 6:45:00 AM 1.28 34.304 0.123 6.39 1.54 13.38
12/9/2020 7:00:00 AM 1.28 34.304 0.123 6.4 1.59 13.39
12/9/2020 7:15:00 AM 1.29 34.322 0.123 6.39 2.26 13.37
12/9/2020 7:30:00 AM 1.3 34.34 0.123 6.39 1.7 13.37
12/9/2020 7:45:00 AM 1.3 34.34 0.123 6.4 1.55 13.38
12/9/2020 8:00:00 AM 1.31 34.358 0.123 6.39 1.53 13.4
12/9/2020 8:15:00 AM 1.32 34.376 0.123 6.41 1.53 13.44
12/9/2020 8:30:00 AM 1.32 34.376 0.123 6.41 1.54 13.47
12/9/2020 8:45:00 AM 1.32 34.376 0.123 6.41 1.48 13.5
12/9/2020 9:00:00 AM 1.33 34.394 0.123 6.43 1.48 13.56
12/9/2020 9:15:00 AM 1.35 34.43 0.123 6.43 1.46 13.6
12/9/2020 9:30:00 AM 1.37 34.466 0.123 6.46 1.49 13.69
12/9/2020 9:45:00 AM 1.4 34.52 0.123 6.48 1.47 13.79
12/9/2020 10:00:00 AM 1.42 34.556 0.122 6.51 1.53 13.89
12/9/2020 10:15:00 AM 1.44 34.592 0.122 6.52 1.48 13.96
12/9/2020 10:30:00 AM 1.46 34.628 0.122 6.54 1.5 14.01
12/9/2020 10:45:00 AM 1.48 34.664 0.122 6.56 1.49 14.04
12/9/2020 11:00:00 AM 1.5 34.7 0.122 6.57 1.5 14.05
12/9/2020 11:15:00 AM 1.52 34.736 0.122 6.59 1.49 14.11
12/9/2020 11:30:00 AM 1.54 34.772 0.122 6.6 1.5 14.15
12/9/2020 11:45:00 AM 1.56 34.808 0.122 6.62 1.5 14.21
12/9/2020 12:00:00 PM 1.59 34.862 0.122 6.64 1.49 14.25
12/9/2020 12:15:00 PM 1.62 34.916 0.121 6.66 1.5 14.29
12/9/2020 12:30:00 PM 1.65 34.97 0.121 6.68 1.55 14.34
12/9/2020 12:45:00 PM 1.67 35.006 0.121 6.69 1.53 14.34
12/9/2020 1:00:00 PM 1.7 35.06 0.121 6.7 1.51 14.35
12/9/2020 1:15:00 PM 1.72 35.096 0.121 6.72 1.48 14.37
12/9/2020 1:30:00 PM 1.75 35.15 0.121 6.72 1.45 14.39
12/9/2020 1:45:00 PM 1.78 35.204 0.121 6.74 1.5 14.4
12/9/2020 2:00:00 PM 1.8 35.24 0.12 6.76 1.51 14.41
12/9/2020 2:15:00 PM 1.83 35.294 0.12 6.77 1.52 14.38
12/9/2020 2:30:00 PM 1.85 35.33 0.12 6.77 1.49 14.36
12/9/2020 2:45:00 PM 1.88 35.384 0.12 6.77 1.5 14.34
12/9/2020 3:00:00 PM 1.9 35.42 0.12 6.77 1.47 14.31
12/9/2020 3:15:00 PM 1.92 35.456 0.12 6.76 1.49 14.26
12/9/2020 3:30:00 PM 1.94 35.492 0.12 6.75 1.48 14.19
12/9/2020 3:45:00 PM 1.95 35.51 0.12 6.72 1.45 14.11
12/9/2020 4:00:00 PM 1.95 35.51 0.12 6.71 1.48 14.04
12/9/2020 4:15:00 PM 1.97 35.546 0.12 6.68 1.55 13.97
12/9/2020 4:30:00 PM 1.98 35.564 0.12 6.67 1.52 13.89
12/9/2020 4:45:00 PM 2 35.6 0.12 6.65 1.5 13.82
12/9/2020 5:00:00 PM 2.01 35.618 0.12 6.63 1.49 13.75
12/9/2020 5:15:00 PM 2.02 35.636 0.12 6.59 1.43 13.68
12/9/2020 5:30:00 PM 2.03 35.654 0.12 6.57 1.5 13.62
12/9/2020 5:45:00 PM 2.04 35.672 0.12 6.58 1.46 13.56
12/9/2020 6:00:00 PM 2.06 35.708 0.121 6.57 1.5 13.5
12/9/2020 6:15:00 PM 2.06 35.708 0.121 6.55 1.5 13.45
12/9/2020 6:30:00 PM 2.07 35.726 0.121 6.52 1.48 13.41
12/9/2020 6:45:00 PM 2.07 35.726 0.12 6.52 1.52 13.37
12/9/2020 7:00:00 PM 2.09 35.762 0.121 6.49 1.52 13.31
12/9/2020 7:15:00 PM 2.1 35.78 0.121 6.5 1.5 13.29
12/9/2020 7:30:00 PM 2.11 35.798 0.121 6.48 1.47 13.27
12/9/2020 7:45:00 PM 2.11 35.798 0.121 6.47 1.5 13.23
12/9/2020 8:00:00 PM 2.13 35.834 0.121 6.46 1.49 13.21
12/9/2020 8:15:00 PM 2.13 35.834 0.121 6.45 1.45 13.18
12/9/2020 8:30:00 PM 2.15 35.87 0.121 6.44 1.5 13.16
12/9/2020 8:45:00 PM 2.16 35.888 0.121 6.43 1.49 13.15
12/9/2020 9:00:00 PM 2.18 35.924 0.121 6.44 1.48 13.13
12/9/2020 9:15:00 PM 2.19 35.942 0.121 6.43 1.49 13.12
12/9/2020 9:30:00 PM 2.2 35.96 0.121 6.42 1.48 13.11
12/9/2020 9:45:00 PM 2.21 35.978 0.121 6.42 1.51 13.1
12/9/2020 10:00:00 PM 2.23 36.014 0.122 6.41 1.47 13.09
12/9/2020 10:15:00 PM 2.24 36.032 0.121 6.42 1.5 13.08
12/9/2020 10:30:00 PM 2.25 36.05 0.121 6.41 1.46 13.08
12/9/2020 10:45:00 PM 2.26 36.068 0.122 6.41 1.49 13.07
12/9/2020 11:00:00 PM 2.28 36.104 0.122 6.4 1.47 13.06
12/9/2020 11:15:00 PM 2.29 36.122 0.122 6.41 1.49 13.05
12/9/2020 11:30:00 PM 2.3 36.14 0.122 6.41 1.52 13.05
12/9/2020 11:45:00 PM 2.32 36.176 0.122 6.4 1.45 13.04
12/10/2020 12:00:00 AM 2.33 36.194 0.122 6.4 1.53 13.04
12/10/2020 12:15:00 AM 2.35 36.23 0.122 6.39 1.44 13.03
12/10/2020 12:30:00 AM 2.36 36.248 0.122 6.39 1.5 13.03
12/10/2020 12:45:00 AM 2.37 36.266 0.122 6.39 1.51 13.02
12/10/2020 1:00:00 AM 2.38 36.284 0.122 6.4 1.5 13.02
12/10/2020 1:15:00 AM 2.4 36.32 0.122 6.39 1.46 13.02
12/10/2020 1:30:00 AM 2.41 36.338 0.122 6.39 1.46 13.02
12/10/2020 1:45:00 AM 2.42 36.356 0.122 6.4 1.57 13.01
12/10/2020 2:00:00 AM 2.43 36.374 0.122 6.4 1.5 13
12/10/2020 2:15:00 AM 2.44 36.392 0.122 6.4 1.51 13
12/10/2020 2:30:00 AM 2.45 36.41 0.122 6.39 1.44 12.99
12/10/2020 2:45:00 AM 2.45 36.41 0.122 6.39 1.47 12.99
12/10/2020 3:00:00 AM 2.44 36.392 0.122 6.39 1.48 12.99
12/10/2020 3:15:00 AM 2.42 36.356 0.122 6.38 1.45 12.99
12/10/2020 3:30:00 AM 2.43 36.374 0.122 6.38 1.48 12.99
12/10/2020 3:45:00 AM 2.45 36.41 0.122 6.38 1.47 13
12/10/2020 4:00:00 AM 2.46 36.428 0.122 6.39 1.49 13
12/10/2020 4:15:00 AM 2.46 36.428 0.122 6.39 1.52 12.99
12/10/2020 4:30:00 AM 2.45 36.41 0.122 6.38 1.47 12.99
12/10/2020 4:45:00 AM 2.46 36.428 0.122 6.38 1.5 12.99
12/10/2020 5:00:00 AM 2.47 36.446 0.122 6.38 1.49 12.99
12/10/2020 5:15:00 AM 2.47 36.446 0.122 6.38 1.54 12.99
12/10/2020 5:30:00 AM 2.47 36.446 0.123 6.38 1.47 12.99
12/10/2020 5:45:00 AM 2.46 36.428 0.122 6.38 1.52 12.99
12/10/2020 6:00:00 AM 2.45 36.41 0.122 6.37 1.47 12.99
12/10/2020 6:15:00 AM 2.45 36.41 0.122 6.38 1.5 13
12/10/2020 6:30:00 AM 2.44 36.392 0.122 6.38 1.63 13.02
12/10/2020 6:45:00 AM 2.45 36.41 0.123 6.38 1.57 13
12/10/2020 7:00:00 AM 2.45 36.41 0.122 6.37 1.59 13.01
12/10/2020 7:15:00 AM 2.45 36.41 0.122 6.38 1.52 13.01
12/10/2020 7:30:00 AM 2.46 36.428 0.123 6.38 1.67 13.03
12/10/2020 7:45:00 AM 2.46 36.428 0.123 6.39 1.6 13.06
12/10/2020 8:00:00 AM 2.46 36.428 0.122 6.39 1.91 13.1
12/10/2020 8:15:00 AM 2.47 36.446 0.122 6.4 2.05 13.16
12/10/2020 8:30:00 AM 2.48 36.464 0.122 6.42 1.62 13.23
12/10/2020 8:45:00 AM 2.5 36.5 0.122 6.43 1.45 13.32
12/10/2020 9:00:00 AM 2.52 36.536 0.122 6.45 1.44 13.39
12/10/2020 9:15:00 AM 2.55 36.59 0.122 6.47 1.48 13.49
12/10/2020 9:30:00 AM 2.58 36.644 0.122 6.5 1.46 13.59
12/10/2020 9:45:00 AM 2.6 36.68 0.122 6.54 1.48 13.7
12/10/2020 10:00:00 AM 2.64 36.752 0.122 6.56 1.44 13.78
12/10/2020 10:15:00 AM 2.7 36.86 0.122 6.59 1.46 13.89
12/10/2020 10:30:00 AM 2.76 36.968 0.121 6.62 1.51 13.99
12/10/2020 10:45:00 AM 2.83 37.094 0.121 6.68 1.45 14.08
12/10/2020 11:00:00 AM 2.9 37.22 0.121 6.71 1.47 14.18
12/10/2020 11:15:00 AM 3 37.4 0.121 6.76 1.46 14.26
12/10/2020 11:30:00 AM 3.06 37.508 0.12 6.8 1.45 14.32
12/10/2020 11:45:00 AM 3.15 37.67 0.12 6.84 1.48 14.4
12/10/2020 12:00:00 PM 3.22 37.796 0.12 6.88 1.43 14.44
12/10/2020 12:15:00 PM 3.27 37.886 0.12 6.92 1.52 14.48
12/10/2020 12:30:00 PM 3.32 37.976 0.12 6.96 1.47 14.5
12/10/2020 12:45:00 PM 3.44 38.192 0.119 6.99 1.52 14.54
12/10/2020 1:00:00 PM 3.71 38.678 0.119 7.06 1.43 14.56
12/10/2020 1:15:00 PM 3.82 38.876 0.119 7.12 1.45 14.58
12/10/2020 1:30:00 PM 3.95 39.11 0.119 7.11 1.42 14.59
12/10/2020 1:45:00 PM 4.05 39.29 0.118 7.16 1.45 14.55
12/10/2020 2:00:00 PM 4.13 39.434 0.118 7.17 1.41 14.54
12/10/2020 2:15:00 PM 4.17 39.506 0.118 7.19 1.38 14.52
12/10/2020 2:30:00 PM 4.19 39.542 0.118 7.24 1.45 14.5
12/10/2020 2:45:00 PM 4.23 39.614 0.118 7.25 4.5 14.46
12/10/2020 3:00:00 PM 4.25 39.65 0.118 7.26 1.49 14.41
12/10/2020 3:15:00 PM 4.25 39.65 0.118 7.26 1.42 14.36
12/10/2020 3:30:00 PM 4.24 39.632 0.118 7.3 1.45 14.32
12/10/2020 3:45:00 PM 4.23 39.614 0.117 7.29 1.43 14.25
12/10/2020 4:00:00 PM 4.22 39.596 0.117 7.27 1.51 14.15
12/10/2020 4:15:00 PM 4.19 39.542 0.117 7.23 1.49 14.05
12/10/2020 4:30:00 PM 4.16 39.488 0.117 7.15 1.42 13.9
12/10/2020 4:45:00 PM 4.12 39.416 0.118 7.06 1.56 13.75
12/10/2020 5:00:00 PM 4.08 39.344 0.118 7 1.5 13.61
12/10/2020 5:15:00 PM 4.04 39.272 0.118 6.93 1.46 13.46
12/10/2020 5:30:00 PM 4.02 39.236 0.117 6.88 1.53 13.36
12/10/2020 5:45:00 PM 3.98 39.164 0.118 6.83 1.45 13.27
12/10/2020 6:00:00 PM 3.95 39.11 0.118 6.8 1.51 13.19
12/10/2020 6:15:00 PM 3.91 39.038 0.118 6.75 1.9 13.12
12/10/2020 6:30:00 PM 3.86 38.948 0.118 6.71 1.55 13.06
12/10/2020 6:45:00 PM 3.81 38.858 0.118 6.68 1.56 13.01
12/10/2020 7:00:00 PM 3.74 38.732 0.118 6.65 1.55 12.98
12/10/2020 7:15:00 PM 3.66 38.588 0.119 6.62 1.55 12.94
12/10/2020 7:30:00 PM 3.57 38.426 0.119 6.58 1.6 12.91
12/10/2020 7:45:00 PM 3.47 38.246 0.119 6.55 1.47 12.89
12/10/2020 8:00:00 PM 3.37 38.066 0.119 6.52 1.52 12.88
12/10/2020 8:15:00 PM 3.26 37.868 0.12 6.5 1.57 12.88
12/10/2020 8:30:00 PM 3.15 37.67 0.12 6.47 1.57 12.88
12/10/2020 8:45:00 PM 3.05 37.49 0.12 6.46 1.62 12.89
12/10/2020 9:00:00 PM 2.95 37.31 0.12 6.44 1.57 12.9
12/10/2020 9:15:00 PM 2.86 37.148 0.12 6.43 1.52 12.9
12/10/2020 9:30:00 PM 2.78 37.004 0.12 6.42 1.54 12.91
12/10/2020 9:45:00 PM 2.7 36.86 0.121 6.41 1.51 12.91
12/10/2020 10:00:00 PM 2.63 36.734 0.12 6.4 1.5 12.92
12/10/2020 10:15:00 PM 2.57 36.626 0.121 6.39 1.48 12.93
12/10/2020 10:30:00 PM 2.5 36.5 0.121 6.39 1.49 12.95
12/10/2020 10:45:00 PM 2.45 36.41 0.121 6.38 1.64 12.96
12/10/2020 11:00:00 PM 2.41 36.338 0.121 6.38 1.54 12.96
12/10/2020 11:15:00 PM 2.37 36.266 0.121 6.38 1.53 12.97
12/10/2020 11:30:00 PM 2.32 36.176 0.121 6.39 1.61 12.98
12/10/2020 11:45:00 PM 2.27 36.086 0.121 6.38 1.5 12.99
12/11/2020 12:00:00 AM 2.24 36.032 0.121 6.38 1.56 13
12/11/2020 12:15:00 AM 2.2 35.96 0.121 6.37 1.46 13
12/11/2020 12:30:00 AM 2.16 35.888 0.121 6.36 1.48 13.02
12/11/2020 12:45:00 AM 2.11 35.798 0.121 6.37 1.52 13.04
12/11/2020 1:00:00 AM 2.06 35.708 0.121 6.37 1.51 13.05
12/11/2020 1:15:00 AM 2.02 35.636 0.121 6.37 1.53 13.07
12/11/2020 1:30:00 AM 1.98 35.564 0.121 6.37 1.56 13.09
12/11/2020 1:45:00 AM 1.94 35.492 0.122 6.37 1.48 13.1
12/11/2020 2:00:00 AM 1.9 35.42 0.122 6.36 1.52 13.12
12/11/2020 2:15:00 AM 1.85 35.33 0.122 6.37 1.51 13.15
12/11/2020 2:30:00 AM 1.81 35.258 0.122 6.37 1.57 13.16
12/11/2020 2:45:00 AM 1.76 35.168 0.122 6.36 1.52 13.18
12/11/2020 3:00:00 AM 1.72 35.096 0.122 6.36 1.61 13.2
12/11/2020 3:15:00 AM 1.67 35.006 0.122 6.37 1.59 13.22
12/11/2020 3:30:00 AM 1.62 34.916 0.123 6.36 1.73 13.24
12/11/2020 3:45:00 AM 1.58 34.844 0.123 6.35 1.6 13.25
12/11/2020 4:00:00 AM 1.54 34.772 0.123 6.36 1.58 13.26
12/11/2020 4:15:00 AM 1.5 34.7 0.123 6.36 1.67 13.29
12/11/2020 4:30:00 AM 1.47 34.646 0.123 6.35 1.58 13.32
12/11/2020 4:45:00 AM 1.44 34.592 0.123 6.35 1.58 13.34
12/11/2020 5:00:00 AM 1.42 34.556 0.123 6.36 1.54 13.35
12/11/2020 5:15:00 AM 1.39 34.502 0.123 6.36 1.54 13.37
12/11/2020 5:30:00 AM 1.37 34.466 0.123 6.35 1.59 13.38
12/11/2020 5:45:00 AM 1.34 34.412 0.123 6.36 1.51 13.4
12/11/2020 6:00:00 AM 1.32 34.376 0.123 6.36 1.49 13.41
12/11/2020 6:15:00 AM 1.31 34.358 0.123 6.35 1.53 13.42
12/11/2020 6:30:00 AM 1.28 34.304 0.123 6.36 1.55 13.44
12/11/2020 6:45:00 AM 1.26 34.268 0.123 6.36 1.62 13.45
12/11/2020 7:00:00 AM 1.24 34.232 0.123 6.36 1.67 13.46
12/11/2020 7:15:00 AM 1.22 34.196 0.123 6.37 1.81 13.48
12/11/2020 7:30:00 AM 1.21 34.178 0.124 6.36 1.73 13.48
12/11/2020 7:45:00 AM 1.19 34.142 0.123 6.36 1.64 13.53
12/11/2020 8:00:00 AM 1.19 34.142 0.124 6.39 1.58 13.61
12/11/2020 8:15:00 AM 1.19 34.142 0.123 6.41 1.56 13.72
12/11/2020 8:30:00 AM 1.2 34.16 0.123 6.44 2.45 13.85
12/11/2020 8:45:00 AM 1.22 34.196 0.123 6.48 2.56 13.97
12/11/2020 9:00:00 AM 1.24 34.232 0.123 6.49 1.42 14.1
12/11/2020 9:15:00 AM 1.26 34.268 0.123 6.5 1.39 14.2
12/11/2020 9:30:00 AM 1.3 34.34 0.123 6.54 1.39 14.31
12/11/2020 9:45:00 AM 1.34 34.412 0.122 6.58 1.39 14.43
12/11/2020 10:00:00 AM 1.4 34.52 0.122 6.61 1.37 14.51
12/11/2020 10:15:00 AM 1.45 34.61 0.122 6.64 1.4 14.63
12/11/2020 10:30:00 AM 1.56 34.808 0.122 6.69 1.37 14.72
12/11/2020 10:45:00 AM 1.67 35.006 0.122 6.73 1.35 14.8
12/11/2020 11:00:00 AM 1.8 35.24 0.121 6.78 1.37 14.85
12/11/2020 11:15:00 AM 1.89 35.402 0.121 6.81 1.41 14.9
12/11/2020 11:30:00 AM 1.94 35.492 0.121 6.85 1.34 14.95
12/11/2020 11:45:00 AM 2 35.6 0.121 6.88 1.38 14.99
12/11/2020 12:00:00 PM 2.12 35.816 0.121 6.91 1.41 15.02
12/11/2020 12:15:00 PM 2.27 36.086 0.12 6.96 1.43 15.05
12/11/2020 12:30:00 PM 2.43 36.374 0.12 6.98 1.41 15.05
12/11/2020 12:45:00 PM 2.51 36.518 0.12 7.04 1.35 15.08
12/11/2020 1:00:00 PM 2.62 36.716 0.12 7.05 1.36 15.08
12/11/2020 1:15:00 PM 2.7 36.86 0.12 7.1 1.37 15.08
12/11/2020 1:30:00 PM 2.82 37.076 0.119 7.16 1.38 15.09
12/11/2020 1:45:00 PM 2.92 37.256 0.119 7.19 1.34 15.07
12/11/2020 2:00:00 PM 3 37.4 0.119 7.2 1.41 15.05
12/11/2020 2:15:00 PM 3.06 37.508 0.119 7.26 1.38 15.03
12/11/2020 2:30:00 PM 3.13 37.634 0.119 7.31 1.36 15
12/11/2020 2:45:00 PM 3.18 37.724 0.118 7.33 1.42 14.95
12/11/2020 3:00:00 PM 3.24 37.832 0.118 7.35 1.3 14.91
12/11/2020 3:15:00 PM 3.28 37.904 0.118 7.36 1.31 14.85
12/11/2020 3:30:00 PM 3.31 37.958 0.118 7.36 1.32 14.78
12/11/2020 3:45:00 PM 3.34 38.012 0.119 7.34 1.36 14.68
12/11/2020 4:00:00 PM 3.33 37.994 0.119 7.32 1.33 14.59
12/11/2020 4:15:00 PM 3.34 38.012 0.119 7.25 1.35 14.46
12/11/2020 4:30:00 PM 3.33 37.994 0.119 7.19 1.39 14.33
12/11/2020 4:45:00 PM 3.32 37.976 0.119 7.1 1.38 14.17
12/11/2020 5:00:00 PM 3.29 37.922 0.119 7.02 1.35 14.02
12/11/2020 5:15:00 PM 3.27 37.886 0.119 6.95 1.33 13.87
12/11/2020 5:30:00 PM 3.25 37.85 0.119 6.9 1.42 13.76
12/11/2020 5:45:00 PM 3.22 37.796 0.119 6.84 1.42 13.65
12/11/2020 6:00:00 PM 3.19 37.742 0.119 6.8 1.43 13.57
12/11/2020 6:15:00 PM 3.15 37.67 0.119 6.76 1.41 13.5
12/11/2020 6:30:00 PM 3.11 37.598 0.119 6.73 1.36 13.44
12/11/2020 6:45:00 PM 3.07 37.526 0.119 6.68 1.39 13.37
12/11/2020 7:00:00 PM 3.03 37.454 0.12 6.66 1.38 13.32
12/11/2020 7:15:00 PM 2.97 37.346 0.12 6.63 1.51 13.28
12/11/2020 7:30:00 PM 2.91 37.238 0.12 6.6 1.39 13.24
12/11/2020 7:45:00 PM 2.85 37.13 0.12 6.57 1.38 13.21
12/11/2020 8:00:00 PM 2.79 37.022 0.12 6.56 1.46 13.18
12/11/2020 8:15:00 PM 2.72 36.896 0.12 6.53 1.4 13.17
12/11/2020 8:30:00 PM 2.66 36.788 0.121 6.51 1.44 13.14
12/11/2020 8:45:00 PM 2.58 36.644 0.121 6.48 1.42 13.14
12/11/2020 9:00:00 PM 2.49 36.482 0.121 6.46 1.49 13.13
12/11/2020 9:15:00 PM 2.41 36.338 0.121 6.44 1.39 13.13
12/11/2020 9:30:00 PM 2.33 36.194 0.121 6.43 1.36 13.14
12/11/2020 9:45:00 PM 2.26 36.068 0.121 6.41 1.4 13.13
12/11/2020 10:00:00 PM 2.19 35.942 0.121 6.41 1.55 13.14
12/11/2020 10:15:00 PM 2.13 35.834 0.122 6.41 1.4 13.14
12/11/2020 10:30:00 PM 2.08 35.744 0.122 6.39 1.36 13.14
12/11/2020 10:45:00 PM 2.03 35.654 0.122 6.39 1.39 13.15
12/11/2020 11:00:00 PM 1.99 35.582 0.122 6.39 1.41 13.15
12/11/2020 11:15:00 PM 1.95 35.51 0.122 6.39 1.35 13.16
12/11/2020 11:30:00 PM 1.93 35.474 0.122 6.39 1.39 13.15
12/11/2020 11:45:00 PM 1.91 35.438 0.122 6.39 1.37 13.15
12/12/2020 12:00:00 AM 1.88 35.384 0.122 6.39 1.36 13.16
12/12/2020 12:15:00 AM 1.85 35.33 0.122 6.38 1.42 13.17
12/12/2020 12:30:00 AM 1.82 35.276 0.122 6.38 1.36 13.18
12/12/2020 12:45:00 AM 1.78 35.204 0.122 6.37 1.41 13.18
12/12/2020 1:00:00 AM 1.76 35.168 0.122 6.37 1.39 13.19
12/12/2020 1:15:00 AM 1.75 35.15 0.122 6.37 1.44 13.19
12/12/2020 1:30:00 AM 1.73 35.114 0.122 6.36 1.48 13.19
12/12/2020 1:45:00 AM 1.72 35.096 0.122 6.37 1.44 13.21
12/12/2020 2:00:00 AM 1.71 35.078 0.122 6.38 1.4 13.22
12/12/2020 2:15:00 AM 1.69 35.042 0.122 6.36 1.41 13.23
12/12/2020 2:30:00 AM 1.67 35.006 0.122 6.38 1.45 13.24
12/12/2020 2:45:00 AM 1.63 34.934 0.123 6.36 1.53 13.24
12/12/2020 3:00:00 AM 1.6 34.88 0.123 6.37 1.49 13.26
12/12/2020 3:15:00 AM 1.59 34.862 0.123 6.36 1.54 13.27
12/12/2020 3:30:00 AM 1.58 34.844 0.123 6.36 1.45 13.29
12/12/2020 3:45:00 AM 1.57 34.826 0.123 6.37 1.44 13.28
12/12/2020 4:00:00 AM 1.55 34.79 0.123 6.36 1.41 13.3
12/12/2020 4:15:00 AM 1.53 34.754 0.123 6.36 1.41 13.3
12/12/2020 4:30:00 AM 1.5 34.7 0.123 6.36 1.42 13.32
12/12/2020 4:45:00 AM 1.47 34.646 0.123 6.37 1.44 13.33
12/12/2020 5:00:00 AM 1.46 34.628 0.123 6.36 1.41 13.33
12/12/2020 5:15:00 AM 1.45 34.61 0.123 6.36 1.43 13.34
12/12/2020 5:30:00 AM 1.44 34.592 0.123 6.35 1.45 13.35
12/12/2020 5:45:00 AM 1.44 34.592 0.124 6.35 1.4 13.36
12/12/2020 6:00:00 AM 1.43 34.574 0.123 6.35 1.48 13.35
12/12/2020 6:15:00 AM 1.43 34.574 0.124 6.35 1.6 13.35
12/12/2020 6:30:00 AM 1.42 34.556 0.124 6.36 1.75 13.37
12/12/2020 6:45:00 AM 1.42 34.556 0.124 6.36 1.58 13.37
12/12/2020 7:00:00 AM 1.41 34.538 0.124 6.35 1.66 13.38
12/12/2020 7:15:00 AM 1.41 34.538 0.124 6.36 1.68 13.36
12/12/2020 7:30:00 AM 1.41 34.538 0.124 6.36 1.6 13.39
12/12/2020 7:45:00 AM 1.41 34.538 0.124 6.36 1.5 13.41
12/12/2020 8:00:00 AM 1.41 34.538 0.124 6.37 1.49 13.44
12/12/2020 8:15:00 AM 1.41 34.538 0.124 6.4 1.47 13.54
12/12/2020 8:30:00 AM 1.44 34.592 0.124 6.41 1.58 13.63
12/12/2020 8:45:00 AM 1.46 34.628 0.124 6.44 1.41 13.73
12/12/2020 9:00:00 AM 1.49 34.682 0.123 6.47 1.42 13.83
12/12/2020 9:15:00 AM 1.51 34.718 0.123 6.5 1.36 13.93
12/12/2020 9:30:00 AM 1.54 34.772 0.123 6.54 1.37 14.03
12/12/2020 9:45:00 AM 1.61 34.898 0.123 6.58 1.38 14.15
12/12/2020 10:00:00 AM 1.64 34.952 0.123 6.61 1.35 14.26
12/12/2020 10:15:00 AM 1.68 35.024 0.123 6.63 1.4 14.33
12/12/2020 10:30:00 AM 1.76 35.168 0.123 6.64 1.46 14.41
12/12/2020 10:45:00 AM 1.83 35.294 0.122 6.71 1.45 14.51
12/12/2020 11:00:00 AM 1.9 35.42 0.122 6.74 1.35 14.57
12/12/2020 11:15:00 AM 2.04 35.672 0.122 6.78 1.42 14.66
12/12/2020 11:30:00 AM 2.2 35.96 0.122 6.82 1.39 14.74
12/12/2020 11:45:00 AM 2.4 36.32 0.121 6.88 1.4 14.79
12/12/2020 12:00:00 PM 2.57 36.626 0.121 6.92 1.37 14.83
12/12/2020 12:15:00 PM 2.72 36.896 0.121 6.96 1.39 14.87
12/12/2020 12:30:00 PM 2.84 37.112 0.121 7.01 1.4 14.89
12/12/2020 12:45:00 PM 2.94 37.292 0.12 7.04 1.38 14.9
12/12/2020 1:00:00 PM 3.03 37.454 0.12 7.08 1.36 14.92
12/12/2020 1:15:00 PM 3.21 37.778 0.12 7.14 1.38 14.94
12/12/2020 1:30:00 PM 3.36 38.048 0.119 7.18 1.65 14.93
12/12/2020 1:45:00 PM 3.48 38.264 0.119 7.24 1.44 14.92
12/12/2020 2:00:00 PM 3.58 38.444 0.119 7.26 1.38 14.89
12/12/2020 2:15:00 PM 3.65 38.57 0.119 7.27 1.33 14.87
12/12/2020 2:30:00 PM 3.69 38.642 0.119 7.28 1.34 14.83
12/12/2020 2:45:00 PM 3.69 38.642 0.119 7.3 1.35 14.75
12/12/2020 3:00:00 PM 3.69 38.642 0.119 7.27 1.32 14.65
12/12/2020 3:15:00 PM 3.71 38.678 0.119 7.25 1.33 14.56
12/12/2020 3:30:00 PM 3.75 38.75 0.118 7.24 1.29 14.44
12/12/2020 3:45:00 PM 3.83 38.894 0.119 7.23 1.34 14.35
12/12/2020 4:00:00 PM 3.89 39.002 0.118 7.23 1.33 14.3
12/12/2020 4:15:00 PM 3.95 39.11 0.118 7.19 1.35 14.15
12/12/2020 4:30:00 PM 4 39.2 0.118 7.13 1.36 13.96
12/12/2020 4:45:00 PM 4.05 39.29 0.118 7.06 1.33 13.79
12/12/2020 5:00:00 PM 4.1 39.38 0.119 7 1.35 13.61
12/12/2020 5:15:00 PM 4.15 39.47 0.118 6.95 1.4 13.46
12/12/2020 5:30:00 PM 4.2 39.56 0.118 6.9 1.43 13.34
12/12/2020 5:45:00 PM 4.25 39.65 0.119 6.85 1.46 13.23
12/12/2020 6:00:00 PM 4.28 39.704 0.118 6.82 1.36 13.12
12/12/2020 6:15:00 PM 4.31 39.758 0.119 6.78 1.4 13.03
12/12/2020 6:30:00 PM 4.33 39.794 0.119 6.74 1.42 12.94
12/12/2020 6:45:00 PM 4.33 39.794 0.119 6.7 1.4 12.87
12/12/2020 7:00:00 PM 4.33 39.794 0.119 6.68 1.41 12.81
12/12/2020 7:15:00 PM 4.31 39.758 0.119 6.65 1.34 12.75
12/12/2020 7:30:00 PM 4.3 39.74 0.119 6.62 1.39 12.7
12/12/2020 7:45:00 PM 4.27 39.686 0.119 6.59 1.41 12.65
12/12/2020 8:00:00 PM 4.25 39.65 0.12 6.57 1.4 12.61
12/12/2020 8:15:00 PM 4.21 39.578 0.12 6.54 1.43 12.59
12/12/2020 8:30:00 PM 4.18 39.524 0.12 6.52 1.38 12.55
12/12/2020 8:45:00 PM 4.14 39.452 0.121 6.51 1.4 12.53
12/12/2020 9:00:00 PM 4.09 39.362 0.121 6.49 1.42 12.52
12/12/2020 9:15:00 PM 4.06 39.308 0.121 6.47 1.36 12.5
12/12/2020 9:30:00 PM 4.03 39.254 0.121 6.46 1.35 12.48
12/12/2020 9:45:00 PM 4 39.2 0.121 6.45 1.36 12.47
12/12/2020 10:00:00 PM 3.97 39.146 0.121 6.44 1.45 12.44
12/12/2020 10:15:00 PM 3.94 39.092 0.121 6.42 1.33 12.42
12/12/2020 10:30:00 PM 3.9 39.02 0.121 6.42 1.41 12.42
12/12/2020 10:45:00 PM 3.88 38.984 0.121 6.42 1.41 12.41
12/12/2020 11:00:00 PM 3.88 38.984 0.121 6.4 1.39 12.4
12/12/2020 11:15:00 PM 3.88 38.984 0.121 6.41 1.4 12.38
12/12/2020 11:30:00 PM 3.9 39.02 0.121 6.41 1.38 12.36
12/12/2020 11:45:00 PM 3.91 39.038 0.122 6.4 1.4 12.36
12/13/2020 12:00:00 AM 3.93 39.074 0.122 6.4 1.4 12.34
12/13/2020 12:15:00 AM 3.94 39.092 0.122 6.4 1.4 12.32
12/13/2020 12:30:00 AM 3.94 39.092 0.122 6.4 1.42 12.31
12/13/2020 12:45:00 AM 3.93 39.074 0.122 6.39 1.34 12.3
12/13/2020 1:00:00 AM 3.92 39.056 0.122 6.38 1.44 12.3
12/13/2020 1:15:00 AM 3.93 39.074 0.122 6.38 1.45 12.29
12/13/2020 1:30:00 AM 3.93 39.074 0.122 6.38 1.39 12.28
12/13/2020 1:45:00 AM 3.94 39.092 0.122 6.38 1.4 12.27
12/13/2020 2:00:00 AM 3.94 39.092 0.122 6.38 1.46 12.28
12/13/2020 2:15:00 AM 3.95 39.11 0.122 6.38 1.41 12.27
12/13/2020 2:30:00 AM 3.95 39.11 0.122 6.38 1.4 12.26
12/13/2020 2:45:00 AM 3.95 39.11 0.122 6.38 1.41 12.26
12/13/2020 3:00:00 AM 3.96 39.128 0.122 6.38 1.41 12.27
12/13/2020 3:15:00 AM 3.95 39.11 0.123 6.39 1.5 12.27
12/13/2020 3:30:00 AM 3.94 39.092 0.123 6.38 1.51 12.27
12/13/2020 3:45:00 AM 3.92 39.056 0.123 6.38 1.51 12.27
12/13/2020 4:00:00 AM 3.9 39.02 0.123 6.38 1.41 12.28
12/13/2020 4:15:00 AM 3.89 39.002 0.123 6.37 1.41 12.28
12/13/2020 4:30:00 AM 3.87 38.966 0.123 6.36 1.48 12.29
12/13/2020 4:45:00 AM 3.86 38.948 0.123 6.36 1.48 12.28
12/13/2020 5:00:00 AM 3.84 38.912 0.123 6.36 1.47 12.3
12/13/2020 5:15:00 AM 3.81 38.858 0.123 6.37 1.4 12.3
12/13/2020 5:30:00 AM 3.78 38.804 0.123 6.36 1.4 12.3
12/13/2020 5:45:00 AM 3.76 38.768 0.123 6.35 1.4 12.31
12/13/2020 6:00:00 AM 3.71 38.678 0.123 6.36 1.43 12.33
12/13/2020 6:15:00 AM 3.66 38.588 0.123 6.35 1.45 12.34
12/13/2020 6:30:00 AM 3.65 38.57 0.124 6.35 1.47 12.34
12/13/2020 6:45:00 AM 3.64 38.552 0.124 6.36 1.48 12.36
12/13/2020 7:00:00 AM 3.64 38.552 0.124 6.37 1.47 12.36
12/13/2020 7:15:00 AM 3.65 38.57 0.124 6.38 1.47 12.37
12/13/2020 7:30:00 AM 3.69 38.642 0.124 6.38 1.41 12.39
12/13/2020 7:45:00 AM 3.71 38.678 0.124 6.4 1.46 12.42
12/13/2020 8:00:00 AM 3.73 38.714 0.124 6.4 1.49 12.45
12/13/2020 8:15:00 AM 3.74 38.732 0.124 6.42 1.4 12.51
12/13/2020 8:30:00 AM 3.76 38.768 0.124 6.43 1.52 12.54
12/13/2020 8:45:00 AM 3.76 38.768 0.124 6.44 1.34 12.59
12/13/2020 9:00:00 AM 3.78 38.804 0.124 6.44 1.35 12.64
12/13/2020 9:15:00 AM 3.79 38.822 0.124 6.45 1.43 12.71
12/13/2020 9:30:00 AM 3.81 38.858 0.124 6.48 1.37 12.77
12/13/2020 9:45:00 AM 3.83 38.894 0.123 6.5 1.37 12.89
12/13/2020 10:00:00 AM 3.86 38.948 0.123 6.51 1.39 12.99
12/13/2020 10:15:00 AM 3.92 39.056 0.123 6.55 1.34 13.12
12/13/2020 10:30:00 AM 3.95 39.11 0.123 6.59 1.47 13.26
12/13/2020 10:45:00 AM 4.01 39.218 0.123 6.63 1.38 13.37
12/13/2020 11:00:00 AM 4.07 39.326 0.123 6.66 1.42 13.47
12/13/2020 11:15:00 AM 4.12 39.416 0.122 6.71 1.45 13.6
12/13/2020 11:30:00 AM 4.15 39.47 0.122 6.73 1.38 13.64
12/13/2020 11:45:00 AM 4.17 39.506 0.122 6.75 1.4 13.66
12/13/2020 12:00:00 PM 4.19 39.542 0.122 6.75 1.36 13.64
12/13/2020 12:15:00 PM 4.22 39.596 0.122 6.76 1.34 13.64
12/13/2020 12:30:00 PM 4.26 39.668 0.122 6.77 1.47 13.67
12/13/2020 12:45:00 PM 4.3 39.74 0.122 6.81 1.35 13.72
12/13/2020 1:00:00 PM 4.35 39.83 0.122 6.83 1.38 13.77
12/13/2020 1:15:00 PM 4.43 39.974 0.121 6.89 1.41 13.87
12/13/2020 1:30:00 PM 4.57 40.226 0.121 6.96 1.4 14
12/13/2020 1:45:00 PM 4.62 40.316 0.121 6.98 1.38 14.03
12/13/2020 2:00:00 PM 4.66 40.388 0.12 7.03 1.5 14.06
12/13/2020 2:15:00 PM 4.67 40.406 0.12 7.07 1.38 14.08
12/13/2020 2:30:00 PM 4.68 40.424 0.12 7.03 1.38 14.01
12/13/2020 2:45:00 PM 4.69 40.442 0.12 7.03 1.37 13.98
12/13/2020 3:00:00 PM 4.72 40.496 0.12 7.05 1.37 14.01
12/13/2020 3:15:00 PM 4.75 40.55 0.12 7.09 1.44 14.03
12/13/2020 3:30:00 PM 4.77 40.586 0.12 7.13 1.32 14.05
12/13/2020 3:45:00 PM 4.77 40.586 0.119 7.16 1.37 14.02
12/13/2020 4:00:00 PM 4.76 40.568 0.119 7.15 1.4 13.95
12/13/2020 4:15:00 PM 4.78 40.604 0.119 7.12 1.32 13.85
12/13/2020 4:30:00 PM 4.78 40.604 0.119 7.05 1.38 13.7
12/13/2020 4:45:00 PM 4.79 40.622 0.12 6.97 1.36 13.53
12/13/2020 5:00:00 PM 4.79 40.622 0.12 6.91 1.33 13.38
12/13/2020 5:15:00 PM 4.79 40.622 0.12 6.87 1.38 13.25
12/13/2020 5:30:00 PM 4.8 40.64 0.119 6.83 1.51 13.14
12/13/2020 5:45:00 PM 4.8 40.64 0.12 6.8 1.43 13.05
12/13/2020 6:00:00 PM 4.79 40.622 0.119 6.76 1.43 12.97
12/13/2020 6:15:00 PM 4.79 40.622 0.119 6.74 1.4 12.91
12/13/2020 6:30:00 PM 4.79 40.622 0.119 6.71 1.47 12.83
12/13/2020 6:45:00 PM 4.78 40.604 0.119 6.69 1.42 12.76
12/13/2020 7:00:00 PM 4.78 40.604 0.119 6.66 1.46 12.7
12/13/2020 7:15:00 PM 4.77 40.586 0.119 6.64 1.43 12.64
12/13/2020 7:30:00 PM 4.76 40.568 0.119 6.62 1.44 12.59
12/13/2020 7:45:00 PM 4.76 40.568 0.12 6.6 1.4 12.52
12/13/2020 8:00:00 PM 4.75 40.55 0.12 6.59 1.42 12.48
12/13/2020 8:15:00 PM 4.73 40.514 0.12 6.57 1.39 12.44
12/13/2020 8:30:00 PM 4.71 40.478 0.12 6.55 1.39 12.4
12/13/2020 8:45:00 PM 4.69 40.442 0.121 6.53 1.36 12.37
12/13/2020 9:00:00 PM 4.67 40.406 0.121 6.52 1.42 12.34
12/13/2020 9:15:00 PM 4.63 40.334 0.121 6.5 1.39 12.31
12/13/2020 9:30:00 PM 4.61 40.298 0.121 6.48 1.43 12.28
12/13/2020 9:45:00 PM 4.59 40.262 0.122 6.47 1.34 12.26
12/13/2020 10:00:00 PM 4.58 40.244 0.122 6.47 1.39 12.24
12/13/2020 10:15:00 PM 4.56 40.208 0.122 6.46 1.34 12.23
12/13/2020 10:30:00 PM 4.55 40.19 0.122 6.45 1.37 12.22
12/13/2020 10:45:00 PM 4.53 40.154 0.122 6.44 1.44 12.21
12/13/2020 11:00:00 PM 4.52 40.136 0.122 6.44 1.39 12.2
12/13/2020 11:15:00 PM 4.51 40.118 0.122 6.44 1.47 12.2
12/13/2020 11:30:00 PM 4.49 40.082 0.122 6.43 1.37 12.19
12/13/2020 11:45:00 PM 4.48 40.064 0.123 6.43 1.39 12.19
12/14/2020 12:00:00 AM 4.46 40.028 0.122 6.41 1.5 12.19
12/14/2020 12:15:00 AM 4.45 40.01 0.123 6.41 1.47 12.19
12/14/2020 12:30:00 AM 4.43 39.974 0.123 6.41 1.42 12.19
12/14/2020 12:45:00 AM 4.41 39.938 0.123 6.4 1.42 12.18
12/14/2020 1:00:00 AM 4.4 39.92 0.123 6.41 1.44 12.19
12/14/2020 1:15:00 AM 4.38 39.884 0.123 6.4 1.44 12.19
12/14/2020 1:30:00 AM 4.37 39.866 0.123 6.4 1.36 12.2
12/14/2020 1:45:00 AM 4.35 39.83 0.123 6.4 1.34 12.21
12/14/2020 2:00:00 AM 4.33 39.794 0.123 6.4 1.37 12.21
12/14/2020 2:15:00 AM 4.32 39.776 0.123 6.4 1.35 12.2
12/14/2020 2:30:00 AM 4.3 39.74 0.123 6.41 1.61 12.21
12/14/2020 2:45:00 AM 4.28 39.704 0.123 6.41 1.4 12.21
12/14/2020 3:00:00 AM 4.27 39.686 0.123 6.41 1.37 12.2
12/14/2020 3:15:00 AM 4.26 39.668 0.123 6.41 1.44 12.21
12/14/2020 3:30:00 AM 4.25 39.65 0.123 6.4 1.47 12.21
12/14/2020 3:45:00 AM 4.24 39.632 0.123 6.41 1.46 12.22
12/14/2020 4:00:00 AM 4.23 39.614 0.124 6.4 1.39 12.22
12/14/2020 4:15:00 AM 4.22 39.596 0.124 6.41 1.44 12.23
12/14/2020 4:30:00 AM 4.22 39.596 0.124 6.41 1.42 12.23
12/14/2020 4:45:00 AM 4.2 39.56 0.124 6.41 1.51 12.23
12/14/2020 5:00:00 AM 4.19 39.542 0.124 6.41 1.44 12.24
12/14/2020 5:15:00 AM 4.18 39.524 0.124 6.4 1.4 12.24
12/14/2020 5:30:00 AM 4.17 39.506 0.124 6.39 1.41 12.24
12/14/2020 5:45:00 AM 4.16 39.488 0.124 6.4 1.4 12.24
12/14/2020 6:00:00 AM 4.14 39.452 0.124 6.39 1.49 12.24
12/14/2020 6:15:00 AM 4.12 39.416 0.124 6.39 1.45 12.25
12/14/2020 6:30:00 AM 4.1 39.38 0.124 6.39 1.43 12.24
12/14/2020 6:45:00 AM 4.08 39.344 0.124 6.38 1.43 12.26
12/14/2020 7:00:00 AM 4.05 39.29 0.124 6.38 1.46 12.25
12/14/2020 7:15:00 AM 4.03 39.254 0.124 6.38 1.42 12.25
12/14/2020 7:30:00 AM 4 39.2 0.124 6.39 1.46 12.27
12/14/2020 7:45:00 AM 3.97 39.146 0.124 6.39 1.41 12.28
12/14/2020 8:00:00 AM 3.94 39.092 0.124 6.38 1.53 12.31
12/14/2020 8:15:00 AM 3.91 39.038 0.124 6.39 1.35 12.35
12/14/2020 8:30:00 AM 3.9 39.02 0.124 6.4 1.33 12.41
12/14/2020 8:45:00 AM 3.89 39.002 0.124 6.4 1.34 12.48
12/14/2020 9:00:00 AM 3.88 38.984 0.124 6.43 1.36 12.55
12/14/2020 9:15:00 AM 3.83 38.894 0.124 6.44 1.35 12.62
12/14/2020 9:30:00 AM 3.82 38.876 0.124 6.46 1.29 12.75
12/14/2020 9:45:00 AM 3.83 38.894 0.124 6.5 1.38 12.92
12/14/2020 10:00:00 AM 3.86 38.948 0.124 6.53 1.35 13.07
12/14/2020 10:15:00 AM 3.87 38.966 0.123 6.57 1.28 13.21
12/14/2020 10:30:00 AM 3.88 38.984 0.123 6.6 1.32 13.34
12/14/2020 10:45:00 AM 3.89 39.002 0.123 6.64 1.36 13.44
12/14/2020 11:00:00 AM 3.89 39.002 0.123 6.67 1.33 13.52
12/14/2020 11:15:00 AM 3.91 39.038 0.123 6.7 1.32 13.62
12/14/2020 11:30:00 AM 3.94 39.092 0.123 6.75 1.3 13.74
12/14/2020 11:45:00 AM 3.94 39.092 0.123 6.78 1.31 13.8
12/14/2020 12:00:00 PM 3.94 39.092 0.123 6.81 1.33 13.86
12/14/2020 12:15:00 PM 3.94 39.092 0.122 6.81 1.36 13.86
12/14/2020 12:30:00 PM 3.92 39.056 0.122 6.83 1.35 13.83
12/14/2020 12:45:00 PM 3.92 39.056 0.122 6.83 1.37 13.82
12/14/2020 1:00:00 PM 3.94 39.092 0.122 6.83 1.35 13.87
12/14/2020 1:15:00 PM 4 39.2 0.122 6.89 1.42 13.99
12/14/2020 1:30:00 PM 4.15 39.47 0.122 6.98 1.39 14.13
12/14/2020 1:45:00 PM 4.28 39.704 0.121 7.07 1.43 14.2
12/14/2020 2:00:00 PM 4.26 39.668 0.121 7.1 1.36 14.22
12/14/2020 2:15:00 PM 4.23 39.614 0.121 7.14 1.32 14.21
12/14/2020 2:30:00 PM 4.2 39.56 0.121 7.09 1.34 14.15
12/14/2020 2:45:00 PM 4.19 39.542 0.121 7.13 1.36 14.17
12/14/2020 3:00:00 PM 4.19 39.542 0.121 7.16 1.35 14.19
12/14/2020 3:15:00 PM 4.19 39.542 0.12 7.19 1.39 14.19
12/14/2020 3:30:00 PM 4.2 39.56 0.121 7.23 1.33 14.18
12/14/2020 3:45:00 PM 4.2 39.56 0.121 7.19 1.29 14.08
12/14/2020 4:00:00 PM 4.18 39.524 0.12 7.13 1.38 13.93
12/14/2020 4:15:00 PM 4.17 39.506 0.121 7.06 1.31 13.77
12/14/2020 4:30:00 PM 4.16 39.488 0.121 7.01 1.43 13.67
12/14/2020 4:45:00 PM 4.15 39.47 0.121 6.96 1.37 13.55
12/14/2020 5:00:00 PM 4.13 39.434 0.121 6.92 1.39 13.43
12/14/2020 5:15:00 PM 4.11 39.398 0.121 6.88 1.4 13.33
12/14/2020 5:30:00 PM 4.09 39.362 0.121 6.84 1.43 13.24
12/14/2020 5:45:00 PM 4.08 39.344 0.121 6.8 1.5 13.16
12/14/2020 6:00:00 PM 4.06 39.308 0.121 6.77 1.6 13.09
12/14/2020 6:15:00 PM 4.03 39.254 0.121 6.75 1.58 13.03
12/14/2020 6:30:00 PM 4 39.2 0.121 6.74 1.5 12.97
12/14/2020 6:45:00 PM 3.96 39.128 0.121 6.71 1.42 12.91
12/14/2020 7:00:00 PM 3.94 39.092 0.121 6.69 1.45 12.85
12/14/2020 7:15:00 PM 3.88 38.984 0.121 6.67 1.39 12.8
12/14/2020 7:30:00 PM 3.83 38.894 0.121 6.65 1.44 12.77
12/14/2020 7:45:00 PM 3.79 38.822 0.121 6.62 1.38 12.73
12/14/2020 8:00:00 PM 3.76 38.768 0.122 6.6 1.39 12.71
12/14/2020 8:15:00 PM 3.73 38.714 0.122 6.58 1.42 12.68
12/14/2020 8:30:00 PM 3.69 38.642 0.122 6.57 1.41 12.67
12/14/2020 8:45:00 PM 3.63 38.534 0.122 6.56 1.41 12.66
12/14/2020 9:00:00 PM 3.58 38.444 0.122 6.54 1.39 12.64
12/14/2020 9:15:00 PM 3.5 38.3 0.122 6.53 1.39 12.63
12/14/2020 9:30:00 PM 3.4 38.12 0.123 6.51 1.42 12.64
12/14/2020 9:45:00 PM 3.31 37.958 0.123 6.5 1.42 12.65
12/14/2020 10:00:00 PM 3.23 37.814 0.123 6.49 1.43 12.66
12/14/2020 10:15:00 PM 3.16 37.688 0.123 6.49 1.41 12.67
12/14/2020 10:30:00 PM 3.1 37.58 0.123 6.47 1.39 12.68
12/14/2020 10:45:00 PM 3.03 37.454 0.123 6.46 1.37 12.7
12/14/2020 11:00:00 PM 2.97 37.346 0.123 6.46 1.41 12.71
12/14/2020 11:15:00 PM 2.92 37.256 0.123 6.46 1.42 12.73
12/14/2020 11:30:00 PM 2.86 37.148 0.123 6.46 1.38 12.74
12/14/2020 11:45:00 PM 2.8 37.04 0.123 6.44 1.37 12.77
12/15/2020 12:00:00 AM 2.73 36.914 0.123 6.43 1.4 12.78
12/15/2020 12:15:00 AM 2.66 36.788 0.123 6.43 1.37 12.81
12/15/2020 12:30:00 AM 2.6 36.68 0.123 6.44 1.36 12.84
12/15/2020 12:45:00 AM 2.54 36.572 0.124 6.43 1.33 12.85
12/15/2020 1:00:00 AM 2.49 36.482 0.124 6.44 1.43 12.87
12/15/2020 1:15:00 AM 2.46 36.428 0.124 6.44 1.41 12.9
12/15/2020 1:30:00 AM 2.43 36.374 0.124 6.43 1.45 12.91
12/15/2020 1:45:00 AM 2.39 36.302 0.124 6.45 1.39 12.93
12/15/2020 2:00:00 AM 2.35 36.23 0.124 6.44 1.42 12.95
12/15/2020 2:15:00 AM 2.32 36.176 0.124 6.43 1.47 12.98
12/15/2020 2:30:00 AM 2.29 36.122 0.124 6.44 1.43 12.99
12/15/2020 2:45:00 AM 2.25 36.05 0.124 6.44 1.37 13.01
12/15/2020 3:00:00 AM 2.21 35.978 0.124 6.44 1.38 13.04
12/15/2020 3:15:00 AM 2.16 35.888 0.124 6.43 1.4 13.06
12/15/2020 3:30:00 AM 2.12 35.816 0.124 6.44 1.35 13.08
12/15/2020 3:45:00 AM 2.07 35.726 0.125 6.43 1.78 13.1
12/15/2020 4:00:00 AM 2 35.6 0.125 6.43 1.45 13.12
12/15/2020 4:15:00 AM 1.95 35.51 0.125 6.44 1.46 13.15
12/15/2020 4:30:00 AM 1.9 35.42 0.125 6.43 1.4 13.17
12/15/2020 4:45:00 AM 1.86 35.348 0.125 6.44 1.43 13.19
12/15/2020 5:00:00 AM 1.82 35.276 0.125 6.43 1.51 13.2
12/15/2020 5:15:00 AM 1.77 35.186 0.125 6.44 1.37 13.22
12/15/2020 5:30:00 AM 1.72 35.096 0.125 6.42 1.4 13.24
12/15/2020 5:45:00 AM 1.67 35.006 0.125 6.44 1.4 13.26
12/15/2020 6:00:00 AM 1.62 34.916 0.126 6.43 1.48 13.27
12/15/2020 6:15:00 AM 1.58 34.844 0.126 6.43 1.48 13.29
12/15/2020 6:30:00 AM 1.54 34.772 0.126 6.43 1.81 13.31
12/15/2020 6:45:00 AM 1.5 34.7 0.126 6.43 1.52 13.31
12/15/2020 7:00:00 AM 1.45 34.61 0.126 6.44 1.63 13.34
12/15/2020 7:15:00 AM 1.41 34.538 0.126 6.44 1.45 13.37
12/15/2020 7:30:00 AM 1.36 34.448 0.126 6.43 1.45 13.41
12/15/2020 7:45:00 AM 1.33 34.394 0.126 6.45 1.49 13.46
12/15/2020 8:00:00 AM 1.29 34.322 0.126 6.44 1.42 13.55
12/15/2020 8:15:00 AM 1.26 34.268 0.126 6.48 1.43 13.7
12/15/2020 8:30:00 AM 1.26 34.268 0.126 6.52 1.45 13.85
12/15/2020 8:45:00 AM 1.27 34.286 0.125 6.55 1.41 14.03
12/15/2020 9:00:00 AM 1.31 34.358 0.126 6.58 1.44 14.18
12/15/2020 9:15:00 AM 1.35 34.43 0.126 6.62 1.41 14.33
12/15/2020 9:30:00 AM 1.42 34.556 0.125 6.67 1.36 14.48
12/15/2020 9:45:00 AM 1.52 34.736 0.125 6.71 1.37 14.58
12/15/2020 10:00:00 AM 1.63 34.934 0.125 6.75 1.39 14.68
12/15/2020 10:15:00 AM 1.68 35.024 0.125 6.79 1.37 14.77
12/15/2020 10:30:00 AM 1.73 35.114 0.125 6.83 1.38 14.86
12/15/2020 10:45:00 AM 1.71 35.078 0.125 6.85 1.35 14.92
12/15/2020 11:00:00 AM 1.76 35.168 0.124 6.88 1.37 15
12/15/2020 11:15:00 AM 1.82 35.276 0.124 6.92 1.35 15.06
12/15/2020 11:30:00 AM 1.89 35.402 0.124 6.96 1.31 15.12
12/15/2020 11:45:00 AM 1.95 35.51 0.124 7.02 1.39 15.2
12/15/2020 12:00:00 PM 2.02 35.636 0.123 7.04 1.34 15.23
12/15/2020 12:15:00 PM 2.14 35.852 0.123 7.11 1.35 15.29
12/15/2020 12:30:00 PM 2.19 35.942 0.123 7.14 1.33 15.32
12/15/2020 12:45:00 PM 2.26 36.068 0.123 7.17 1.38 15.33
12/15/2020 1:00:00 PM 2.29 36.122 0.123 7.22 1.37 15.36
12/15/2020 1:15:00 PM 2.37 36.266 0.122 7.26 1.37 15.37
12/15/2020 1:30:00 PM 2.43 36.374 0.122 7.3 1.37 15.39
12/15/2020 1:45:00 PM 2.45 36.41 0.122 7.33 1.45 15.37
12/15/2020 2:00:00 PM 2.45 36.41 0.122 7.35 1.39 15.38
12/15/2020 2:15:00 PM 2.48 36.464 0.121 7.41 1.36 15.36
12/15/2020 2:30:00 PM 2.51 36.518 0.121 7.45 1.38 15.35
12/15/2020 2:45:00 PM 2.52 36.536 0.121 7.49 1.4 15.34
12/15/2020 3:00:00 PM 2.54 36.572 0.121 7.52 1.39 15.31
12/15/2020 3:15:00 PM 2.55 36.59 0.12 7.56 1.4 15.27
12/15/2020 3:30:00 PM 2.56 36.608 0.12 7.57 1.43 15.22
12/15/2020 3:45:00 PM 2.57 36.626 0.12 7.61 1.44 15.16
12/15/2020 4:00:00 PM 2.57 36.626 0.12 7.6 1.34 15.09
12/15/2020 4:15:00 PM 2.55 36.59 0.12 7.58 1.44 14.99
12/15/2020 4:30:00 PM 2.53 36.554 0.12 7.51 1.45 14.83
12/15/2020 4:45:00 PM 2.49 36.482 0.12 7.44 1.57 14.67
12/15/2020 5:00:00 PM 2.46 36.428 0.121 7.32 1.55 14.5
12/15/2020 5:15:00 PM 2.43 36.374 0.121 7.24 1.51 14.37
12/15/2020 5:30:00 PM 2.39 36.302 0.121 7.16 1.39 14.25
12/15/2020 5:45:00 PM 2.35 36.23 0.12 7.1 1.4 14.16
12/15/2020 6:00:00 PM 2.31 36.158 0.121 7.05 1.36 14.09
12/15/2020 6:15:00 PM 2.27 36.086 0.121 6.99 1.37 14.02
12/15/2020 6:30:00 PM 2.23 36.014 0.121 6.95 1.35 13.95
12/15/2020 6:45:00 PM 2.19 35.942 0.121 6.9 1.38 13.9
12/15/2020 7:00:00 PM 2.14 35.852 0.121 6.87 1.38 13.84
12/15/2020 7:15:00 PM 2.09 35.762 0.121 6.82 1.38 13.79
12/15/2020 7:30:00 PM 2.03 35.654 0.121 6.79 1.46 13.75
12/15/2020 7:45:00 PM 1.97 35.546 0.122 6.75 1.48 13.71
12/15/2020 8:00:00 PM 1.9 35.42 0.122 6.72 1.53 13.68
12/15/2020 8:15:00 PM 1.84 35.312 0.122 6.69 1.64 13.66
12/15/2020 8:30:00 PM 1.77 35.186 0.122 6.67 1.47 13.63
12/15/2020 8:45:00 PM 1.7 35.06 0.122 6.65 1.47 13.62
12/15/2020 9:00:00 PM 1.63 34.934 0.123 6.62 1.44 13.61
12/15/2020 9:15:00 PM 1.56 34.808 0.123 6.59 1.42 13.58
12/15/2020 9:30:00 PM 1.49 34.682 0.123 6.57 1.34 13.59
12/15/2020 9:45:00 PM 1.41 34.538 0.123 6.58 1.38 13.61
12/15/2020 10:00:00 PM 1.36 34.448 0.123 6.57 1.35 13.59
12/15/2020 10:15:00 PM 1.29 34.322 0.123 6.56 1.36 13.6
12/15/2020 10:30:00 PM 1.23 34.214 0.124 6.55 1.33 13.62
12/15/2020 10:45:00 PM 1.16 34.088 0.124 6.55 1.39 13.62
12/15/2020 11:00:00 PM 1.11 33.998 0.124 6.54 1.38 13.62
12/15/2020 11:15:00 PM 1.06 33.908 0.124 6.53 1.36 13.63
12/15/2020 11:30:00 PM 1 33.8 0.124 6.53 1.44 13.64
12/15/2020 11:45:00 PM 0.95 33.71 0.124 6.52 1.44 13.65
12/16/2020 12:00:00 AM 0.89 33.602 0.125 6.51 1.49 13.66
12/16/2020 12:15:00 AM 0.83 33.494 0.125 6.5 1.46 13.68
12/16/2020 12:30:00 AM 0.79 33.422 0.125 6.5 1.39 13.69
12/16/2020 12:45:00 AM 0.75 33.35 0.125 6.5 1.52 13.69
12/16/2020 1:00:00 AM 0.7 33.26 0.125 6.48 1.42 13.71
12/16/2020 1:15:00 AM 0.66 33.188 0.125 6.49 1.39 13.72
12/16/2020 1:30:00 AM 0.6 33.08 0.125 6.5 1.38 13.74
12/16/2020 1:45:00 AM 0.57 33.026 0.125 6.49 1.41 13.75
12/16/2020 2:00:00 AM 0.54 32.972 0.125 6.48 1.44 13.76
12/16/2020 2:15:00 AM 0.52 32.936 0.126 6.49 1.39 13.77
12/16/2020 2:30:00 AM 0.51 32.918 0.126 6.48 1.51 13.78
12/16/2020 2:45:00 AM 0.49 32.882 0.126 6.48 1.43 13.79
12/16/2020 3:00:00 AM 0.46 32.828 0.126 6.47 1.43 13.81
12/16/2020 3:15:00 AM 0.43 32.774 0.126 6.48 1.37 13.83
12/16/2020 3:30:00 AM 0.39 32.702 0.126 6.48 1.38 13.85
12/16/2020 3:45:00 AM 0.35 32.63 0.126 6.48 1.41 13.85
12/16/2020 4:00:00 AM 0.33 32.594 0.126 6.47 1.4 13.87
12/16/2020 4:15:00 AM 0.3 32.54 0.126 6.47 1.41 13.87
12/16/2020 4:30:00 AM 0.27 32.486 0.126 6.47 1.4 13.9
12/16/2020 4:45:00 AM 0.25 32.45 0.126 6.47 1.36 13.91
12/16/2020 5:00:00 AM 0.23 32.414 0.126 6.47 1.43 13.91
12/16/2020 5:15:00 AM 0.21 32.378 0.127 6.47 1.37 13.93
12/16/2020 5:30:00 AM 0.17 32.306 0.127 6.46 1.4 13.95
12/16/2020 5:45:00 AM 0.15 32.27 0.127 6.47 1.41 13.96
12/16/2020 6:00:00 AM 0.12 32.216 0.127 6.47 1.44 13.98
12/16/2020 6:15:00 AM 0.1 32.18 0.127 6.46 1.48 13.98
12/16/2020 6:30:00 AM 0.09 32.162 0.127 6.46 1.59 13.99
12/16/2020 6:45:00 AM 0.06 32.108 0.127 6.46 1.59 14
12/16/2020 7:00:00 AM 0.03 32.054 0.127 6.45 1.56 14.02
12/16/2020 7:15:00 AM 0 32 0.127 6.46 1.64 14.03
12/16/2020 7:30:00 AM -0.01 31.982 0.127 6.46 1.65 14.05
12/16/2020 7:45:00 AM -0.02 31.964 0.128 6.46 1.6 14.06
12/16/2020 8:00:00 AM -0.04 31.928 0.128 6.47 1.47 14.11
12/16/2020 8:15:00 AM -0.05 31.91 0.127 6.48 1.5 14.16
12/16/2020 8:30:00 AM -0.05 31.91 0.128 6.49 1.45 14.23
12/16/2020 8:45:00 AM -0.06 31.892 0.128 6.5 1.51 14.29
12/16/2020 9:00:00 AM -0.06 31.892 0.128 6.52 1.42 14.4
12/16/2020 9:15:00 AM -0.05 31.91 0.127 6.54 1.44 14.55
12/16/2020 9:30:00 AM -0.01 31.982 0.127 6.58 1.43 14.68
12/16/2020 9:45:00 AM 0 32 0.127 6.62 1.49 14.82
12/16/2020 10:00:00 AM 0.02 32.036 0.127 6.63 1.46 14.92
12/16/2020 10:15:00 AM 0.03 32.054 0.127 6.66 1.43 14.97
12/16/2020 10:30:00 AM 0.04 32.072 0.128 6.68 1.42 15.01
12/16/2020 10:45:00 AM 0.04 32.072 0.127 6.69 1.69 15.04
12/16/2020 11:00:00 AM 0.03 32.054 0.127 6.7 1.53 15.06
12/16/2020 11:15:00 AM 0.02 32.036 0.127 6.71 1.48 15.08
12/16/2020 11:30:00 AM 0.04 32.072 0.128 6.71 1.85 15.08
12/16/2020 11:45:00 AM -0.01 31.982 0.128 6.71 1.62 15.1
12/16/2020 12:00:00 PM -0.06 31.892 0.127 6.73 1.5 15.2
12/16/2020 12:15:00 PM -0.01 31.982 0.127 6.76 1.49 15.28
12/16/2020 12:30:00 PM -0.08 31.856 0.127 6.78 1.6 15.33
12/16/2020 12:45:00 PM -0.09 31.838 0.126 6.82 1.49 15.36
12/16/2020 1:00:00 PM -0.09 31.838 0.126 6.82 1.54 15.39
12/16/2020 1:15:00 PM -0.09 31.838 0.126 6.84 1.88 15.42
12/16/2020 1:30:00 PM -0.1 31.82 0.126 6.86 1.57 15.43
12/16/2020 1:45:00 PM -0.1 31.82 0.126 6.87 1.63 15.43
12/16/2020 2:00:00 PM -0.09 31.838 0.126 6.85 1.56 15.46
12/16/2020 2:15:00 PM -0.1 31.82 0.126 6.9 1.58 15.47
12/16/2020 2:30:00 PM -0.1 31.82 0.126 6.89 1.94 15.45
12/16/2020 2:45:00 PM -0.11 31.802 0.125 6.88 2.14 15.43
12/16/2020 3:00:00 PM -0.11 31.802 0.125 6.88 2.03 15.4
12/16/2020 3:15:00 PM -0.11 31.802 0.125 6.86 2.73 15.35
12/16/2020 3:30:00 PM -0.09 31.838 0.126 6.83 2.1 15.31
12/16/2020 3:45:00 PM -0.11 31.802 0.126 6.83 1.77 15.27
12/16/2020 4:00:00 PM -0.1 31.82 0.126 6.84 1.62 15.23
12/16/2020 4:15:00 PM -0.1 31.82 0.126 6.81 1.53 15.17
12/16/2020 4:30:00 PM -0.1 31.82 0.126 6.81 1.51 15.14
12/16/2020 4:45:00 PM -0.1 31.82 0.126 6.78 1.62 15.11
12/16/2020 5:00:00 PM -0.09 31.838 0.126 6.78 1.65 15.07
12/16/2020 5:15:00 PM -0.09 31.838 0.127 6.76 1.53 15
12/16/2020 5:30:00 PM -0.1 31.82 0.127 6.73 1.54 14.9
12/16/2020 5:45:00 PM -0.11 31.802 0.127 6.73 1.58 14.83
12/16/2020 6:00:00 PM -0.11 31.802 0.127 6.71 1.48 14.77
12/16/2020 6:15:00 PM -0.11 31.802 0.127 6.69 1.59 14.7
12/16/2020 6:30:00 PM -0.12 31.784 0.127 6.67 1.54 14.65
12/16/2020 6:45:00 PM -0.1 31.82 0.128 6.62 1.5 14.57
12/16/2020 7:00:00 PM -0.1 31.82 0.128 6.61 1.46 14.51
12/16/2020 7:15:00 PM -0.1 31.82 0.128 6.6 1.61 14.45
12/16/2020 7:30:00 PM -0.11 31.802 0.129 6.58 1.54 14.39
12/16/2020 7:45:00 PM -0.11 31.802 0.129 6.57 1.54 14.35
12/16/2020 8:00:00 PM -0.1 31.82 0.129 6.56 1.53 14.28
12/16/2020 8:15:00 PM -0.05 31.91 0.131 6.5 1.49 14.19
12/16/2020 8:30:00 PM -0.06 31.892 0.131 6.49 1.47 14.12
12/16/2020 8:45:00 PM -0.07 31.874 0.13 6.49 1.48 14.07
12/16/2020 9:00:00 PM -0.08 31.856 0.13 6.42 1.58 14.05
12/16/2020 9:15:00 PM -0.09 31.838 0.13 6.48 1.52 14.04
12/16/2020 9:30:00 PM -0.08 31.856 0.131 6.47 1.45 14
12/16/2020 9:45:00 PM -0.07 31.874 0.131 6.45 1.68 13.97
12/16/2020 10:00:00 PM -0.07 31.874 0.131 6.44 1.46 13.9
12/16/2020 10:15:00 PM -0.07 31.874 0.131 6.44 1.47 13.87
12/16/2020 10:30:00 PM -0.07 31.874 0.131 6.43 1.44 13.84
12/16/2020 10:45:00 PM -0.06 31.892 0.132 6.41 1.49 13.79
12/16/2020 11:00:00 PM -0.05 31.91 0.134 6.38 1.45 13.69
12/16/2020 11:15:00 PM -0.06 31.892 0.133 6.37 1.44 13.63
12/16/2020 11:30:00 PM -0.05 31.91 0.134 6.36 1.48 13.57
12/16/2020 11:45:00 PM -0.05 31.91 0.135 6.31 1.47 13.5
12/17/2020 12:00:00 AM -0.04 31.928 0.139 6.31 1.46 13.41
12/17/2020 12:15:00 AM -0.04 31.928 0.14 6.29 1.46 13.33
12/17/2020 12:30:00 AM -0.03 31.946 0.141 6.29 1.46 13.27
12/17/2020 12:45:00 AM -0.03 31.946 0.141 6.27 1.45 13.22
12/17/2020 1:00:00 AM -0.03 31.946 0.142 6.26 1.47 13.18
12/17/2020 1:15:00 AM -0.03 31.946 0.141 6.25 1.54 13.04
12/17/2020 1:30:00 AM -0.03 31.946 0.142 6.25 1.42 13
12/17/2020 1:45:00 AM -0.05 31.91 0.141 6.24 1.45 12.92
12/17/2020 2:00:00 AM -0.04 31.928 0.141 6.25 1.44 12.9
12/17/2020 2:15:00 AM -0.05 31.91 0.141 6.24 1.44 12.88
12/17/2020 2:30:00 AM -0.04 31.928 0.141 6.25 1.4 12.88
12/17/2020 2:45:00 AM -0.05 31.91 0.141 6.19 1.38 12.83
12/17/2020 3:00:00 AM -0.04 31.928 0.141 6.24 1.42 12.8
12/17/2020 3:15:00 AM -0.06 31.892 0.141 6.22 1.42 12.75
12/17/2020 3:30:00 AM -0.05 31.91 0.141 6.23 1.38 12.71
12/17/2020 3:45:00 AM -0.05 31.91 0.141 6.22 1.72 12.67
12/17/2020 4:00:00 AM -0.03 31.946 0.142 6.2 1.75 12.64
12/17/2020 4:15:00 AM -0.03 31.946 0.141 6.2 1.49 12.65
12/17/2020 4:30:00 AM -0.02 31.964 0.141 6.2 1.55 12.63
12/17/2020 4:45:00 AM -0.02 31.964 0.141 6.18 1.76 12.58
12/17/2020 5:00:00 AM -0.02 31.964 0.141 6.16 1.52 12.56
12/17/2020 5:15:00 AM -0.01 31.982 0.141 6.18 1.56 12.54
12/17/2020 5:30:00 AM -0.03 31.946 0.14 6.18 1.52 12.48
12/17/2020 5:45:00 AM -0.03 31.946 0.14 6.18 1.66 12.47
12/17/2020 6:00:00 AM -0.03 31.946 0.14 6.17 1.47 12.36
12/17/2020 6:15:00 AM -0.03 31.946 0.14 6.13 1.52 12.32
12/17/2020 6:30:00 AM -0.03 31.946 0.14 6.18 1.5 12.34
12/17/2020 6:45:00 AM -0.02 31.964 0.14 6.17 1.45 12.36
12/17/2020 7:00:00 AM -0.03 31.946 0.141 6.17 1.45 12.27
12/17/2020 7:15:00 AM -0.03 31.946 0.141 6.17 1.45 12.2
12/17/2020 7:30:00 AM -0.03 31.946 0.141 6.16 1.48 12.12
12/17/2020 7:45:00 AM -0.03 31.946 0.141 6.17 1.5 12.07
12/17/2020 8:00:00 AM -0.03 31.946 0.142 6.17 1.47 12.09
12/17/2020 8:15:00 AM -0.03 31.946 0.142 6.17 1.43 12.1
12/17/2020 8:30:00 AM -0.03 31.946 0.143 6.17 1.43 12.04
12/17/2020 8:45:00 AM -0.02 31.964 0.143 6.16 1.46 11.99
12/17/2020 9:00:00 AM -0.02 31.964 0.143 6.18 1.44 12.2
12/17/2020 9:15:00 AM -0.01 31.982 0.144 6.16 1.48 12.36
12/17/2020 9:30:00 AM -0.01 31.982 0.143 6.2 1.42 12.43
12/17/2020 9:45:00 AM -0.02 31.964 0.143 6.21 1.42 12.55
12/17/2020 10:00:00 AM -0.02 31.964 0.144 6.26 1.45 12.89
12/17/2020 10:15:00 AM 0 32 0.144 6.29 1.43 13.19
12/17/2020 10:30:00 AM 0.01 32.018 0.144 6.32 1.45 13.43
12/17/2020 10:45:00 AM 0.03 32.054 0.143 6.35 1.42 13.55
12/17/2020 11:00:00 AM 0.04 32.072 0.143 6.35 1.47 13.76
12/17/2020 11:15:00 AM 0.05 32.09 0.145 6.35 1.41 14.02
12/17/2020 11:30:00 AM 0.06 32.108 0.145 6.36 1.51 14.08
12/17/2020 11:45:00 AM 0.06 32.108 0.145 6.37 1.44 14.2
12/17/2020 12:00:00 PM 0.07 32.126 0.145 6.39 2.78 14.3
12/17/2020 12:15:00 PM 0.08 32.144 0.146 6.4 1.45 14.35
12/17/2020 12:30:00 PM -0.02 31.964 0.144 6.45 1.44 14.57
12/17/2020 12:45:00 PM -0.05 31.91 0.143 6.54 1.52 14.68
12/17/2020 1:00:00 PM -0.06 31.892 0.142 6.58 1.51 14.74
12/17/2020 1:15:00 PM -0.09 31.838 0.141 6.62 1.53 14.81
12/17/2020 1:30:00 PM -0.06 31.892 0.141 6.61 1.49 14.85
12/17/2020 1:45:00 PM -0.03 31.946 0.142 6.61 1.48 14.85
12/17/2020 2:00:00 PM 0.04 32.072 0.145 6.58 1.51 14.87
12/17/2020 2:15:00 PM 0.06 32.108 0.144 6.57 1.53 14.87
12/17/2020 2:30:00 PM 0.03 32.054 0.143 6.63 1.49 14.99
12/17/2020 2:45:00 PM -0.05 31.91 0.14 6.76 1.52 15.22
12/17/2020 3:00:00 PM -0.05 31.91 0.14 6.77 1.52 15.33
12/17/2020 3:15:00 PM -0.05 31.91 0.139 6.78 1.58 15.39
12/17/2020 3:30:00 PM -0.05 31.91 0.138 6.81 1.51 15.4
12/17/2020 3:45:00 PM -0.03 31.946 0.139 6.78 1.51 15.38
12/17/2020 4:00:00 PM 0 32 0.14 6.73 1.46 15.35
12/17/2020 4:15:00 PM 0.02 32.036 0.14 6.7 1.47 15.28
12/17/2020 4:30:00 PM 0.02 32.036 0.141 6.67 1.45 15.17
12/17/2020 4:45:00 PM 0.01 32.018 0.14 6.65 1.84 15.12
12/17/2020 5:00:00 PM 0.01 32.018 0.14 6.64 1.64 15.04
12/17/2020 5:15:00 PM 0 32 0.14 6.63 1.48 14.97
12/17/2020 5:30:00 PM -0.03 31.946 0.138 6.66 1.59 14.98
12/17/2020 5:45:00 PM -0.04 31.928 0.138 6.64 1.57 14.95
12/17/2020 6:00:00 PM -0.04 31.928 0.138 6.63 1.64 14.93
12/17/2020 6:15:00 PM -0.04 31.928 0.138 6.62 1.51 14.92
12/17/2020 6:30:00 PM -0.04 31.928 0.138 6.62 1.6 14.9
12/17/2020 6:45:00 PM -0.03 31.946 0.138 6.62 1.55 14.87
12/17/2020 7:00:00 PM -0.03 31.946 0.138 6.61 1.51 14.85
12/17/2020 7:15:00 PM -0.03 31.946 0.138 6.61 1.53 14.82
12/17/2020 7:30:00 PM -0.03 31.946 0.138 6.59 1.47 14.78
12/17/2020 7:45:00 PM -0.02 31.964 0.138 6.59 1.49 14.75
12/17/2020 8:00:00 PM -0.02 31.964 0.139 6.58 1.51 14.69
12/17/2020 8:15:00 PM -0.02 31.964 0.139 6.57 1.5 14.65
12/17/2020 8:30:00 PM -0.03 31.946 0.138 6.57 1.53 14.62
12/17/2020 8:45:00 PM -0.03 31.946 0.138 6.56 1.57 14.58
12/17/2020 9:00:00 PM -0.03 31.946 0.138 6.56 1.68 14.53
12/17/2020 9:15:00 PM -0.04 31.928 0.138 6.56 1.62 14.5
12/17/2020 9:30:00 PM -0.04 31.928 0.138 6.55 1.51 14.48
12/17/2020 9:45:00 PM -0.04 31.928 0.138 6.55 1.67 14.43
12/17/2020 10:00:00 PM -0.04 31.928 0.138 6.54 1.55 14.41
12/17/2020 10:15:00 PM -0.04 31.928 0.138 6.54 1.62 14.37
12/17/2020 10:30:00 PM -0.04 31.928 0.138 6.53 1.57 14.34
12/17/2020 10:45:00 PM -0.03 31.946 0.138 6.52 1.68 14.29
12/17/2020 11:00:00 PM -0.04 31.928 0.137 6.52 1.59 14.26
12/17/2020 11:15:00 PM -0.04 31.928 0.137 6.51 1.6 14.23
12/17/2020 11:30:00 PM -0.04 31.928 0.137 6.51 1.65 14.19
12/17/2020 11:45:00 PM -0.05 31.91 0.137 6.51 1.57 14.16
12/18/2020 12:00:00 AM -0.05 31.91 0.137 6.5 1.61 14.12
12/18/2020 12:15:00 AM -0.04 31.928 0.138 6.49 1.65 14.1
12/18/2020 12:30:00 AM -0.04 31.928 0.137 6.48 1.73 14.07
12/18/2020 12:45:00 AM -0.04 31.928 0.138 6.47 1.61 14.04
12/18/2020 1:00:00 AM -0.04 31.928 0.138 6.48 1.66 14.01
12/18/2020 1:15:00 AM -0.04 31.928 0.138 6.46 1.58 13.99
12/18/2020 1:30:00 AM -0.03 31.946 0.138 6.46 1.54 13.97
12/18/2020 1:45:00 AM -0.03 31.946 0.138 6.45 1.65 13.95
12/18/2020 2:00:00 AM -0.04 31.928 0.138 6.44 1.61 13.93
12/18/2020 2:15:00 AM -0.05 31.91 0.137 6.44 1.58 13.92
12/18/2020 2:30:00 AM -0.06 31.892 0.137 6.44 1.69 13.91
12/18/2020 2:45:00 AM -0.07 31.874 0.137 6.44 1.71 13.91
12/18/2020 3:00:00 AM -0.07 31.874 0.137 6.43 2.01 13.9
12/18/2020 3:15:00 AM -0.07 31.874 0.137 6.43 2.07 13.89
12/18/2020 3:30:00 AM -0.07 31.874 0.137 6.42 2.06 13.88
12/18/2020 3:45:00 AM -0.07 31.874 0.137 6.39 1.93 13.87
12/18/2020 4:00:00 AM -0.08 31.856 0.136 6.35 1.79 13.86
12/18/2020 4:15:00 AM -0.08 31.856 0.136 6.35 1.84 13.86
12/18/2020 4:30:00 AM -0.09 31.838 0.136 6.41 1.98 13.9
12/18/2020 4:45:00 AM -0.09 31.838 0.136 6.4 1.83 13.9
12/18/2020 5:00:00 AM -0.09 31.838 0.136 6.41 1.93 13.92
12/18/2020 5:15:00 AM -0.09 31.838 0.136 6.44 1.82 13.93
12/18/2020 5:30:00 AM -0.1 31.82 0.135 6.46 1.85 13.94
12/18/2020 5:45:00 AM -0.1 31.82 0.135 6.45 1.84 13.94
12/18/2020 6:00:00 AM -0.1 31.82 0.134 6.43 1.75 13.93
12/18/2020 6:15:00 AM -0.1 31.82 0.134 6.39 1.87 13.93
12/18/2020 6:30:00 AM -0.1 31.82 0.134 6.39 1.84 13.92
12/18/2020 6:45:00 AM -0.1 31.82 0.134 6.35 1.87 13.92
12/18/2020 7:00:00 AM -0.1 31.82 0.134 6.35 1.9 13.91
12/18/2020 7:15:00 AM -0.11 31.802 0.134 6.33 1.81 13.9
12/18/2020 7:30:00 AM -0.11 31.802 0.133 6.35 1.75 13.91
12/18/2020 7:45:00 AM -0.11 31.802 0.133 6.41 2.25 13.91
12/18/2020 8:00:00 AM -0.11 31.802 0.133 6.35 1.79 13.93
12/18/2020 8:15:00 AM -0.11 31.802 0.133 6.31 1.93 13.97
12/18/2020 8:30:00 AM -0.11 31.802 0.133 6.31 1.74 14.02
12/18/2020 8:45:00 AM -0.11 31.802 0.132 6.32 1.72 14.08
12/18/2020 9:00:00 AM -0.11 31.802 0.132 6.34 12.41 14.17
12/18/2020 9:15:00 AM -0.1 31.82 0.132 6.36 1.78 14.24
12/18/2020 9:30:00 AM -0.1 31.82 0.132 6.45 1.75 14.33
12/18/2020 9:45:00 AM -0.1 31.82 0.131 6.47 1.72 14.43
12/18/2020 10:00:00 AM -0.1 31.82 0.131 6.47 1.77 14.51
12/18/2020 10:15:00 AM -0.1 31.82 0.131 6.35 1.75 14.61
12/18/2020 10:30:00 AM -0.1 31.82 0.13 6.37 1.92 14.68
12/18/2020 10:45:00 AM -0.1 31.82 0.13 6.34 1.7 14.79
12/18/2020 11:00:00 AM -0.09 31.838 0.13 6.31 1.67 14.85
12/18/2020 11:15:00 AM -0.06 31.892 0.13 6.36 1.73 14.92
12/18/2020 11:30:00 AM -0.05 31.91 0.13 6.49 1.7 14.99
12/18/2020 11:45:00 AM -0.05 31.91 0.13 6.6 1.81 15.06
12/18/2020 12:00:00 PM -0.06 31.892 0.129 6.67 1.63 15.14
12/18/2020 12:15:00 PM -0.06 31.892 0.129 6.68 2.01 15.21
12/18/2020 12:30:00 PM -0.06 31.892 0.129 6.68 2 15.29
12/18/2020 12:45:00 PM -0.05 31.91 0.128 6.66 1.94 15.36
12/18/2020 1:00:00 PM -0.05 31.91 0.128 6.66 2.23 15.43
12/18/2020 1:15:00 PM -0.05 31.91 0.127 6.66 1.77 15.49
12/18/2020 1:30:00 PM -0.04 31.928 0.127 6.72 1.96 15.56
12/18/2020 1:45:00 PM -0.04 31.928 0.127 6.78 1.68 15.63
12/18/2020 2:00:00 PM -0.05 31.91 0.126 6.84 1.77 15.71
12/18/2020 2:15:00 PM -0.04 31.928 0.126 6.9 2.04 15.73
12/18/2020 2:30:00 PM -0.04 31.928 0.125 6.9 1.75 15.76
12/18/2020 2:45:00 PM -0.05 31.91 0.125 6.89 2 15.8
12/18/2020 3:00:00 PM -0.07 31.874 0.124 6.94 1.71 15.87
12/18/2020 3:15:00 PM -0.09 31.838 0.124 6.94 1.74 15.92
12/18/2020 3:30:00 PM -0.08 31.856 0.124 6.99 1.77 15.91
12/18/2020 3:45:00 PM -0.08 31.856 0.123 6.84 1.69 15.9
12/18/2020 4:00:00 PM -0.08 31.856 0.123 6.81 1.7 15.88
12/18/2020 4:15:00 PM -0.08 31.856 0.122 6.78 1.68 15.84
12/18/2020 4:30:00 PM -0.08 31.856 0.122 6.83 1.7 15.79
12/18/2020 4:45:00 PM -0.09 31.838 0.122 6.78 1.67 15.7
12/18/2020 5:00:00 PM -0.09 31.838 0.121 6.74 1.84 15.63
12/18/2020 5:15:00 PM -0.09 31.838 0.121 6.71 1.7 15.57
12/18/2020 5:30:00 PM -0.09 31.838 0.12 6.68 1.67 15.51
12/18/2020 5:45:00 PM -0.09 31.838 0.12 6.64 1.7 15.46
12/18/2020 6:00:00 PM -0.09 31.838 0.12 6.67 1.88 15.4
12/18/2020 6:15:00 PM -0.1 31.82 0.119 6.7 1.77 15.34
12/18/2020 6:30:00 PM -0.1 31.82 0.119 6.69 1.72 15.28
12/18/2020 6:45:00 PM -0.11 31.802 0.119 6.66 1.74 15.22
12/18/2020 7:00:00 PM -0.11 31.802 0.118 6.61 2.13 15.16
12/18/2020 7:15:00 PM -0.11 31.802 0.118 6.41 7.74 15.1
12/18/2020 7:30:00 PM -0.11 31.802 0.118 6.29 2.22 15.05
12/18/2020 7:45:00 PM -0.11 31.802 0.118 6.32 2.35 14.99
12/18/2020 8:00:00 PM -0.11 31.802 0.118 6.36 2.51 14.95
12/18/2020 8:15:00 PM -0.12 31.784 0.118 6.32 2.47 14.9
12/18/2020 8:30:00 PM -0.12 31.784 0.118 6.31 2.45 14.86
12/18/2020 8:45:00 PM -0.11 31.802 0.117 6.3 2.38 14.81
12/18/2020 9:00:00 PM -0.12 31.784 0.117 6.27 2.24 14.77
12/18/2020 9:15:00 PM -0.12 31.784 0.117 6.27 2.29 14.73
12/18/2020 9:30:00 PM -0.12 31.784 0.117 6.26 2.25 14.69
12/18/2020 9:45:00 PM -0.12 31.784 0.117 6.25 2.39 14.66
12/18/2020 10:00:00 PM -0.11 31.802 0.117 6.23 2.32 14.62
12/18/2020 10:15:00 PM -0.11 31.802 0.118 6.25 2.01 14.6
12/18/2020 10:30:00 PM -0.12 31.784 0.117 6.38 2.42 14.56
12/18/2020 10:45:00 PM -0.12 31.784 0.118 6.42 3.16 14.53
12/18/2020 11:00:00 PM -0.11 31.802 0.118 6.4 3.09 14.51
12/18/2020 11:15:00 PM -0.11 31.802 0.118 6.4 3.17 14.48
12/18/2020 11:30:00 PM -0.11 31.802 0.118 6.41 2.96 14.46
12/18/2020 11:45:00 PM -0.11 31.802 0.118 6.41 2.95 14.43
12/19/2020 12:00:00 AM -0.11 31.802 0.119 6.42 2.95 14.41
12/19/2020 12:15:00 AM -0.11 31.802 0.119 6.39 3.03 14.39
12/19/2020 12:30:00 AM -0.12 31.784 0.119 6.32 2.95 14.36
12/19/2020 12:45:00 AM -0.12 31.784 0.12 6.36 3.05 14.34
12/19/2020 1:00:00 AM -0.12 31.784 0.12 6.33 2.97 14.32
12/19/2020 1:15:00 AM -0.11 31.802 0.12 6.34 3.02 14.3
12/19/2020 1:30:00 AM -0.11 31.802 0.12 6.36 3.17 14.28
12/19/2020 1:45:00 AM -0.11 31.802 0.121 6.36 3.36 14.26
12/19/2020 2:00:00 AM -0.11 31.802 0.121 6.36 3.01 14.24
12/19/2020 2:15:00 AM -0.1 31.82 0.122 6.36 3.23 14.22
12/19/2020 2:30:00 AM -0.1 31.82 0.122 6.36 3.09 14.2
12/19/2020 2:45:00 AM -0.1 31.82 0.122 6.35 3.22 14.18
12/19/2020 3:00:00 AM -0.1 31.82 0.123 6.2 2.7 14.16
12/19/2020 3:15:00 AM -0.1 31.82 0.123 6.12 2.77 14.15
12/19/2020 3:30:00 AM -0.09 31.838 0.124 6.11 2.56 14.12
12/19/2020 3:45:00 AM -0.1 31.82 0.124 6.12 2.59 14.1
12/19/2020 4:00:00 AM -0.09 31.838 0.125 6.12 2.66 14.08
12/19/2020 4:15:00 AM -0.1 31.82 0.125 6.11 2.6 14.07
12/19/2020 4:30:00 AM -0.09 31.838 0.126 6.12 3.04 14.05
12/19/2020 4:45:00 AM -0.09 31.838 0.126 6.11 2.59 14.03
12/19/2020 5:00:00 AM -0.09 31.838 0.127 6.11 2.49 14.01
12/19/2020 5:15:00 AM -0.09 31.838 0.127 6.11 2.55 13.99
12/19/2020 5:30:00 AM -0.09 31.838 0.127 6.11 2.54 13.98
12/19/2020 5:45:00 AM -0.09 31.838 0.127 6.12 2.67 13.97
12/19/2020 6:00:00 AM -0.09 31.838 0.128 6.12 2.53 13.95
12/19/2020 6:15:00 AM -0.09 31.838 0.128 6.11 2.67 13.94
12/19/2020 6:30:00 AM -0.1 31.82 0.128 6.1 2.6 13.93
12/19/2020 6:45:00 AM -0.09 31.838 0.129 6.09 2.92 13.92
12/19/2020 7:00:00 AM -0.09 31.838 0.129 6.09 2.79 13.9
12/19/2020 7:15:00 AM -0.09 31.838 0.129 6.1 2.8 13.89
12/19/2020 7:30:00 AM -0.09 31.838 0.13 6.1 2.93 13.88
12/19/2020 7:45:00 AM -0.09 31.838 0.13 6.1 2.72 13.88
12/19/2020 8:00:00 AM -0.09 31.838 0.13 6.12 3.54 13.9
12/19/2020 8:15:00 AM -0.09 31.838 0.13 6.21 1.54 13.96
12/19/2020 8:30:00 AM -0.08 31.856 0.13 6.24 1.5 14.04
12/19/2020 8:45:00 AM -0.07 31.874 0.131 6.24 1.47 14.14
12/19/2020 9:00:00 AM -0.06 31.892 0.131 6.26 1.43 14.26
12/19/2020 9:15:00 AM -0.06 31.892 0.131 6.25 1.47 14.37
12/19/2020 9:30:00 AM -0.06 31.892 0.131 6.29 1.49 14.48
12/19/2020 9:45:00 AM -0.06 31.892 0.131 6.31 1.58 14.57
12/19/2020 10:00:00 AM -0.06 31.892 0.131 6.31 1.52 14.66
12/19/2020 10:15:00 AM -0.05 31.91 0.131 6.32 1.48 14.75
12/19/2020 10:30:00 AM -0.05 31.91 0.131 6.33 1.45 14.86
12/19/2020 10:45:00 AM -0.03 31.946 0.131 6.37 1.5 14.97
12/19/2020 11:00:00 AM -0.03 31.946 0.131 6.42 1.44 15.06
12/19/2020 11:15:00 AM -0.01 31.982 0.131 6.49 1.59 15.19
12/19/2020 11:30:00 AM -0.02 31.964 0.13 6.47 1.48 15.28
12/19/2020 11:45:00 AM -0.01 31.982 0.13 6.48 1.57 15.38
12/19/2020 12:00:00 PM -0.01 31.982 0.13 6.45 1.58 15.46
12/19/2020 12:15:00 PM -0.01 31.982 0.13 6.41 1.52 15.54
12/19/2020 12:30:00 PM -0.01 31.982 0.13 6.42 1.53 15.64
12/19/2020 12:45:00 PM -0.01 31.982 0.13 6.46 1.55 15.74
12/19/2020 1:00:00 PM -0.02 31.964 0.129 6.52 1.58 15.82
12/19/2020 1:15:00 PM -0.02 31.964 0.129 6.54 1.49 15.9
12/19/2020 1:30:00 PM -0.02 31.964 0.129 6.59 1.48 15.98
12/19/2020 1:45:00 PM -0.03 31.946 0.129 6.63 1.48 16.05
12/19/2020 2:00:00 PM -0.03 31.946 0.128 6.67 1.46 16.13
12/19/2020 2:15:00 PM -0.04 31.928 0.128 6.71 1.48 16.18
12/19/2020 2:30:00 PM -0.04 31.928 0.128 6.74 1.49 16.22
12/19/2020 2:45:00 PM -0.03 31.946 0.128 6.8 1.38 16.27
12/19/2020 3:00:00 PM -0.03 31.946 0.127 6.83 1.48 16.32
12/19/2020 3:15:00 PM -0.04 31.928 0.127 6.87 1.43 16.35
12/19/2020 3:30:00 PM -0.05 31.91 0.127 6.89 1.44 16.36
12/19/2020 3:45:00 PM -0.06 31.892 0.127 6.93 1.45 16.36
12/19/2020 4:00:00 PM -0.06 31.892 0.127 6.93 1.49 16.34
12/19/2020 4:15:00 PM -0.07 31.874 0.127 6.91 1.5 16.3
12/19/2020 4:30:00 PM -0.08 31.856 0.127 6.89 1.46 16.23
12/19/2020 4:45:00 PM -0.07 31.874 0.127 6.84 1.46 16.13
12/19/2020 5:00:00 PM -0.08 31.856 0.127 6.8 1.54 16.04
12/19/2020 5:15:00 PM -0.08 31.856 0.127 6.76 1.59 15.96
12/19/2020 5:30:00 PM -0.08 31.856 0.127 6.72 1.62 15.88
12/19/2020 5:45:00 PM -0.08 31.856 0.127 6.69 1.58 15.83
12/19/2020 6:00:00 PM -0.08 31.856 0.127 6.68 1.52 15.76
12/19/2020 6:15:00 PM -0.08 31.856 0.127 6.63 1.54 15.69
12/19/2020 6:30:00 PM -0.09 31.838 0.127 6.59 1.51 15.62
12/19/2020 6:45:00 PM -0.09 31.838 0.128 6.58 1.51 15.55
12/19/2020 7:00:00 PM -0.09 31.838 0.128 6.56 1.51 15.48
12/19/2020 7:15:00 PM -0.08 31.856 0.128 6.53 1.47 15.4
12/19/2020 7:30:00 PM -0.08 31.856 0.128 6.5 1.48 15.33
12/19/2020 7:45:00 PM -0.08 31.856 0.128 6.47 1.52 15.26
12/19/2020 8:00:00 PM -0.08 31.856 0.128 6.5 1.49 15.19
12/19/2020 8:15:00 PM -0.08 31.856 0.129 6.47 1.46 15.14
12/19/2020 8:30:00 PM -0.08 31.856 0.129 6.45 1.45 15.06
12/19/2020 8:45:00 PM -0.08 31.856 0.129 6.42 1.5 14.99
12/19/2020 9:00:00 PM -0.08 31.856 0.129 6.44 1.45 14.93
12/19/2020 9:15:00 PM -0.08 31.856 0.129 6.39 1.5 14.87
12/19/2020 9:30:00 PM -0.08 31.856 0.129 6.35 1.43 14.82
12/19/2020 9:45:00 PM -0.08 31.856 0.13 6.34 1.43 14.76
12/19/2020 10:00:00 PM -0.07 31.874 0.13 6.33 1.53 14.71
12/19/2020 10:15:00 PM -0.08 31.856 0.13 6.3 1.48 14.66
12/19/2020 10:30:00 PM -0.08 31.856 0.13 6.27 1.46 14.6
12/19/2020 10:45:00 PM -0.07 31.874 0.13 6.27 1.45 14.56
12/19/2020 11:00:00 PM -0.08 31.856 0.13 6.25 1.47 14.53
12/19/2020 11:15:00 PM -0.08 31.856 0.13 6.25 1.44 14.49
12/19/2020 11:30:00 PM -0.08 31.856 0.13 6.23 1.53 14.46
12/19/2020 11:45:00 PM -0.07 31.874 0.13 6.24 1.45 14.43
12/20/2020 12:00:00 AM -0.07 31.874 0.13 6.21 1.45 14.38
12/20/2020 12:15:00 AM -0.07 31.874 0.13 6.2 1.46 14.35
12/20/2020 12:30:00 AM -0.07 31.874 0.131 6.21 1.47 14.31
12/20/2020 12:45:00 AM -0.07 31.874 0.131 6.2 1.46 14.28
12/20/2020 1:00:00 AM -0.07 31.874 0.131 6.2 1.53 14.25
12/20/2020 1:15:00 AM -0.07 31.874 0.131 6.19 1.51 14.22
12/20/2020 1:30:00 AM -0.07 31.874 0.131 6.19 1.47 14.19
12/20/2020 1:45:00 AM -0.07 31.874 0.131 6.19 1.41 14.16
12/20/2020 2:00:00 AM -0.06 31.892 0.131 6.17 1.45 14.13
12/20/2020 2:15:00 AM -0.07 31.874 0.131 6.17 1.47 14.11
12/20/2020 2:30:00 AM -0.07 31.874 0.131 6.16 1.49 14.08
12/20/2020 2:45:00 AM -0.06 31.892 0.131 6.16 1.49 14.06
12/20/2020 3:00:00 AM -0.06 31.892 0.132 6.15 1.5 14.03
12/20/2020 3:15:00 AM -0.06 31.892 0.132 6.15 1.46 14.01
12/20/2020 3:30:00 AM -0.06 31.892 0.132 6.14 1.52 13.99
12/20/2020 3:45:00 AM -0.06 31.892 0.132 6.14 1.51 13.96
12/20/2020 4:00:00 AM -0.06 31.892 0.132 6.14 1.45 13.95
12/20/2020 4:15:00 AM -0.06 31.892 0.132 6.13 1.47 13.93
12/20/2020 4:30:00 AM -0.06 31.892 0.132 6.12 1.52 13.91
12/20/2020 4:45:00 AM -0.05 31.91 0.132 6.13 1.51 13.88
12/20/2020 5:00:00 AM -0.05 31.91 0.132 6.13 1.47 13.86
12/20/2020 5:15:00 AM -0.05 31.91 0.132 6.11 1.49 13.85
12/20/2020 5:30:00 AM -0.06 31.892 0.132 6.1 1.47 13.84
12/20/2020 5:45:00 AM -0.05 31.91 0.132 6.11 1.55 13.82
12/20/2020 6:00:00 AM -0.06 31.892 0.133 6.1 1.48 13.81
12/20/2020 6:15:00 AM -0.05 31.91 0.133 6.11 1.55 13.79
12/20/2020 6:30:00 AM -0.05 31.91 0.133 6.11 1.58 13.78
12/20/2020 6:45:00 AM -0.05 31.91 0.133 6.11 1.79 13.76
12/20/2020 7:00:00 AM -0.05 31.91 0.134 6.1 1.58 13.75
12/20/2020 7:15:00 AM -0.05 31.91 0.134 6.09 1.5 13.74
12/20/2020 7:30:00 AM -0.05 31.91 0.134 6.1 1.52 13.72
12/20/2020 7:45:00 AM -0.05 31.91 0.134 6.11 1.58 13.71
12/20/2020 8:00:00 AM -0.04 31.928 0.134 6.11 1.49 13.73
12/20/2020 8:15:00 AM -0.04 31.928 0.133 6.11 1.51 13.78
12/20/2020 8:30:00 AM -0.03 31.946 0.134 6.12 1.49 13.83
12/20/2020 8:45:00 AM -0.02 31.964 0.134 6.14 1.5 13.94
12/20/2020 9:00:00 AM -0.01 31.982 0.133 6.16 1.47 14.06
12/20/2020 9:15:00 AM 0 32 0.134 6.19 1.46 14.15
12/20/2020 9:30:00 AM 0 32 0.134 6.19 1.47 14.25
12/20/2020 9:45:00 AM 0 32 0.133 6.22 1.48 14.31
12/20/2020 10:00:00 AM -0.01 31.982 0.133 6.22 1.47 14.36
12/20/2020 10:15:00 AM 0 32 0.133 6.24 1.57 14.41
12/20/2020 10:30:00 AM 0.02 32.036 0.133 6.26 1.47 14.49
12/20/2020 10:45:00 AM 0.03 32.054 0.133 6.28 1.47 14.59
12/20/2020 11:00:00 AM 0.04 32.072 0.133 6.31 1.44 14.67
12/20/2020 11:15:00 AM 0.05 32.09 0.133 6.33 1.47 14.76
12/20/2020 11:30:00 AM 0.06 32.108 0.133 6.33 1.43 14.85
12/20/2020 11:45:00 AM 0.07 32.126 0.132 6.38 1.45 14.93
12/20/2020 12:00:00 PM 0.06 32.108 0.132 6.4 1.58 15.02
12/20/2020 12:15:00 PM 0.07 32.126 0.132 6.42 1.43 15.06
12/20/2020 12:30:00 PM 0.05 32.09 0.132 6.42 1.49 15.12
12/20/2020 12:45:00 PM 0.05 32.09 0.132 6.45 1.48 15.14
12/20/2020 1:00:00 PM 0.03 32.054 0.132 6.47 1.46 15.17
12/20/2020 1:15:00 PM 0.03 32.054 0.131 6.49 1.45 15.19
12/20/2020 1:30:00 PM 0.04 32.072 0.131 6.49 1.48 15.23
12/20/2020 1:45:00 PM 0.04 32.072 0.131 6.52 1.49 15.26
12/20/2020 2:00:00 PM 0.04 32.072 0.131 6.5 1.48 15.29
12/20/2020 2:15:00 PM 0.04 32.072 0.131 6.57 1.5 15.34
12/20/2020 2:30:00 PM 0.04 32.072 0.131 6.61 1.43 15.37
12/20/2020 2:45:00 PM 0.03 32.054 0.131 6.59 1.47 15.39
12/20/2020 3:00:00 PM 0.03 32.054 0.131 6.62 1.45 15.37
12/20/2020 3:15:00 PM 0.02 32.036 0.131 6.62 1.52 15.33
12/20/2020 3:30:00 PM 0.02 32.036 0.13 6.62 1.51 15.32
12/20/2020 3:45:00 PM 0.01 32.018 0.13 6.62 1.51 15.28
12/20/2020 4:00:00 PM 0.01 32.018 0.13 6.6 1.56 15.24
12/20/2020 4:15:00 PM 0.01 32.018 0.131 6.62 1.5 15.19
12/20/2020 4:30:00 PM 0 32 0.13 6.62 1.5 15.14
12/20/2020 4:45:00 PM 0 32 0.13 6.63 1.49 15.06
12/20/2020 5:00:00 PM 0 32 0.13 6.63 1.67 14.99
12/20/2020 5:15:00 PM -0.01 31.982 0.13 6.64 1.73 14.93
12/20/2020 5:30:00 PM 0 32 0.131 6.62 1.58 14.85
12/20/2020 5:45:00 PM 0 32 0.131 6.61 1.55 14.78
12/20/2020 6:00:00 PM 0.01 32.018 0.131 6.59 1.53 14.71
12/20/2020 6:15:00 PM 0 32 0.131 6.58 1.57 14.65
12/20/2020 6:30:00 PM 0 32 0.131 6.57 1.58 14.58
12/20/2020 6:45:00 PM 0 32 0.131 6.56 1.66 14.53
12/20/2020 7:00:00 PM 0 32 0.131 6.52 1.69 14.47
12/20/2020 7:15:00 PM 0 32 0.131 6.52 1.49 14.41
12/20/2020 7:30:00 PM 0 32 0.131 6.51 1.57 14.35
12/20/2020 7:45:00 PM 0 32 0.131 6.51 1.5 14.3
12/20/2020 8:00:00 PM 0 32 0.131 6.49 1.59 14.25
12/20/2020 8:15:00 PM 0 32 0.131 6.48 1.5 14.2
12/20/2020 8:30:00 PM 0 32 0.131 6.47 1.52 14.17
12/20/2020 8:45:00 PM -0.01 31.982 0.131 6.46 1.47 14.13
12/20/2020 9:00:00 PM -0.01 31.982 0.131 6.44 1.52 14.09
12/20/2020 9:15:00 PM -0.01 31.982 0.131 6.45 1.48 14.05
12/20/2020 9:30:00 PM 0 32 0.131 6.44 1.53 14.02
12/20/2020 9:45:00 PM -0.01 31.982 0.131 6.42 1.47 13.99
12/20/2020 10:00:00 PM -0.01 31.982 0.131 6.41 1.49 13.96
12/20/2020 10:15:00 PM -0.01 31.982 0.131 6.39 1.78 13.93
12/20/2020 10:30:00 PM -0.01 31.982 0.131 6.4 1.62 13.91
12/20/2020 10:45:00 PM -0.01 31.982 0.131 6.4 1.65 13.89
12/20/2020 11:00:00 PM -0.02 31.964 0.132 6.38 1.5 13.87
12/20/2020 11:15:00 PM 0 32 0.132 6.39 1.58 13.84
12/20/2020 11:30:00 PM -0.01 31.982 0.132 6.37 1.53 13.83
12/20/2020 11:45:00 PM 0 32 0.132 6.37 1.55 13.81
12/21/2020 12:00:00 AM 0 32 0.132 6.36 1.53 13.8
12/21/2020 12:15:00 AM -0.01 31.982 0.132 6.37 1.52 13.79
12/21/2020 12:30:00 AM 0 32 0.132 6.37 1.57 13.78
12/21/2020 12:45:00 AM -0.01 31.982 0.131 6.36 1.53 13.77
12/21/2020 1:00:00 AM -0.01 31.982 0.131 6.35 1.53 13.76
12/21/2020 1:15:00 AM -0.01 31.982 0.131 6.35 1.46 13.75
12/21/2020 1:30:00 AM -0.01 31.982 0.131 6.35 1.45 13.73
12/21/2020 1:45:00 AM -0.01 31.982 0.131 6.34 1.53 13.72
12/21/2020 2:00:00 AM -0.01 31.982 0.131 6.32 1.47 13.7
12/21/2020 2:15:00 AM -0.01 31.982 0.132 6.33 1.46 13.7
12/21/2020 2:30:00 AM -0.01 31.982 0.131 6.33 1.45 13.7
12/21/2020 2:45:00 AM -0.01 31.982 0.131 6.34 1.51 13.69
12/21/2020 3:00:00 AM -0.01 31.982 0.132 6.32 1.58 13.68
12/21/2020 3:15:00 AM -0.02 31.964 0.131 6.32 1.57 13.68
12/21/2020 3:30:00 AM 0 32 0.132 6.31 1.53 13.67
12/21/2020 3:45:00 AM -0.01 31.982 0.132 6.3 1.49 13.67
12/21/2020 4:00:00 AM -0.04 31.928 0.132 6.33 1.53 13.66
12/21/2020 4:15:00 AM -0.03 31.946 0.132 6.31 1.52 13.67
12/21/2020 4:30:00 AM -0.03 31.946 0.132 6.3 1.53 13.66
12/21/2020 4:45:00 AM -0.01 31.982 0.132 6.3 1.66 13.64
12/21/2020 5:00:00 AM -0.02 31.964 0.132 6.3 1.59 13.65
12/21/2020 5:15:00 AM -0.01 31.982 0.132 6.3 1.62 13.65
12/21/2020 5:30:00 AM -0.02 31.964 0.132 6.3 1.53 13.64
12/21/2020 5:45:00 AM -0.01 31.982 0.132 6.31 1.7 13.63
12/21/2020 6:00:00 AM -0.01 31.982 0.132 6.31 1.63 13.63
12/21/2020 6:15:00 AM -0.01 31.982 0.132 6.3 1.61 13.63
12/21/2020 6:30:00 AM -0.01 31.982 0.132 6.3 1.63 13.63
12/21/2020 6:45:00 AM -0.01 31.982 0.132 6.3 1.64 13.63
12/21/2020 7:00:00 AM -0.01 31.982 0.132 6.3 1.55 13.63
12/21/2020 7:15:00 AM -0.01 31.982 0.132 6.31 1.52 13.63
12/21/2020 7:30:00 AM 0 32 0.132 6.3 1.58 13.62
12/21/2020 7:45:00 AM -0.01 31.982 0.132 6.3 1.55 13.63
12/21/2020 8:00:00 AM -0.01 31.982 0.132 6.3 1.59 13.67
12/21/2020 8:15:00 AM 0 32 0.131 6.31 1.55 13.72
12/21/2020 8:30:00 AM 0.02 32.036 0.132 6.31 1.6 13.8
12/21/2020 8:45:00 AM 0.01 32.018 0.131 6.35 1.53 13.91
12/21/2020 9:00:00 AM 0.03 32.054 0.132 6.35 1.55 13.97
12/21/2020 9:15:00 AM 0.03 32.054 0.131 6.36 1.49 14.05
12/21/2020 9:30:00 AM 0.02 32.036 0.131 6.37 1.51 14.15
12/21/2020 9:45:00 AM 0.04 32.072 0.131 6.39 1.54 14.21
12/21/2020 10:00:00 AM 0.05 32.09 0.131 6.41 1.5 14.3
12/21/2020 10:15:00 AM 0.04 32.072 0.131 6.42 1.52 14.39
12/21/2020 10:30:00 AM 0.06 32.108 0.13 6.43 1.53 14.47
12/21/2020 10:45:00 AM 0.04 32.072 0.13 6.45 1.47 14.56
12/21/2020 11:00:00 AM 0.05 32.09 0.13 6.46 1.51 14.62
12/21/2020 11:15:00 AM 0.04 32.072 0.13 6.48 1.52 14.71
12/21/2020 11:30:00 AM 0.05 32.09 0.13 6.51 1.53 14.79
12/21/2020 11:45:00 AM 0.06 32.108 0.129 6.54 1.57 14.89
12/21/2020 12:00:00 PM 0.08 32.144 0.129 6.56 1.53 14.96
12/21/2020 12:15:00 PM 0.09 32.162 0.129 6.58 1.58 15.05
12/21/2020 12:30:00 PM 0.11 32.198 0.129 6.6 1.54 15.14
12/21/2020 12:45:00 PM 0.1 32.18 0.129 6.63 1.58 15.2
12/21/2020 1:00:00 PM 0.09 32.162 0.128 6.65 1.61 15.26
12/21/2020 1:15:00 PM 0.09 32.162 0.128 6.67 1.57 15.31
12/21/2020 1:30:00 PM 0.09 32.162 0.128 6.69 1.54 15.36
12/21/2020 1:45:00 PM 0.1 32.18 0.128 6.71 1.56 15.43
12/21/2020 2:00:00 PM 0.1 32.18 0.128 6.74 1.55 15.47
12/21/2020 2:15:00 PM 0.09 32.162 0.128 6.76 1.55 15.49
12/21/2020 2:30:00 PM 0.08 32.144 0.127 6.78 1.55 15.52
12/21/2020 2:45:00 PM 0.07 32.126 0.127 6.8 1.54 15.54
12/21/2020 3:00:00 PM 0.06 32.108 0.127 6.8 1.53 15.55
12/21/2020 3:15:00 PM 0.06 32.108 0.127 6.82 1.54 15.54
12/21/2020 3:30:00 PM 0.04 32.072 0.127 6.82 1.57 15.53
12/21/2020 3:45:00 PM 0.04 32.072 0.127 6.82 1.6 15.5
12/21/2020 4:00:00 PM 0.03 32.054 0.127 6.8 1.57 15.47
12/21/2020 4:15:00 PM 0.03 32.054 0.127 6.81 1.58 15.41
12/21/2020 4:30:00 PM 0.01 32.018 0.127 6.78 1.56 15.34
12/21/2020 4:45:00 PM 0.01 32.018 0.127 6.77 1.58 15.26
12/21/2020 5:00:00 PM 0 32 0.127 6.75 1.65 15.18
12/21/2020 5:15:00 PM 0 32 0.127 6.72 1.68 15.1
12/21/2020 5:30:00 PM 0 32 0.127 6.71 1.65 15.03
12/21/2020 5:45:00 PM -0.01 31.982 0.127 6.69 1.69 14.95
12/21/2020 6:00:00 PM -0.01 31.982 0.127 6.68 1.59 14.89
12/21/2020 6:15:00 PM -0.01 31.982 0.127 6.65 1.69 14.81
12/21/2020 6:30:00 PM -0.01 31.982 0.127 6.64 1.72 14.74
12/21/2020 6:45:00 PM 0 32 0.128 6.63 1.65 14.68
12/21/2020 7:00:00 PM 0 32 0.128 6.61 1.63 14.59
12/21/2020 7:15:00 PM -0.01 31.982 0.128 6.58 1.65 14.52
12/21/2020 7:30:00 PM -0.01 31.982 0.128 6.58 1.68 14.47
12/21/2020 7:45:00 PM -0.01 31.982 0.128 6.56 1.59 14.41
12/21/2020 8:00:00 PM -0.01 31.982 0.128 6.52 1.62 14.34
12/21/2020 8:15:00 PM -0.01 31.982 0.128 6.53 1.62 14.28
12/21/2020 8:30:00 PM -0.01 31.982 0.128 6.51 1.65 14.23
12/21/2020 8:45:00 PM -0.01 31.982 0.128 6.51 1.64 14.16
12/21/2020 9:00:00 PM -0.01 31.982 0.128 6.48 1.63 14.14
12/21/2020 9:15:00 PM -0.01 31.982 0.129 6.48 1.65 14.09
12/21/2020 9:30:00 PM -0.01 31.982 0.129 6.47 1.61 14.05
12/21/2020 9:45:00 PM -0.01 31.982 0.129 6.43 1.61 14.01
12/21/2020 10:00:00 PM -0.01 31.982 0.129 6.46 1.6 13.97
12/21/2020 10:15:00 PM -0.01 31.982 0.129 6.45 1.64 13.95
12/21/2020 10:30:00 PM -0.01 31.982 0.129 6.44 1.61 13.92
12/21/2020 10:45:00 PM -0.01 31.982 0.129 6.44 1.64 13.9
12/21/2020 11:00:00 PM -0.01 31.982 0.129 6.43 1.59 13.87
12/21/2020 11:15:00 PM -0.01 31.982 0.129 6.43 1.57 13.86
12/21/2020 11:30:00 PM -0.01 31.982 0.13 6.41 1.66 13.84
12/21/2020 11:45:00 PM 0 32 0.13 6.41 1.63 13.82
12/22/2020 12:00:00 AM -0.01 31.982 0.13 6.4 1.6 13.8
12/22/2020 12:15:00 AM -0.01 31.982 0.13 6.4 1.63 13.79
12/22/2020 12:30:00 AM -0.01 31.982 0.13 6.4 1.65 13.78
12/22/2020 12:45:00 AM -0.01 31.982 0.13 6.41 1.57 13.76
12/22/2020 1:00:00 AM -0.01 31.982 0.13 6.39 1.71 13.75
12/22/2020 1:15:00 AM -0.01 31.982 0.13 6.39 1.75 13.75
12/22/2020 1:30:00 AM -0.01 31.982 0.13 6.37 1.66 13.74
12/22/2020 1:45:00 AM -0.01 31.982 0.13 6.38 1.67 13.73
12/22/2020 2:00:00 AM -0.01 31.982 0.13 6.37 1.68 13.72
12/22/2020 2:15:00 AM -0.01 31.982 0.13 6.37 1.69 13.72
12/22/2020 2:30:00 AM -0.01 31.982 0.13 6.38 1.69 13.72
12/22/2020 2:45:00 AM -0.01 31.982 0.13 6.36 1.63 13.71
12/22/2020 3:00:00 AM -0.01 31.982 0.131 6.34 1.64 13.69
12/22/2020 3:15:00 AM -0.01 31.982 0.131 6.31 1.68 13.7
12/22/2020 3:30:00 AM -0.01 31.982 0.131 6.3 1.66 13.69
12/22/2020 3:45:00 AM -0.01 31.982 0.131 6.3 1.66 13.69
12/22/2020 4:00:00 AM -0.01 31.982 0.131 6.29 1.64 13.69
12/22/2020 4:15:00 AM -0.02 31.964 0.131 6.29 1.73 13.69
12/22/2020 4:30:00 AM -0.02 31.964 0.131 6.29 1.63 13.69
12/22/2020 4:45:00 AM -0.01 31.982 0.131 6.29 1.68 13.68
12/22/2020 5:00:00 AM -0.02 31.964 0.131 6.29 1.72 13.68
12/22/2020 5:15:00 AM -0.01 31.982 0.131 6.29 1.79 13.68
12/22/2020 5:30:00 AM -0.02 31.964 0.131 6.31 1.65 13.68
12/22/2020 5:45:00 AM -0.01 31.982 0.132 6.31 1.74 13.68
12/22/2020 6:00:00 AM -0.01 31.982 0.132 6.32 1.7 13.67
12/22/2020 6:15:00 AM -0.01 31.982 0.132 6.3 1.85 13.68
12/22/2020 6:30:00 AM -0.02 31.964 0.131 6.29 1.71 13.69
12/22/2020 6:45:00 AM -0.02 31.964 0.131 6.26 1.76 13.69
12/22/2020 7:00:00 AM -0.01 31.982 0.131 6.22 1.73 13.68
12/22/2020 7:15:00 AM -0.01 31.982 0.132 6.26 1.83 13.68
12/22/2020 7:30:00 AM -0.01 31.982 0.132 6.28 1.75 13.68
12/22/2020 7:45:00 AM 0 32 0.132 6.29 1.73 13.7
12/22/2020 8:00:00 AM -0.01 31.982 0.131 6.29 1.73 13.72
12/22/2020 8:15:00 AM 0 32 0.132 6.3 1.75 13.76
12/22/2020 8:30:00 AM 0.01 32.018 0.132 6.3 1.71 13.84
12/22/2020 8:45:00 AM 0.02 32.036 0.132 6.33 1.69 13.92
12/22/2020 9:00:00 AM 0.02 32.036 0.132 6.36 1.68 13.98
12/22/2020 9:15:00 AM 0.04 32.072 0.132 6.4 1.67 14.09
12/22/2020 9:30:00 AM 0.05 32.09 0.131 6.42 1.81 14.22
12/22/2020 9:45:00 AM 0.1 32.18 0.131 6.46 1.69 14.36
12/22/2020 10:00:00 AM 0.14 32.252 0.131 6.48 1.78 14.5
12/22/2020 10:15:00 AM 0.13 32.234 0.13 6.52 1.79 14.63
12/22/2020 10:30:00 AM 0.1 32.18 0.13 6.54 1.83 14.71
12/22/2020 10:45:00 AM 0.09 32.162 0.13 6.52 1.78 14.75
12/22/2020 11:00:00 AM 0.09 32.162 0.13 6.52 1.84 14.8
12/22/2020 11:15:00 AM 0.08 32.144 0.13 6.55 1.76 14.91
12/22/2020 11:30:00 AM 0.1 32.18 0.13 6.53 1.82 15.02
12/22/2020 11:45:00 AM 0.11 32.198 0.129 6.33 1.8 15.13
12/22/2020 12:00:00 PM 0.12 32.216 0.129 6.35 2.01 15.21
12/22/2020 12:15:00 PM 0.12 32.216 0.129 6.41 1.79 15.26
12/22/2020 12:30:00 PM 0.1 32.18 0.129 6.55 1.76 15.3
12/22/2020 12:45:00 PM 0.08 32.144 0.129 6.6 1.87 15.32
12/22/2020 1:00:00 PM 0.08 32.144 0.129 6.63 1.8 15.34
12/22/2020 1:15:00 PM 0.09 32.162 0.129 6.66 1.8 15.38
12/22/2020 1:30:00 PM 0.1 32.18 0.128 6.74 1.71 15.46
12/22/2020 1:45:00 PM 0.12 32.216 0.128 6.75 1.74 15.52
12/22/2020 2:00:00 PM 0.14 32.252 0.128 6.76 1.77 15.59
12/22/2020 2:15:00 PM 0.15 32.27 0.128 6.76 1.74 15.64
12/22/2020 2:30:00 PM 0.13 32.234 0.128 6.76 1.78 15.63
12/22/2020 2:45:00 PM 0.12 32.216 0.128 6.71 1.79 15.6
12/22/2020 3:00:00 PM 0.12 32.216 0.128 6.69 1.76 15.59
12/22/2020 3:15:00 PM 0.1 32.18 0.128 6.8 1.81 15.61
12/22/2020 3:30:00 PM 0.1 32.18 0.127 6.81 1.86 15.62
12/22/2020 3:45:00 PM 0.09 32.162 0.128 6.83 1.8 15.61
12/22/2020 4:00:00 PM 0.08 32.144 0.128 6.84 1.87 15.56
12/22/2020 4:15:00 PM 0.07 32.126 0.128 6.82 1.79 15.49
12/22/2020 4:30:00 PM 0.06 32.108 0.128 6.75 1.85 15.42
12/22/2020 4:45:00 PM 0.04 32.072 0.128 6.72 1.86 15.34
12/22/2020 5:00:00 PM 0.03 32.054 0.128 6.71 1.99 15.24
12/22/2020 5:15:00 PM 0.02 32.036 0.128 6.67 1.97 15.16
12/22/2020 5:30:00 PM 0.01 32.018 0.128 6.64 1.92 15.09
12/22/2020 5:45:00 PM 0.01 32.018 0.128 6.64 1.93 15.02
12/22/2020 6:00:00 PM 0.02 32.036 0.129 6.61 1.96 14.95
12/22/2020 6:15:00 PM 0.02 32.036 0.129 6.56 2.2 14.88
12/22/2020 6:30:00 PM 0.03 32.054 0.129 6.57 1.96 14.81
12/22/2020 6:45:00 PM 0.03 32.054 0.13 6.55 1.95 14.75
12/22/2020 7:00:00 PM 0.02 32.036 0.13 6.54 1.94 14.68
12/22/2020 7:15:00 PM 0.03 32.054 0.13 6.53 1.97 14.61
12/22/2020 7:30:00 PM 0.02 32.036 0.13 6.52 1.95 14.56
12/22/2020 7:45:00 PM 0.02 32.036 0.131 6.51 2.01 14.51
12/22/2020 8:00:00 PM 0.03 32.054 0.131 6.47 1.98 14.46
12/22/2020 8:15:00 PM 0.03 32.054 0.131 6.43 1.97 14.41
12/22/2020 8:30:00 PM 0.03 32.054 0.132 6.42 1.95 14.36
12/22/2020 8:45:00 PM 0.03 32.054 0.132 6.39 1.98 14.31
12/22/2020 9:00:00 PM 0.03 32.054 0.132 6.42 2.04 14.28
12/22/2020 9:15:00 PM 0.02 32.036 0.132 6.44 2.04 14.26
12/22/2020 9:30:00 PM 0.03 32.054 0.133 6.39 1.93 14.22
12/22/2020 9:45:00 PM 0.03 32.054 0.133 6.4 2.02 14.2
12/22/2020 10:00:00 PM 0.02 32.036 0.133 6.37 1.99 14.18
12/22/2020 10:15:00 PM 0.01 32.018 0.134 6.36 2.03 14.16
12/22/2020 10:30:00 PM 0.01 32.018 0.134 6.37 1.99 14.14
12/22/2020 10:45:00 PM 0 32 0.134 6.38 1.99 14.13
12/22/2020 11:00:00 PM 0 32 0.134 6.37 2.03 14.12
12/22/2020 11:15:00 PM 0 32 0.135 6.38 2.08 14.1
12/22/2020 11:30:00 PM -0.01 31.982 0.135 6.35 2.05 14.1
12/22/2020 11:45:00 PM -0.03 31.946 0.135 6.32 2.04 14.09
12/23/2020 12:00:00 AM -0.03 31.946 0.136 6.36 2.09 14.08
12/23/2020 12:15:00 AM -0.04 31.928 0.136 6.35 2.04 14.07
12/23/2020 12:30:00 AM -0.04 31.928 0.136 6.31 1.98 14.07
12/23/2020 12:45:00 AM -0.05 31.91 0.136 6.33 2.02 14.08
12/23/2020 1:00:00 AM -0.05 31.91 0.137 6.3 2.07 14.06
12/23/2020 1:15:00 AM -0.05 31.91 0.137 6.33 2.02 14.07
12/23/2020 1:30:00 AM -0.05 31.91 0.137 6.29 2.05 14.07
12/23/2020 1:45:00 AM -0.05 31.91 0.137 6.29 2.07 14.07
12/23/2020 2:00:00 AM -0.05 31.91 0.137 6.32 2.05 14.06
12/23/2020 2:15:00 AM -0.06 31.892 0.137 6.3 2.05 14.07
12/23/2020 2:30:00 AM -0.06 31.892 0.138 6.3 2.06 14.07
12/23/2020 2:45:00 AM -0.07 31.874 0.138 6.3 2.02 14.07
12/23/2020 3:00:00 AM -0.08 31.856 0.138 6.31 2.07 14.08
12/23/2020 3:15:00 AM -0.07 31.874 0.138 6.27 2.1 14.08
12/23/2020 3:30:00 AM -0.08 31.856 0.138 6.27 2.07 14.09
12/23/2020 3:45:00 AM -0.08 31.856 0.138 6.23 2.14 14.09
12/23/2020 4:00:00 AM -0.08 31.856 0.138 6.22 2.15 14.09
12/23/2020 4:15:00 AM -0.09 31.838 0.138 6.23 2.14 14.09
12/23/2020 4:30:00 AM -0.09 31.838 0.138 6.27 2.14 14.1
12/23/2020 4:45:00 AM -0.1 31.82 0.138 6.26 2.2 14.11
12/23/2020 5:00:00 AM -0.1 31.82 0.138 6.27 2.16 14.11
12/23/2020 5:15:00 AM -0.1 31.82 0.138 6.29 2.14 14.12
12/23/2020 5:30:00 AM -0.1 31.82 0.138 6.23 2.12 14.12
12/23/2020 5:45:00 AM -0.1 31.82 0.138 6.24 2.12 14.12
12/23/2020 6:00:00 AM -0.1 31.82 0.139 6.21 2.2 14.12
12/23/2020 6:15:00 AM -0.1 31.82 0.139 6.22 2.18 14.12
12/23/2020 6:30:00 AM -0.09 31.838 0.139 6.26 2.26 14.12
12/23/2020 6:45:00 AM -0.1 31.82 0.139 6.22 2.21 14.13
12/23/2020 7:00:00 AM -0.1 31.82 0.138 6.25 2.2 14.12
12/23/2020 7:15:00 AM -0.1 31.82 0.139 6.24 2.25 14.13
12/23/2020 7:30:00 AM -0.1 31.82 0.139 6.27 2.19 14.14
12/23/2020 7:45:00 AM -0.09 31.838 0.139 6.25 2.21 14.17
12/23/2020 8:00:00 AM -0.08 31.856 0.139 6.27 2.2 14.22
12/23/2020 8:15:00 AM -0.08 31.856 0.139 6.3 2.12 14.32
12/23/2020 8:30:00 AM -0.08 31.856 0.139 6.27 2.23 14.42
12/23/2020 8:45:00 AM -0.07 31.874 0.139 6.29 2.17 14.52
12/23/2020 9:00:00 AM -0.05 31.91 0.139 6.32 2.1 14.61
12/23/2020 9:15:00 AM -0.02 31.964 0.138 6.38 2.16 14.73
12/23/2020 9:30:00 AM -0.01 31.982 0.138 6.39 2.12 14.85
12/23/2020 9:45:00 AM 0.02 32.036 0.138 6.39 2.2 14.95
12/23/2020 10:00:00 AM 0.06 32.108 0.138 6.42 2.17 15.04
12/23/2020 10:15:00 AM 0.1 32.18 0.138 6.47 2.12 15.15
12/23/2020 10:30:00 AM 0.13 32.234 0.137 6.5 2.08 15.23
12/23/2020 10:45:00 AM 0.17 32.306 0.138 6.5 2.13 15.32
12/23/2020 11:00:00 AM 0.21 32.378 0.137 6.53 2.17 15.4
12/23/2020 11:15:00 AM 0.22 32.396 0.137 6.56 2.14 15.47
12/23/2020 11:30:00 AM 0.25 32.45 0.137 6.63 2.18 15.54
12/23/2020 11:45:00 AM 0.28 32.504 0.137 6.68 2.24 15.6
12/23/2020 12:00:00 PM 0.32 32.576 0.136 6.74 2.21 15.66
12/23/2020 12:15:00 PM 0.34 32.612 0.136 6.78 2.12 15.72
12/23/2020 12:30:00 PM 0.36 32.648 0.136 6.74 2.16 15.75
12/23/2020 12:45:00 PM 0.4 32.72 0.136 6.73 2.21 15.79
12/23/2020 1:00:00 PM 0.4 32.72 0.136 6.8 2.2 15.82
12/23/2020 1:15:00 PM 0.38 32.684 0.135 6.82 2.21 15.84
12/23/2020 1:30:00 PM 0.38 32.684 0.135 6.86 2.24 15.85
12/23/2020 1:45:00 PM 0.37 32.666 0.135 6.89 2.23 15.86
12/23/2020 2:00:00 PM 0.36 32.648 0.135 6.91 2.26 15.86
12/23/2020 2:15:00 PM 0.35 32.63 0.135 6.95 2.19 15.85
12/23/2020 2:30:00 PM 0.32 32.576 0.135 6.98 2.29 15.85
12/23/2020 2:45:00 PM 0.3 32.54 0.134 7.01 2.28 15.85
12/23/2020 3:00:00 PM 0.31 32.558 0.135 7.04 2.22 15.84
12/23/2020 3:15:00 PM 0.3 32.54 0.134 7.05 2.23 15.83
12/23/2020 3:30:00 PM 0.28 32.504 0.134 7.04 2.26 15.8
12/23/2020 3:45:00 PM 0.23 32.414 0.133 7.06 2.3 15.79
12/23/2020 4:00:00 PM 0.19 32.342 0.133 7.04 2.29 15.72
12/23/2020 4:15:00 PM 0.15 32.27 0.134 7.02 2.26 15.64
12/23/2020 4:30:00 PM 0.11 32.198 0.133 6.99 2.37 15.55
12/23/2020 4:45:00 PM 0.1 32.18 0.134 6.94 2.34 15.44
12/23/2020 5:00:00 PM 0.08 32.144 0.134 6.89 2.49 15.34
12/23/2020 5:15:00 PM 0.07 32.126 0.133 6.85 2.5 15.25
12/23/2020 5:30:00 PM 0.08 32.144 0.134 6.8 2.42 15.15
12/23/2020 5:45:00 PM 0.06 32.108 0.134 6.76 2.56 15.06
12/23/2020 6:00:00 PM 0.06 32.108 0.135 6.72 2.47 14.98
12/23/2020 6:15:00 PM 0.06 32.108 0.135 6.69 2.51 14.9
12/23/2020 6:30:00 PM 0.06 32.108 0.135 6.68 2.49 14.83
12/23/2020 6:45:00 PM 0.06 32.108 0.135 6.63 2.42 14.76
12/23/2020 7:00:00 PM 0.06 32.108 0.136 6.61 2.51 14.68
12/23/2020 7:15:00 PM 0.05 32.09 0.135 6.61 2.45 14.61
12/23/2020 7:30:00 PM 0.07 32.126 0.136 6.57 2.38 14.54
12/23/2020 7:45:00 PM 0.05 32.09 0.136 6.56 2.52 14.48
12/23/2020 8:00:00 PM 0.06 32.108 0.137 6.54 2.62 14.42
12/23/2020 8:15:00 PM 0.06 32.108 0.137 6.51 2.43 14.37
12/23/2020 8:30:00 PM 0.04 32.072 0.136 6.5 2.42 14.34
12/23/2020 8:45:00 PM 0.04 32.072 0.137 6.49 2.53 14.29
12/23/2020 9:00:00 PM 0.04 32.072 0.137 6.49 2.43 14.27
12/23/2020 9:15:00 PM 0.04 32.072 0.137 6.47 2.36 14.24
12/23/2020 9:30:00 PM 0.03 32.054 0.137 6.47 2.32 14.22
12/23/2020 9:45:00 PM 0.04 32.072 0.138 6.45 2.42 14.18
12/23/2020 10:00:00 PM 0.05 32.09 0.139 6.44 2.48 14.15
12/23/2020 10:15:00 PM 0.04 32.072 0.138 6.44 2.38 14.14
12/23/2020 10:30:00 PM 0.04 32.072 0.139 6.43 2.37 14.13
12/23/2020 10:45:00 PM 0.04 32.072 0.139 6.42 2.48 14.1
12/23/2020 11:00:00 PM 0.05 32.09 0.139 6.41 2.44 14.09
12/23/2020 11:15:00 PM 0.06 32.108 0.139 6.41 2.51 14.08
12/23/2020 11:30:00 PM 0.06 32.108 0.139 6.41 2.5 14.07
12/23/2020 11:45:00 PM 0.05 32.09 0.139 6.41 2.36 14.06
12/24/2020 12:00:00 AM 0.06 32.108 0.139 6.41 2.42 14.05
12/24/2020 12:15:00 AM 0.06 32.108 0.14 6.4 2.39 14.04
12/24/2020 12:30:00 AM 0.05 32.09 0.14 6.39 2.55 14.03
12/24/2020 12:45:00 AM 0.03 32.054 0.14 6.39 2.43 14.04
12/24/2020 1:00:00 AM 0.03 32.054 0.14 6.38 2.36 14.03
12/24/2020 1:15:00 AM 0.05 32.09 0.14 6.39 2.38 14.01
12/24/2020 1:30:00 AM 0.05 32.09 0.14 6.38 2.35 14.01
12/24/2020 1:45:00 AM 0.08 32.144 0.141 6.37 2.42 14
12/24/2020 2:00:00 AM 0.07 32.126 0.141 6.38 2.47 14
12/24/2020 2:15:00 AM 0.08 32.144 0.141 6.38 2.45 13.99
12/24/2020 2:30:00 AM 0.07 32.126 0.141 6.38 2.52 13.98
12/24/2020 2:45:00 AM 0.08 32.144 0.141 6.37 2.43 13.98
12/24/2020 3:00:00 AM 0.07 32.126 0.141 6.38 2.45 13.98
12/24/2020 3:15:00 AM 0.08 32.144 0.142 6.37 2.43 13.97
12/24/2020 3:30:00 AM 0.09 32.162 0.141 6.36 2.44 13.97
12/24/2020 3:45:00 AM 0.1 32.18 0.142 6.37 2.48 13.95
12/24/2020 4:00:00 AM 0.11 32.198 0.142 6.37 2.42 13.96
12/24/2020 4:15:00 AM 0.11 32.198 0.141 6.37 2.45 13.95
12/24/2020 4:30:00 AM 0.11 32.198 0.142 6.38 2.39 13.95
12/24/2020 4:45:00 AM 0.12 32.216 0.142 6.37 2.45 13.94
12/24/2020 5:00:00 AM 0.12 32.216 0.142 6.36 2.48 13.94
12/24/2020 5:15:00 AM 0.13 32.234 0.142 6.37 2.43 13.93
12/24/2020 5:30:00 AM 0.13 32.234 0.142 6.36 2.42 13.92
12/24/2020 5:45:00 AM 0.12 32.216 0.141 6.36 2.42 13.92
12/24/2020 6:00:00 AM 0.13 32.234 0.142 6.37 2.49 13.92
12/24/2020 6:15:00 AM 0.13 32.234 0.142 6.36 2.55 13.92
12/24/2020 6:30:00 AM 0.15 32.27 0.143 6.36 2.56 13.9
12/24/2020 6:45:00 AM 0.13 32.234 0.141 6.37 2.6 13.91
12/24/2020 7:00:00 AM 0.14 32.252 0.143 6.36 2.63 13.91
12/24/2020 7:15:00 AM 0.14 32.252 0.142 6.35 2.64 13.9
12/24/2020 7:30:00 AM 0.13 32.234 0.142 6.35 2.65 13.9
12/24/2020 7:45:00 AM 0.15 32.27 0.142 6.34 2.68 13.89
12/24/2020 8:00:00 AM 0.13 32.234 0.141 6.35 2.71 13.92
12/24/2020 8:15:00 AM 0.14 32.252 0.141 6.35 2.59 13.94
12/24/2020 8:30:00 AM 0.16 32.288 0.141 6.37 2.61 13.98
12/24/2020 8:45:00 AM 0.18 32.324 0.141 6.37 2.63 14
12/24/2020 9:00:00 AM 0.18 32.324 0.141 6.37 2.8 14.05
12/24/2020 9:15:00 AM 0.19 32.342 0.141 6.38 2.92 14.09
12/24/2020 9:30:00 AM 0.22 32.396 0.141 6.38 3.53 14.11
12/24/2020 9:45:00 AM 0.24 32.432 0.143 6.37 4.08 14.12
12/24/2020 10:00:00 AM 0.23 32.414 0.143 6.38 4.7 14.14
12/24/2020 10:15:00 AM 0.24 32.432 0.144 6.38 5.48 14.15
12/24/2020 10:30:00 AM 0.27 32.486 0.146 6.38 7.45 14.15
12/24/2020 10:45:00 AM 0.28 32.504 0.146 6.37 8.78 14.16
12/24/2020 11:00:00 AM 0.29 32.522 0.148 6.38 10.13 14.17
12/24/2020 11:15:00 AM 0.29 32.522 0.148 6.39 10.22 14.21
12/24/2020 11:30:00 AM 0.33 32.594 0.151 6.38 13.97 14.18
12/24/2020 11:45:00 AM 0.34 32.612 0.153 6.39 16.3 14.2
12/24/2020 12:00:00 PM 0.32 32.576 0.156 6.39 17.66 14.19
12/24/2020 12:15:00 PM 0.3 32.54 0.165 6.4 20.95 14.17
12/24/2020 12:30:00 PM 0.36 32.648 0.178 6.4 23.52 14.13
12/24/2020 12:45:00 PM 0.39 32.702 0.178 6.37 27.36 14.05
12/24/2020 1:00:00 PM 0.34 32.612 0.168 6.39 33.5 14.06
12/24/2020 1:15:00 PM 0.34 32.612 0.155 6.35 36.69 13.95
12/24/2020 1:30:00 PM 0.3 32.54 0.149 6.32 35.53 14.06
12/24/2020 1:45:00 PM 0.28 32.504 0.141 6.32 48.46 14.02
12/24/2020 2:00:00 PM 0.3 32.54 0.137 6.29 45.17 13.95
12/24/2020 2:15:00 PM 0.22 32.396 0.131 6.25 82.69 13.97
12/24/2020 2:30:00 PM 0.25 32.45 0.129 6.15 63.27 13.87
12/24/2020 2:45:00 PM 0.02 32.036 0.118 5.82 186.63 13.85
12/24/2020 3:00:00 PM 0.09 32.162 0.119 5.78 105.6 13.81
12/24/2020 3:15:00 PM 0.03 32.054 0.117 5.84 159.03 13.78
12/24/2020 3:30:00 PM 0.07 32.126 0.117 5.84 108 13.76
12/24/2020 3:45:00 PM 0.02 32.036 0.113 5.83 124.96 13.77
12/24/2020 4:00:00 PM 0 32 0.11 5.81 160.06 13.76
12/24/2020 4:15:00 PM -0.04 31.928 0.108 5.83 206.79 13.74
12/24/2020 4:30:00 PM 0 32 0.106 5.82 193.48 13.71
12/24/2020 4:45:00 PM 0.09 32.162 0.103 5.83 165.03 13.72
12/24/2020 5:00:00 PM 0.13 32.234 0.1 5.83 195.33 13.71
12/24/2020 5:15:00 PM 0.2 32.36 0.097 5.84 204.65 13.71
12/24/2020 5:30:00 PM 0.27 32.486 0.093 5.82 197.13 13.69
12/24/2020 5:45:00 PM 0.34 32.612 0.09 5.81 218.97 13.68
12/24/2020 6:00:00 PM 0.41 32.738 0.088 5.82 229.7 13.67
12/24/2020 6:15:00 PM 0.46 32.828 0.087 5.8 229.61 13.64
12/24/2020 6:30:00 PM 0.55 32.99 0.086 5.84 241.2 13.63
12/24/2020 6:45:00 PM 0.63 33.134 0.085 5.79 214.63 13.62
12/24/2020 7:00:00 PM 0.66 33.188 0.084 5.85 264.78 13.6
12/24/2020 7:15:00 PM 0.77 33.386 0.083 5.79 221.18 13.58
12/24/2020 7:30:00 PM 0.86 33.548 0.081 5.77 261.33 13.55
12/24/2020 7:45:00 PM 0.94 33.692 0.08 5.77 247.17 13.52
12/24/2020 8:00:00 PM 1.01 33.818 0.079 5.7 248.9 13.51
12/24/2020 8:15:00 PM 1.06 33.908 0.074 5.73 219.34 13.49
12/24/2020 8:30:00 PM 1.11 33.998 0.074 5.69 417.96 13.47
12/24/2020 8:45:00 PM 1.17 34.106 0.073 5.67 236.09 13.46
12/24/2020 9:00:00 PM 1.2 34.16 0.072 5.64 226.29 13.43
12/24/2020 9:15:00 PM 1.26 34.268 0.07 5.64 216.92 13.41
12/24/2020 9:30:00 PM 1.34 34.412 0.069 5.64 223.04 13.38
12/24/2020 9:45:00 PM 1.4 34.52 0.068 5.64 231.25 13.36
12/24/2020 10:00:00 PM 1.44 34.592 0.067 5.64 239.61 13.36
12/24/2020 10:15:00 PM 1.45 34.61 0.066 5.6 238.87 13.32
12/24/2020 10:30:00 PM 1.48 34.664 0.065 5.58 240.78 13.31
12/24/2020 10:45:00 PM 1.52 34.736 0.065 5.6 228.27 13.3
12/24/2020 11:00:00 PM 1.56 34.808 0.064 5.57 201.21 13.29
12/24/2020 11:15:00 PM 1.6 34.88 0.064 5.58 217.66 13.27
12/24/2020 11:30:00 PM 1.67 35.006 0.064 5.56 193.66 13.24
12/24/2020 11:45:00 PM 1.73 35.114 0.063 5.6 229.83 13.21
12/25/2020 12:00:00 AM 1.79 35.222 0.063 5.6 202.82 13.2
12/25/2020 12:15:00 AM 1.82 35.276 0.062 5.58 242.28 13.19
12/25/2020 12:30:00 AM 1.85 35.33 0.061 5.59 196.72 13.17
12/25/2020 12:45:00 AM 1.88 35.384 0.061 5.56 264.96 13.16
12/25/2020 1:00:00 AM 1.9 35.42 0.06 5.57 248.08 13.14
12/25/2020 1:15:00 AM 1.95 35.51 0.06 5.59 284.98 13.12
12/25/2020 1:30:00 AM 1.98 35.564 0.059 5.58 249.1 13.1
12/25/2020 1:45:00 AM 1.98 35.564 0.059 5.59 282.63 13.09
12/25/2020 2:00:00 AM 2.02 35.636 0.058 5.56 253.07 13.08
12/25/2020 2:15:00 AM 2.09 35.762 0.057 5.56 206.77 13.07
12/25/2020 2:30:00 AM 2.12 35.816 0.057 5.54 212.04 13.06
12/25/2020 2:45:00 AM 2.15 35.87 0.057 5.55 190.93 13.04
12/25/2020 3:00:00 AM 2.22 35.996 0.056 5.53 184.8 13.03
12/25/2020 3:15:00 AM 2.26 36.068 0.056 5.52 172.76 13.02
12/25/2020 3:30:00 AM 2.35 36.23 0.056 5.55 167.96 13.01
12/25/2020 3:45:00 AM 2.43 36.374 0.056 5.52 182.48 12.99
12/25/2020 4:00:00 AM 2.53 36.554 0.056 5.55 140.08 12.96
12/25/2020 4:15:00 AM 2.62 36.716 0.056 5.55 141.21 12.94
12/25/2020 4:30:00 AM 2.7 36.86 0.056 5.55 127.45 12.91
12/25/2020 4:45:00 AM 2.82 37.076 0.056 5.55 120.01 12.89
12/25/2020 5:00:00 AM 2.91 37.238 0.056 5.55 112.1 12.87
12/25/2020 5:15:00 AM 2.98 37.364 0.056 5.54 112.31 12.84
12/25/2020 5:30:00 AM 3.07 37.526 0.056 5.57 105.46 12.82
12/25/2020 5:45:00 AM 3.13 37.634 0.056 5.56 102.9 12.8
12/25/2020 6:00:00 AM 3.21 37.778 0.056 5.57 104.7 12.78
12/25/2020 6:15:00 AM 3.27 37.886 0.056 5.57 92.78 12.76
12/25/2020 6:30:00 AM 3.33 37.994 0.056 5.57 88.31 12.74
12/25/2020 6:45:00 AM 3.36 38.048 0.057 5.54 83.61 12.72
12/25/2020 7:00:00 AM 3.42 38.156 0.057 5.57 83.74 12.71
12/25/2020 7:15:00 AM 3.47 38.246 0.057 5.57 86.37 12.69
12/25/2020 7:30:00 AM 3.52 38.336 0.057 5.58 75.17 12.68
12/25/2020 7:45:00 AM 3.55 38.39 0.058 5.58 76.4 12.67
12/25/2020 8:00:00 AM 3.6 38.48 0.058 5.58 67.69 12.66
12/25/2020 8:15:00 AM 3.63 38.534 0.058 5.55 73.03 12.64
12/25/2020 8:30:00 AM 3.67 38.606 0.058 5.58 69.66 12.63
12/25/2020 8:45:00 AM 3.71 38.678 0.059 5.56 68.73 12.62
12/25/2020 9:00:00 AM 3.74 38.732 0.059 5.57 63.88 12.62
12/25/2020 9:15:00 AM 3.77 38.786 0.059 5.59 65.68 12.61
12/25/2020 9:30:00 AM 3.8 38.84 0.059 5.58 62.5 12.6
12/25/2020 9:45:00 AM 3.83 38.894 0.06 5.58 63.51 12.59
12/25/2020 10:00:00 AM 3.87 38.966 0.06 5.59 61.12 12.58
12/25/2020 10:15:00 AM 3.89 39.002 0.06 5.59 59.16 12.57
12/25/2020 10:30:00 AM 3.93 39.074 0.06 5.59 55.85 12.56
12/25/2020 10:45:00 AM 3.95 39.11 0.061 5.61 55.89 12.55
12/25/2020 11:00:00 AM 3.99 39.182 0.061 5.61 54.69 12.54
12/25/2020 11:15:00 AM 4.01 39.218 0.061 5.62 60.4 12.53
12/25/2020 11:30:00 AM 4.04 39.272 0.061 5.62 46.85 12.53
12/25/2020 11:45:00 AM 4.07 39.326 0.061 5.62 46.67 12.53
12/25/2020 12:00:00 PM 4.09 39.362 0.062 5.63 49.05 12.51
12/25/2020 12:15:00 PM 4.13 39.434 0.062 5.64 50.12 12.52
12/25/2020 12:30:00 PM 4.15 39.47 0.062 5.64 46.18 12.5
12/25/2020 12:45:00 PM 4.18 39.524 0.063 5.65 44.15 12.49
12/25/2020 1:00:00 PM 4.21 39.578 0.063 5.67 44.04 12.49
12/25/2020 1:15:00 PM 4.24 39.632 0.063 5.67 40.7 12.48
12/25/2020 1:30:00 PM 4.28 39.704 0.063 5.68 41.08 12.47
12/25/2020 1:45:00 PM 4.32 39.776 0.063 5.68 43.09 12.47
12/25/2020 2:00:00 PM 4.37 39.866 0.064 5.69 41.15 12.45
12/25/2020 2:15:00 PM 4.4 39.92 0.064 5.66 40.14 12.44
12/25/2020 2:30:00 PM 4.44 39.992 0.064 5.69 37.31 12.44
12/25/2020 2:45:00 PM 4.46 40.028 0.064 5.7 38.34 12.43
12/25/2020 3:00:00 PM 4.47 40.046 0.064 5.71 41.77 12.42
12/25/2020 3:15:00 PM 4.45 40.01 0.065 5.71 37.13 12.42
12/25/2020 3:30:00 PM 4.47 40.046 0.065 5.68 37.84 12.41
12/25/2020 3:45:00 PM 4.48 40.064 0.065 5.75 33.21 12.41
12/25/2020 4:00:00 PM 4.48 40.064 0.066 5.74 36.17 12.41
12/25/2020 4:15:00 PM 4.47 40.046 0.066 5.74 32.89 12.4
12/25/2020 4:30:00 PM 4.47 40.046 0.066 5.72 29.5 12.41
12/25/2020 4:45:00 PM 4.45 40.01 0.066 5.73 35.09 12.41
12/25/2020 5:00:00 PM 4.43 39.974 0.066 5.72 29.48 12.41
12/25/2020 5:15:00 PM 4.43 39.974 0.066 5.73 29.92 12.41
12/25/2020 5:30:00 PM 4.41 39.938 0.066 5.73 28.84 12.42
12/25/2020 5:45:00 PM 4.4 39.92 0.066 5.73 29.37 12.42
12/25/2020 6:00:00 PM 4.38 39.884 0.067 5.71 32.79 12.42
12/25/2020 6:15:00 PM 4.35 39.83 0.067 5.73 31.43 12.43
12/25/2020 6:30:00 PM 4.34 39.812 0.067 5.74 32.68 12.44
12/25/2020 6:45:00 PM 4.31 39.758 0.067 5.73 31.23 12.45
12/25/2020 7:00:00 PM 4.3 39.74 0.067 5.74 29.94 12.45
12/25/2020 7:15:00 PM 4.27 39.686 0.067 5.72 30.47 12.47
12/25/2020 7:30:00 PM 4.25 39.65 0.067 5.74 32.19 12.48
12/25/2020 7:45:00 PM 4.22 39.596 0.068 5.74 31.93 12.49
12/25/2020 8:00:00 PM 4.21 39.578 0.068 5.74 46.54 12.5
12/25/2020 8:15:00 PM 4.19 39.542 0.068 5.75 27.51 12.5
12/25/2020 8:30:00 PM 4.18 39.524 0.068 5.74 33.29 12.51
12/25/2020 8:45:00 PM 4.16 39.488 0.068 5.75 28.84 12.52
12/25/2020 9:00:00 PM 4.13 39.434 0.068 5.76 28.05 12.53
12/25/2020 9:15:00 PM 4.1 39.38 0.068 5.75 26.44 12.55
12/25/2020 9:30:00 PM 4.07 39.326 0.068 5.75 27.73 12.55
12/25/2020 9:45:00 PM 4.05 39.29 0.068 5.77 28.28 12.57
12/25/2020 10:00:00 PM 4.03 39.254 0.068 5.78 26.95 12.57
12/25/2020 10:15:00 PM 4 39.2 0.068 5.76 27 12.58
12/25/2020 10:30:00 PM 3.97 39.146 0.068 5.8 25.88 12.59
12/25/2020 10:45:00 PM 3.95 39.11 0.069 5.76 26.59 12.59
12/25/2020 11:00:00 PM 3.91 39.038 0.069 5.77 19.49 12.61
12/25/2020 11:15:00 PM 3.89 39.002 0.069 5.78 24.61 12.62
12/25/2020 11:30:00 PM 3.87 38.966 0.069 5.8 26.59 12.63
12/25/2020 11:45:00 PM 3.84 38.912 0.069 5.77 25.81 12.64
12/26/2020 12:00:00 AM 3.83 38.894 0.069 5.77 26.35 12.65
12/26/2020 12:15:00 AM 3.8 38.84 0.069 5.79 24.07 12.65
12/26/2020 12:30:00 AM 3.78 38.804 0.069 5.79 25.37 12.66
12/26/2020 12:45:00 AM 3.76 38.768 0.069 5.8 24.47 12.67
12/26/2020 1:00:00 AM 3.74 38.732 0.069 5.81 24.51 12.68
12/26/2020 1:15:00 AM 3.73 38.714 0.069 5.79 25.33 12.68
12/26/2020 1:30:00 AM 3.7 38.66 0.07 5.78 23.92 12.7
12/26/2020 1:45:00 AM 3.69 38.642 0.07 5.82 23.02 12.7
12/26/2020 2:00:00 AM 3.67 38.606 0.07 5.83 22.04 12.71
12/26/2020 2:15:00 AM 3.65 38.57 0.07 5.82 23.35 12.72
12/26/2020 2:30:00 AM 3.63 38.534 0.07 5.84 21.05 12.72
12/26/2020 2:45:00 AM 3.61 38.498 0.07 5.84 23.76 12.73
12/26/2020 3:00:00 AM 3.6 38.48 0.07 5.84 23.96 12.73
12/26/2020 3:15:00 AM 3.59 38.462 0.07 5.84 22.15 12.74
12/26/2020 3:30:00 AM 3.57 38.426 0.07 5.86 21.8 12.75
12/26/2020 3:45:00 AM 3.55 38.39 0.07 5.84 21.67 12.75
12/26/2020 4:00:00 AM 3.53 38.354 0.07 5.86 21.13 12.77
12/26/2020 4:15:00 AM 3.51 38.318 0.07 5.83 19.32 12.77
12/26/2020 4:30:00 AM 3.48 38.264 0.07 5.84 19.26 12.78
12/26/2020 4:45:00 AM 3.46 38.228 0.07 5.81 21.05 12.79
12/26/2020 5:00:00 AM 3.44 38.192 0.07 5.88 22.62 12.79
12/26/2020 5:15:00 AM 3.42 38.156 0.07 5.85 18.99 12.8
12/26/2020 5:30:00 AM 3.4 38.12 0.07 5.83 21.51 12.81
12/26/2020 5:45:00 AM 3.38 38.084 0.071 5.85 20.74 12.82
12/26/2020 6:00:00 AM 3.36 38.048 0.071 5.88 17.93 12.83
12/26/2020 6:15:00 AM 3.35 38.03 0.071 5.85 18.17 12.84
12/26/2020 6:30:00 AM 3.33 37.994 0.071 5.89 19.07 12.84
12/26/2020 6:45:00 AM 3.32 37.976 0.071 5.9 17.17 12.86
12/26/2020 7:00:00 AM 3.31 37.958 0.071 5.89 18.71 12.86
12/26/2020 7:15:00 AM 3.29 37.922 0.071 5.92 18.82 12.86
12/26/2020 7:30:00 AM 3.27 37.886 0.071 5.93 18.76 12.88
12/26/2020 7:45:00 AM 3.26 37.868 0.071 5.9 18.13 12.88
12/26/2020 8:00:00 AM 3.25 37.85 0.071 5.96 15.52 12.89
12/26/2020 8:15:00 AM 3.23 37.814 0.071 5.91 15.13 12.9
12/26/2020 8:30:00 AM 3.23 37.814 0.071 5.94 18.45 12.9
12/26/2020 8:45:00 AM 3.24 37.832 0.071 5.89 19.07 12.92
12/26/2020 9:00:00 AM 3.25 37.85 0.071 5.92 17.35 12.92
12/26/2020 9:15:00 AM 3.25 37.85 0.071 5.9 17.02 12.93
12/26/2020 9:30:00 AM 3.25 37.85 0.071 5.95 16.91 12.94
12/26/2020 9:45:00 AM 3.26 37.868 0.071 5.91 17.37 12.95
12/26/2020 10:00:00 AM 3.27 37.886 0.071 5.92 24.79 12.96
12/26/2020 10:15:00 AM 3.29 37.922 0.071 5.89 12.65 12.96
12/26/2020 10:30:00 AM 3.3 37.94 0.071 5.94 16.01 12.96
12/26/2020 10:45:00 AM 3.32 37.976 0.071 5.89 16.41 12.96
12/26/2020 11:00:00 AM 3.34 38.012 0.072 5.94 16.06 12.97
12/26/2020 11:15:00 AM 3.35 38.03 0.072 5.89 16.95 12.97
12/26/2020 11:30:00 AM 3.37 38.066 0.072 5.9 22.84 12.97
12/26/2020 11:45:00 AM 3.39 38.102 0.072 5.88 16.57 12.96
12/26/2020 12:00:00 PM 3.42 38.156 0.072 5.87 15.37 12.96
12/26/2020 12:15:00 PM 3.44 38.192 0.072 5.88 15.38 12.95
12/26/2020 12:30:00 PM 3.48 38.264 0.072 5.91 12.47 12.95
12/26/2020 12:45:00 PM 3.5 38.3 0.072 5.88 16.22 12.95
12/26/2020 1:00:00 PM 3.52 38.336 0.072 5.91 15.39 12.94
12/26/2020 1:15:00 PM 3.53 38.354 0.072 5.93 14.75 12.94
12/26/2020 1:30:00 PM 3.55 38.39 0.072 5.9 14.57 12.93
12/26/2020 1:45:00 PM 3.57 38.426 0.072 5.9 14.65 12.93
12/26/2020 2:00:00 PM 3.6 38.48 0.072 5.89 14.74 12.91
12/26/2020 2:15:00 PM 3.61 38.498 0.072 5.9 14.53 12.91
12/26/2020 2:30:00 PM 3.62 38.516 0.072 5.94 13.89 12.9
12/26/2020 2:45:00 PM 3.62 38.516 0.072 5.92 13.86 12.89
12/26/2020 3:00:00 PM 3.61 38.498 0.072 5.87 13.61 12.89
12/26/2020 3:15:00 PM 3.6 38.48 0.072 5.9 13.86 12.89
12/26/2020 3:30:00 PM 3.61 38.498 0.072 5.89 14.01 12.88
12/26/2020 3:45:00 PM 3.6 38.48 0.072 5.87 13.03 12.88
12/26/2020 4:00:00 PM 3.61 38.498 0.073 5.9 13.2 12.88
12/26/2020 4:15:00 PM 3.6 38.48 0.073 5.9 13.16 12.87
12/26/2020 4:30:00 PM 3.6 38.48 0.073 5.94 13.36 12.86
12/26/2020 4:45:00 PM 3.6 38.48 0.073 5.88 14.21 12.86
12/26/2020 5:00:00 PM 3.59 38.462 0.073 5.9 13.65 12.85
12/26/2020 5:15:00 PM 3.58 38.444 0.073 5.87 14.17 12.85
12/26/2020 5:30:00 PM 3.57 38.426 0.073 5.87 14.46 12.85
12/26/2020 5:45:00 PM 3.57 38.426 0.073 5.86 13.76 12.84
12/26/2020 6:00:00 PM 3.55 38.39 0.073 5.87 14.06 12.84
12/26/2020 6:15:00 PM 3.54 38.372 0.073 5.87 13.03 12.85
12/26/2020 6:30:00 PM 3.52 38.336 0.073 5.88 12.61 12.85
12/26/2020 6:45:00 PM 3.51 38.318 0.073 5.88 13.3 12.85
12/26/2020 7:00:00 PM 3.49 38.282 0.073 5.88 12.63 12.86
12/26/2020 7:15:00 PM 3.48 38.264 0.074 5.9 12.08 12.87
12/26/2020 7:30:00 PM 3.47 38.246 0.073 5.89 12.62 12.87
12/26/2020 7:45:00 PM 3.46 38.228 0.074 5.87 13.63 12.87
12/26/2020 8:00:00 PM 3.45 38.21 0.074 5.88 12.09 12.88
12/26/2020 8:15:00 PM 3.44 38.192 0.074 5.87 12.03 12.88
12/26/2020 8:30:00 PM 3.43 38.174 0.074 5.88 12.43 12.89
12/26/2020 8:45:00 PM 3.43 38.174 0.074 5.89 12.9 12.89
12/26/2020 9:00:00 PM 3.42 38.156 0.074 5.86 12.58 12.9
12/26/2020 9:15:00 PM 3.42 38.156 0.074 5.9 11.96 12.9
12/26/2020 9:30:00 PM 3.41 38.138 0.074 5.88 12.8 12.91
12/26/2020 9:45:00 PM 3.41 38.138 0.074 5.89 12.34 12.91
12/26/2020 10:00:00 PM 3.41 38.138 0.074 5.9 12.01 12.91
12/26/2020 10:15:00 PM 3.4 38.12 0.074 5.89 11.57 12.92
12/26/2020 10:30:00 PM 3.39 38.102 0.074 5.84 11.63 12.92
12/26/2020 10:45:00 PM 3.39 38.102 0.074 5.9 11.55 12.92
12/26/2020 11:00:00 PM 3.38 38.084 0.074 5.89 11.67 12.93
12/26/2020 11:15:00 PM 3.38 38.084 0.074 5.89 11.79 12.93
12/26/2020 11:30:00 PM 3.37 38.066 0.074 5.87 11.4 12.94
12/26/2020 11:45:00 PM 3.37 38.066 0.074 5.9 11.68 12.94
12/27/2020 12:00:00 AM 3.37 38.066 0.074 5.9 11.74 12.94
12/27/2020 12:15:00 AM 3.36 38.048 0.075 5.89 12.14 12.95
12/27/2020 12:30:00 AM 3.36 38.048 0.075 5.9 12.22 12.95
12/27/2020 12:45:00 AM 3.36 38.048 0.075 5.89 11.17 12.95
12/27/2020 1:00:00 AM 3.36 38.048 0.075 5.9 11.14 12.95
12/27/2020 1:15:00 AM 3.36 38.048 0.075 5.9 10.94 12.95
12/27/2020 1:30:00 AM 3.36 38.048 0.075 5.89 11.13 12.96
12/27/2020 1:45:00 AM 3.35 38.03 0.075 5.9 10.6 12.96
12/27/2020 2:00:00 AM 3.35 38.03 0.075 5.9 11.07 12.96
12/27/2020 2:15:00 AM 3.35 38.03 0.075 5.9 10.42 12.97
12/27/2020 2:30:00 AM 3.35 38.03 0.075 5.91 10.77 12.97
12/27/2020 2:45:00 AM 3.35 38.03 0.075 5.88 10.21 12.97
12/27/2020 3:00:00 AM 3.36 38.048 0.075 5.89 10.92 12.97
12/27/2020 3:15:00 AM 3.36 38.048 0.075 5.91 10.42 12.97
12/27/2020 3:30:00 AM 3.36 38.048 0.075 5.91 10.24 12.98
12/27/2020 3:45:00 AM 3.36 38.048 0.075 5.91 10.38 12.97
12/27/2020 4:00:00 AM 3.37 38.066 0.075 5.86 9.91 12.98
12/27/2020 4:15:00 AM 3.37 38.066 0.075 5.9 9.95 12.98
12/27/2020 4:30:00 AM 3.37 38.066 0.075 5.9 9.65 12.98
12/27/2020 4:45:00 AM 3.37 38.066 0.075 5.91 10.15 12.98
12/27/2020 5:00:00 AM 3.38 38.084 0.075 5.91 9.81 12.98
12/27/2020 5:15:00 AM 3.38 38.084 0.075 5.91 9.46 12.98
12/27/2020 5:30:00 AM 3.39 38.102 0.076 5.9 9.53 12.98
12/27/2020 5:45:00 AM 3.39 38.102 0.076 5.92 9.9 12.98
12/27/2020 6:00:00 AM 3.39 38.102 0.076 5.92 9.41 12.98
12/27/2020 6:15:00 AM 3.4 38.12 0.076 5.9 9.15 12.98
12/27/2020 6:30:00 AM 3.4 38.12 0.076 5.92 9.19 12.98
12/27/2020 6:45:00 AM 3.4 38.12 0.076 5.91 9.31 12.98
12/27/2020 7:00:00 AM 3.41 38.138 0.076 5.92 9.17 12.99
12/27/2020 7:15:00 AM 3.41 38.138 0.076 5.89 9.2 12.99
12/27/2020 7:30:00 AM 3.4 38.12 0.076 5.91 8.98 12.99
12/27/2020 7:45:00 AM 3.4 38.12 0.076 6.02 8.79 12.99
12/27/2020 8:00:00 AM 3.4 38.12 0.076 5.94 8.63 13
12/27/2020 8:15:00 AM 3.39 38.102 0.076 5.91 8.45 13.01
12/27/2020 8:30:00 AM 3.38 38.084 0.076 5.91 8.82 13.01
12/27/2020 8:45:00 AM 3.39 38.102 0.076 5.92 8.56 13.02
12/27/2020 9:00:00 AM 3.39 38.102 0.076 5.93 8.4 13.03
12/27/2020 9:15:00 AM 3.4 38.12 0.076 5.94 8.37 13.04
12/27/2020 9:30:00 AM 3.42 38.156 0.076 5.94 8.41 13.05
12/27/2020 9:45:00 AM 3.45 38.21 0.076 5.94 8.22 13.06
12/27/2020 10:00:00 AM 3.48 38.264 0.076 5.93 8.22 13.06
12/27/2020 10:15:00 AM 3.51 38.318 0.076 5.97 8 13.07
12/27/2020 10:30:00 AM 3.55 38.39 0.076 5.94 8.12 13.06
12/27/2020 10:45:00 AM 3.61 38.498 0.076 5.95 7.84 13.06
12/27/2020 11:00:00 AM 3.67 38.606 0.076 5.97 7.65 13.06
12/27/2020 11:15:00 AM 3.73 38.714 0.077 5.98 7.79 13.05
12/27/2020 11:30:00 AM 3.79 38.822 0.077 5.97 7.84 13.04
12/27/2020 11:45:00 AM 3.83 38.894 0.077 5.97 7.81 13.02
12/27/2020 12:00:00 PM 3.9 39.02 0.077 5.98 7.92 13.02
12/27/2020 12:15:00 PM 3.97 39.146 0.077 5.99 7.56 13.01
12/27/2020 12:30:00 PM 4.02 39.236 0.077 6 7.6 13
12/27/2020 12:45:00 PM 4.07 39.326 0.077 5.99 7.44 12.99
12/27/2020 1:00:00 PM 4.12 39.416 0.077 5.99 7.45 12.97
12/27/2020 1:15:00 PM 4.2 39.56 0.077 5.99 7.56 12.94
12/27/2020 1:30:00 PM 4.25 39.65 0.077 5.99 7.43 12.92
12/27/2020 1:45:00 PM 4.28 39.704 0.077 6 7.43 12.91
12/27/2020 2:00:00 PM 4.3 39.74 0.077 5.99 7.23 12.89
12/27/2020 2:15:00 PM 4.33 39.794 0.077 5.99 7.53 12.88
12/27/2020 2:30:00 PM 4.35 39.83 0.077 5.98 7.21 12.86
12/27/2020 2:45:00 PM 4.37 39.866 0.077 5.98 7.41 12.84
12/27/2020 3:00:00 PM 4.39 39.902 0.077 5.97 7.23 12.83
12/27/2020 3:15:00 PM 4.39 39.902 0.077 5.94 7.3 12.81
12/27/2020 3:30:00 PM 4.39 39.902 0.077 5.97 6.95 12.8
12/27/2020 3:45:00 PM 4.39 39.902 0.078 5.97 7.08 12.8
12/27/2020 4:00:00 PM 4.38 39.884 0.078 5.97 7.07 12.79
12/27/2020 4:15:00 PM 4.37 39.866 0.078 5.95 7.28 12.77
12/27/2020 4:30:00 PM 4.36 39.848 0.078 5.96 7.88 12.76
12/27/2020 4:45:00 PM 4.35 39.83 0.078 5.95 7.35 12.75
12/27/2020 5:00:00 PM 4.35 39.83 0.078 5.96 7.37 12.73
12/27/2020 5:15:00 PM 4.34 39.812 0.078 5.97 7.71 12.72
12/27/2020 5:30:00 PM 4.33 39.794 0.078 5.94 7.16 12.7
12/27/2020 5:45:00 PM 4.32 39.776 0.078 5.96 7.09 12.7
12/27/2020 6:00:00 PM 4.3 39.74 0.078 5.96 7.11 12.7
12/27/2020 6:15:00 PM 4.28 39.704 0.078 5.97 7.29 12.69
12/27/2020 6:30:00 PM 4.26 39.668 0.078 5.97 7.23 12.7
12/27/2020 6:45:00 PM 4.23 39.614 0.078 5.97 7.25 12.7
12/27/2020 7:00:00 PM 4.2 39.56 0.079 5.97 8.22 12.7
12/27/2020 7:15:00 PM 4.17 39.506 0.078 5.96 8.52 12.7
12/27/2020 7:30:00 PM 4.13 39.434 0.079 5.99 8.31 12.72
12/27/2020 7:45:00 PM 4.11 39.398 0.079 5.98 7.57 12.72
12/27/2020 8:00:00 PM 4.08 39.344 0.079 5.98 7.69 12.73
12/27/2020 8:15:00 PM 4.05 39.29 0.079 5.99 7.44 12.74
12/27/2020 8:30:00 PM 4.03 39.254 0.079 5.97 7.26 12.75
12/27/2020 8:45:00 PM 4 39.2 0.079 5.99 7.23 12.76
12/27/2020 9:00:00 PM 3.98 39.164 0.079 5.99 7.14 12.75
12/27/2020 9:15:00 PM 3.95 39.11 0.079 5.98 7.31 12.78
12/27/2020 9:30:00 PM 3.92 39.056 0.079 5.99 7.32 12.78
12/27/2020 9:45:00 PM 3.9 39.02 0.079 5.98 7.07 12.78
12/27/2020 10:00:00 PM 3.88 38.984 0.079 6 6.92 12.8
12/27/2020 10:15:00 PM 3.85 38.93 0.08 5.99 7 12.81
12/27/2020 10:30:00 PM 3.84 38.912 0.079 5.99 7.13 12.81
12/27/2020 10:45:00 PM 3.82 38.876 0.08 5.99 6.97 12.81
12/27/2020 11:00:00 PM 3.81 38.858 0.079 6 6.97 12.82
12/27/2020 11:15:00 PM 3.79 38.822 0.08 6.01 6.99 12.82
12/27/2020 11:30:00 PM 3.77 38.786 0.08 6.02 6.9 12.83
12/27/2020 11:45:00 PM 3.75 38.75 0.08 6.01 6.96 12.84
12/28/2020 12:00:00 AM 3.73 38.714 0.08 6.02 6.77 12.84
12/28/2020 12:15:00 AM 3.71 38.678 0.08 6.02 6.74 12.84
12/28/2020 12:30:00 AM 3.7 38.66 0.08 6.01 6.7 12.85
12/28/2020 12:45:00 AM 3.69 38.642 0.08 6.02 6.83 12.85
12/28/2020 1:00:00 AM 3.68 38.624 0.08 6.02 6.61 12.86
12/28/2020 1:15:00 AM 3.67 38.606 0.08 6.02 7.12 12.85
12/28/2020 1:30:00 AM 3.65 38.57 0.08 6.01 6.59 12.86
12/28/2020 1:45:00 AM 3.65 38.57 0.08 6.03 6.56 12.86
12/28/2020 2:00:00 AM 3.64 38.552 0.08 6.04 6.69 12.86
12/28/2020 2:15:00 AM 3.64 38.552 0.08 6.04 6.46 12.86
12/28/2020 2:30:00 AM 3.64 38.552 0.08 6.04 6.57 12.86
12/28/2020 2:45:00 AM 3.64 38.552 0.081 6.01 6.44 12.86
12/28/2020 3:00:00 AM 3.63 38.534 0.081 6.02 6.66 12.86
12/28/2020 3:15:00 AM 3.62 38.516 0.081 6.03 6.58 12.86
12/28/2020 3:30:00 AM 3.62 38.516 0.081 6.04 6.52 12.86
12/28/2020 3:45:00 AM 3.62 38.516 0.081 6.04 6.49 12.86
12/28/2020 4:00:00 AM 3.63 38.534 0.081 6.06 6.6 12.86
12/28/2020 4:15:00 AM 3.64 38.552 0.081 6.06 6.5 12.86
12/28/2020 4:30:00 AM 3.66 38.588 0.081 6.09 6.55 12.85
12/28/2020 4:45:00 AM 3.67 38.606 0.081 6.06 6.44 12.85
12/28/2020 5:00:00 AM 3.68 38.624 0.081 6.06 6.34 12.84
12/28/2020 5:15:00 AM 3.7 38.66 0.081 6.09 6.46 12.84
12/28/2020 5:30:00 AM 3.7 38.66 0.081 6.05 6.6 12.84
12/28/2020 5:45:00 AM 3.71 38.678 0.081 6.08 6.64 12.83
12/28/2020 6:00:00 AM 3.71 38.678 0.081 6.08 6.34 12.83
12/28/2020 6:15:00 AM 3.72 38.696 0.081 6.08 6.69 12.83
12/28/2020 6:30:00 AM 3.73 38.714 0.081 6.08 6.46 12.82
12/28/2020 6:45:00 AM 3.74 38.732 0.081 6.08 6.04 12.82
12/28/2020 7:00:00 AM 3.75 38.75 0.081 6.1 5.9 12.82
12/28/2020 7:15:00 AM 3.75 38.75 0.081 6.11 6.01 12.81
12/28/2020 7:30:00 AM 3.76 38.768 0.081 6.09 6.06 12.81
12/28/2020 7:45:00 AM 3.77 38.786 0.081 6.07 5.91 12.81
12/28/2020 8:00:00 AM 3.78 38.804 0.081 6.12 5.88 12.81
12/28/2020 8:15:00 AM 3.79 38.822 0.081 6.1 6.09 12.81
12/28/2020 8:30:00 AM 3.81 38.858 0.081 6.08 6.07 12.81
12/28/2020 8:45:00 AM 3.83 38.894 0.082 6.12 5.81 12.81
12/28/2020 9:00:00 AM 3.86 38.948 0.082 6.12 5.94 12.82
12/28/2020 9:15:00 AM